Time,TemperatureF,DewpointF,PressureIn,WindDirection,WindDirectionDegrees,WindSpeedMPH,WindSpeedGustMPH,Humidity,HourlyPrecipIn,Conditions,Clouds,dailyrainin,SoftwareType,DateUTC
2013-07-23 00:00:00,78.1,73.6,29.85,ENE,68,0.0,0.0,86,0.00,,---,0.00,VWS V14.01,2013-07-23 04:00:00,
2013-07-23 00:01:00,77.9,73.4,29.85,ENE,68,0.0,0.0,86,0.00,,---,0.00,VWS V14.01,2013-07-23 04:01:00,
2013-07-23 00:02:00,78.1,73.6,29.85,ENE,68,0.0,0.0,86,0.00,,---,0.00,VWS V14.01,2013-07-23 04:02:00,
2013-07-23 00:03:00,78.1,73.6,29.85,ENE,68,0.0,0.0,86,0.00,,---,0.00,VWS V14.01,2013-07-23 04:03:00,
2013-07-23 00:04:00,78.1,73.6,29.85,ENE,68,0.0,0.0,86,0.00,,---,0.00,VWS V14.01,2013-07-23 04:04:00,
2013-07-23 00:05:00,78.1,73.6,29.85,ENE,68,0.0,0.0,86,0.00,,---,0.00,VWS V14.01,2013-07-23 04:05:00,
2013-07-23 00:06:00,78.1,73.9,29.85,SE,135,1.6,2.0,87,0.00,,---,0.00,VWS V14.01,2013-07-23 04:06:00,
2013-07-23 00:07:00,78.1,73.6,29.85,ENE,68,0.0,0.0,86,0.00,,---,0.00,VWS V14.01,2013-07-23 04:07:00,
2013-07-23 00:08:00,77.9,73.4,29.85,ENE,68,0.0,0.0,86,0.00,,---,0.00,VWS V14.01,2013-07-23 04:08:00,
2013-07-23 00:09:00,77.9,73.4,29.85,ENE,68,0.0,0.0,86,0.00,,---,0.00,VWS V14.01,2013-07-23 04:09:00,
2013-07-23 00:10:00,78.1,73.6,29.85,NNE,22,0.0,0.0,86,0.00,,---,0.00,VWS V14.01,2013-07-23 04:10:00,
2013-07-23 00:11:00,77.9,73.7,29.85,SE,135,0.0,0.0,87,0.00,,---,0.00,VWS V14.01,2013-07-23 04:11:00,
2013-07-23 00:12:00,78.1,73.9,29.85,East,90,0.0,0.0,87,0.00,,---,0.00,VWS V14.01,2013-07-23 04:12:00,
2013-07-23 00:13:00,78.1,73.9,29.85,East,90,0.0,0.0,87,0.00,,---,0.00,VWS V14.01,2013-07-23 04:13:00,
2013-07-23 00:14:00,78.1,73.9,29.85,ESE,112,0.0,0.0,87,0.00,,---,0.00,VWS V14.01,2013-07-23 04:14:00,
2013-07-23 00:15:00,78.1,73.9,29.85,SE,135,0.0,2.0,87,0.00,,---,0.00,VWS V14.01,2013-07-23 04:15:00,
2013-07-23 00:16:00,78.1,74.2,29.85,NNW,338,1.1,1.1,88,0.00,,---,0.00,VWS V14.01,2013-07-23 04:16:00,
2013-07-23 00:17:00,78.1,73.9,29.85,SE,135,0.0,2.0,87,0.00,,---,0.00,VWS V14.01,2013-07-23 04:17:00,
2013-07-23 00:18:00,78.1,73.9,29.85,SE,135,0.0,0.0,87,0.00,,---,0.00,VWS V14.01,2013-07-23 04:18:00,
2013-07-23 00:19:00,77.9,73.7,29.85,SE,135,0.0,0.0,87,0.00,,---,0.00,VWS V14.01,2013-07-23 04:19:00,
2013-07-23 00:20:00,77.9,73.7,29.85,SE,135,0.0,0.0,87,0.00,,---,0.00,VWS V14.01,2013-07-23 04:20:00,
2013-07-23 00:21:00,78.1,74.2,29.85,SSW,202,0.0,0.0,88,0.00,,---,0.00,VWS V14.01,2013-07-23 04:21:00,
2013-07-23 00:22:00,77.9,73.7,29.85,SE,135,0.0,0.0,87,0.00,,---,0.00,VWS V14.01,2013-07-23 04:22:00,
2013-07-23 00:23:00,77.9,73.7,29.85,NNW,338,0.0,0.9,87,0.00,,---,0.00,VWS V14.01,2013-07-23 04:23:00,
2013-07-23 00:24:00,78.1,74.2,29.85,NNW,338,1.1,2.9,88,0.00,,---,0.00,VWS V14.01,2013-07-23 04:24:00,
2013-07-23 00:25:00,78.3,74.4,29.85,NNW,338,0.0,1.1,88,0.00,,---,0.00,VWS V14.01,2013-07-23 04:25:00,
2013-07-23 00:26:00,78.1,74.2,29.85,SSW,202,0.0,0.0,88,0.00,,---,0.00,VWS V14.01,2013-07-23 04:26:00,
2013-07-23 00:27:00,78.3,74.8,29.85,SSW,202,0.0,0.0,89,0.00,,---,0.00,VWS V14.01,2013-07-23 04:27:00,
2013-07-23 00:28:00,78.3,74.8,29.85,SSW,202,0.0,0.0,89,0.00,,---,0.00,VWS V14.01,2013-07-23 04:28:00,
2013-07-23 00:29:00,78.1,74.2,29.85,SSW,202,0.0,0.0,88,0.00,,---,0.00,VWS V14.01,2013-07-23 04:29:00,
2013-07-23 00:30:00,78.1,74.2,29.85,SSW,202,0.9,0.9,88,0.00,,---,0.00,VWS V14.01,2013-07-23 04:30:00,
2013-07-23 00:31:00,77.9,74.1,29.85,SSW,202,0.0,0.0,88,0.00,,---,0.00,VWS V14.01,2013-07-23 04:31:00,
2013-07-23 00:32:00,78.1,74.2,29.85,SSW,202,0.0,0.0,88,0.00,,---,0.00,VWS V14.01,2013-07-23 04:32:00,
2013-07-23 00:33:00,78.1,74.2,29.85,SSW,202,0.0,0.0,88,0.00,,---,0.00,VWS V14.01,2013-07-23 04:33:00,
2013-07-23 00:35:00,78.1,74.2,29.85,SSW,202,0.0,0.0,88,0.00,,---,0.00,VWS V14.01,2013-07-23 04:35:00,
2013-07-23 00:36:00,77.9,74.1,29.85,SSW,202,0.9,1.6,88,0.00,,---,0.00,VWS V14.01,2013-07-23 04:36:00,
2013-07-23 00:39:00,77.9,74.1,29.85,SSW,202,0.0,0.0,88,0.00,,---,0.00,VWS V14.01,2013-07-23 04:39:00,
2013-07-23 00:40:00,77.9,74.1,29.85,SSW,202,0.0,0.0,88,0.00,,---,0.00,VWS V14.01,2013-07-23 04:40:00,
2013-07-23 00:41:00,77.9,74.1,29.85,South,180,0.0,0.0,88,0.00,,---,0.00,VWS V14.01,2013-07-23 04:41:00,
2013-07-23 00:43:00,77.9,74.1,29.85,SSW,202,0.0,0.0,88,0.00,,---,0.00,VWS V14.01,2013-07-23 04:43:00,
2013-07-23 00:44:00,77.9,74.1,29.85,SSW,202,1.6,1.6,88,0.00,,---,0.00,VWS V14.01,2013-07-23 04:44:00,
2013-07-23 00:45:00,77.9,74.1,29.85,SSW,202,0.0,1.6,88,0.00,,---,0.00,VWS V14.01,2013-07-23 04:45:00,
2013-07-23 00:46:00,77.9,74.1,29.82,East,90,0.0,0.0,88,0.00,,---,0.00,VWS V14.01,2013-07-23 04:46:00,
2013-07-23 00:47:00,77.9,74.1,29.85,SSW,202,0.0,0.0,88,0.00,,---,0.00,VWS V14.01,2013-07-23 04:47:00,
2013-07-23 00:48:00,77.9,74.1,29.85,South,180,0.0,0.0,88,0.00,,---,0.00,VWS V14.01,2013-07-23 04:48:00,
2013-07-23 00:49:00,77.9,74.1,29.85,South,180,0.0,0.0,88,0.00,,---,0.00,VWS V14.01,2013-07-23 04:49:00,
2013-07-23 00:50:00,77.9,74.1,29.85,ESE,112,0.0,0.0,88,0.00,,---,0.00,VWS V14.01,2013-07-23 04:50:00,
2013-07-23 00:51:00,77.9,74.1,29.82,East,90,0.0,0.0,88,0.00,,---,0.00,VWS V14.01,2013-07-23 04:51:00,
2013-07-23 00:52:00,77.9,74.4,29.82,East,90,0.0,0.0,89,0.00,,---,0.00,VWS V14.01,2013-07-23 04:52:00,
2013-07-23 00:53:00,77.9,74.1,29.82,East,90,0.0,0.0,88,0.00,,---,0.00,VWS V14.01,2013-07-23 04:53:00,
2013-07-23 00:54:00,77.9,74.1,29.82,East,90,0.0,0.0,88,0.00,,---,0.00,VWS V14.01,2013-07-23 04:54:00,
2013-07-23 00:55:00,77.9,74.1,29.82,East,90,0.0,0.0,88,0.00,,---,0.00,VWS V14.01,2013-07-23 04:55:00,
2013-07-23 00:56:00,77.7,73.6,29.82,SW,225,0.0,0.0,87,0.00,,---,0.00,VWS V14.01,2013-07-23 04:56:00,
2013-07-23 00:57:00,77.9,74.1,29.82,East,90,0.0,0.0,88,0.00,,---,0.00,VWS V14.01,2013-07-23 04:57:00,
2013-07-23 00:58:00,77.9,74.1,29.82,East,90,0.0,0.0,88,0.00,,---,0.00,VWS V14.01,2013-07-23 04:58:00,
2013-07-23 00:59:00,77.9,74.1,29.82,East,90,0.0,0.0,88,0.00,,---,0.00,VWS V14.01,2013-07-23 04:59:00,
2013-07-23 01:00:00,77.9,74.1,29.82,East,90,0.0,0.0,88,0.00,,---,0.00,VWS V14.01,2013-07-23 05:00:00,
2013-07-23 01:01:00,77.4,72.8,29.85,ENE,68,0.0,0.0,86,0.00,,---,0.00,VWS V14.01,2013-07-23 05:01:00,
2013-07-23 01:02:00,77.7,73.9,29.82,East,90,0.0,0.0,88,0.00,,---,0.00,VWS V14.01,2013-07-23 05:02:00,
2013-07-23 01:03:00,77.7,73.6,29.82,SW,225,1.6,2.2,87,0.00,,---,0.00,VWS V14.01,2013-07-23 05:03:00,
2013-07-23 01:04:00,77.7,73.6,29.82,SW,225,0.0,1.6,87,0.00,,---,0.00,VWS V14.01,2013-07-23 05:04:00,
2013-07-23 01:05:00,77.7,73.6,29.82,SW,225,0.0,0.0,87,0.00,,---,0.00,VWS V14.01,2013-07-23 05:05:00,
2013-07-23 01:06:00,76.1,71.6,29.85,East,90,0.0,0.0,86,0.00,,---,0.00,VWS V14.01,2013-07-23 05:06:00,
2013-07-23 01:07:00,77.7,73.6,29.85,NNW,338,2.9,2.9,87,0.00,,---,0.00,VWS V14.01,2013-07-23 05:07:00,
2013-07-23 01:08:00,77.5,73.4,29.85,East,90,0.0,2.9,87,0.00,,---,0.00,VWS V14.01,2013-07-23 05:08:00,
2013-07-23 01:09:00,77.4,72.8,29.85,ENE,68,0.0,0.0,86,0.00,,---,0.00,VWS V14.01,2013-07-23 05:09:00,
2013-07-23 01:10:00,77.2,72.7,29.85,ENE,68,0.0,0.0,86,0.00,,---,0.00,VWS V14.01,2013-07-23 05:10:00,
2013-07-23 01:11:00,75.7,71.6,29.85,East,90,0.0,0.0,87,0.00,,---,0.00,VWS V14.01,2013-07-23 05:11:00,
2013-07-23 01:12:00,76.6,72.1,29.85,East,90,0.0,1.3,86,0.00,,---,0.00,VWS V14.01,2013-07-23 05:12:00,
2013-07-23 01:13:00,76.5,72.0,29.85,East,90,0.0,0.0,86,0.00,,---,0.00,VWS V14.01,2013-07-23 05:13:00,
2013-07-23 01:14:00,76.5,72.0,29.85,East,90,0.0,0.0,86,0.00,,---,0.00,VWS V14.01,2013-07-23 05:14:00,
2013-07-23 01:15:00,76.1,71.6,29.85,East,90,0.0,0.0,86,0.00,,---,0.00,VWS V14.01,2013-07-23 05:15:00,
2013-07-23 01:16:00,75.4,71.6,29.85,East,90,0.0,0.0,88,0.00,,---,0.00,VWS V14.01,2013-07-23 05:16:00,
2013-07-23 01:17:00,75.9,71.8,29.85,East,90,0.0,0.0,87,0.00,,---,0.00,VWS V14.01,2013-07-23 05:17:00,
2013-07-23 01:18:00,75.9,71.8,29.85,East,90,0.0,0.0,87,0.00,,---,0.00,VWS V14.01,2013-07-23 05:18:00,
2013-07-23 01:19:00,75.7,71.6,29.85,East,90,0.0,0.0,87,0.00,,---,0.00,VWS V14.01,2013-07-23 05:19:00,
2013-07-23 01:20:00,75.6,71.4,29.85,East,90,0.0,0.0,87,0.00,,---,0.00,VWS V14.01,2013-07-23 05:20:00,
2013-07-23 01:21:00,74.8,71.4,29.85,East,90,0.0,0.0,89,0.00,,---,0.00,VWS V14.01,2013-07-23 05:21:00,
2013-07-23 01:22:00,75.6,71.8,29.85,East,90,0.0,0.0,88,0.00,,---,0.00,VWS V14.01,2013-07-23 05:22:00,
2013-07-23 01:23:00,75.4,71.6,29.85,East,90,0.0,0.0,88,0.00,,---,0.00,VWS V14.01,2013-07-23 05:23:00,
2013-07-23 01:24:00,75.4,71.6,29.85,East,90,0.0,0.0,88,0.00,,---,0.00,VWS V14.01,2013-07-23 05:24:00,
2013-07-23 01:25:00,75.2,71.4,29.85,East,90,0.0,0.0,88,0.00,,---,0.00,VWS V14.01,2013-07-23 05:25:00,
2013-07-23 01:26:00,74.7,71.5,29.85,East,90,0.0,0.0,90,0.00,,---,0.00,VWS V14.01,2013-07-23 05:26:00,
2013-07-23 01:27:00,75.0,71.2,29.85,East,90,0.0,0.0,88,0.00,,---,0.00,VWS V14.01,2013-07-23 05:27:00,
2013-07-23 01:28:00,75.0,71.6,29.85,East,90,0.0,0.0,89,0.00,,---,0.00,VWS V14.01,2013-07-23 05:28:00,
2013-07-23 01:29:00,75.0,71.6,29.85,East,90,0.0,0.0,89,0.00,,---,0.00,VWS V14.01,2013-07-23 05:29:00,
2013-07-23 01:30:00,74.8,71.4,29.85,East,90,0.0,0.0,89,0.00,,---,0.00,VWS V14.01,2013-07-23 05:30:00,
2013-07-23 01:31:00,74.3,71.2,29.82,ESE,112,0.0,0.0,90,0.00,,---,0.00,VWS V14.01,2013-07-23 05:31:00,
2013-07-23 01:32:00,74.8,71.4,29.85,East,90,0.0,0.0,89,0.00,,---,0.00,VWS V14.01,2013-07-23 05:32:00,
2013-07-23 01:33:00,74.7,71.2,29.85,East,90,0.0,0.0,89,0.00,,---,0.00,VWS V14.01,2013-07-23 05:33:00,
2013-07-23 01:34:00,74.7,71.5,29.85,East,90,0.0,0.0,90,0.00,,---,0.00,VWS V14.01,2013-07-23 05:34:00,
2013-07-23 01:35:00,74.7,71.5,29.85,East,90,0.0,0.0,90,0.00,,---,0.00,VWS V14.01,2013-07-23 05:35:00,
2013-07-23 01:36:00,74.1,71.3,29.82,ESE,112,0.0,0.0,91,0.00,,---,0.00,VWS V14.01,2013-07-23 05:36:00,
2013-07-23 01:37:00,74.5,71.4,29.82,ESE,112,0.0,0.0,90,0.00,,---,0.00,VWS V14.01,2013-07-23 05:37:00,
2013-07-23 01:38:00,74.3,71.2,29.82,ESE,112,0.0,0.0,90,0.00,,---,0.00,VWS V14.01,2013-07-23 05:38:00,
2013-07-23 01:39:00,74.3,71.2,29.82,ESE,112,0.0,0.0,90,0.00,,---,0.00,VWS V14.01,2013-07-23 05:39:00,
2013-07-23 01:40:00,74.3,71.2,29.82,ESE,112,0.0,0.0,90,0.00,,---,0.00,VWS V14.01,2013-07-23 05:40:00,
2013-07-23 01:41:00,73.9,71.2,29.82,ESE,112,0.0,0.0,91,0.00,,---,0.00,VWS V14.01,2013-07-23 05:41:00,
2013-07-23 01:42:00,74.3,71.2,29.82,ESE,112,0.0,0.0,90,0.00,,---,0.00,VWS V14.01,2013-07-23 05:42:00,
2013-07-23 01:43:00,74.1,71.0,29.82,ESE,112,0.0,0.0,90,0.00,,---,0.00,VWS V14.01,2013-07-23 05:43:00,
2013-07-23 01:44:00,74.1,71.3,29.82,ESE,112,0.0,0.0,91,0.00,,---,0.00,VWS V14.01,2013-07-23 05:44:00,
2013-07-23 01:45:00,74.1,71.3,29.82,ESE,112,0.0,0.0,91,0.00,,---,0.00,VWS V14.01,2013-07-23 05:45:00,
2013-07-23 01:46:00,73.9,71.5,29.82,ESE,112,0.0,0.0,92,0.00,,---,0.00,VWS V14.01,2013-07-23 05:46:00,
2013-07-23 01:47:00,74.1,71.3,29.82,ESE,112,0.0,0.0,91,0.00,,---,0.00,VWS V14.01,2013-07-23 05:47:00,
2013-07-23 01:48:00,74.1,71.3,29.82,ESE,112,0.0,0.0,91,0.00,,---,0.00,VWS V14.01,2013-07-23 05:48:00,
2013-07-23 01:49:00,73.9,71.2,29.82,ESE,112,0.0,0.0,91,0.00,,---,0.00,VWS V14.01,2013-07-23 05:49:00,
2013-07-23 01:50:00,73.9,71.2,29.82,ESE,112,0.0,0.0,91,0.00,,---,0.00,VWS V14.01,2013-07-23 05:50:00,
2013-07-23 01:51:00,73.9,71.8,29.82,NNW,338,0.0,0.0,93,0.00,,---,0.00,VWS V14.01,2013-07-23 05:51:00,
2013-07-23 01:52:00,73.9,71.2,29.82,ESE,112,0.0,0.0,91,0.00,,---,0.00,VWS V14.01,2013-07-23 05:52:00,
2013-07-23 01:53:00,73.9,71.5,29.82,ESE,112,0.0,0.0,92,0.00,,---,0.00,VWS V14.01,2013-07-23 05:53:00,
2013-07-23 01:54:00,73.9,71.5,29.82,ESE,112,0.0,0.0,92,0.00,,---,0.00,VWS V14.01,2013-07-23 05:54:00,
2013-07-23 01:55:00,73.9,71.5,29.82,East,90,0.0,0.0,92,0.00,,---,0.00,VWS V14.01,2013-07-23 05:55:00,
2013-07-23 01:56:00,73.8,71.6,29.82,SW,225,0.0,0.0,93,0.00,,---,0.00,VWS V14.01,2013-07-23 05:56:00,
2013-07-23 01:57:00,73.9,71.5,29.82,NNW,338,0.0,0.0,92,0.00,,---,0.00,VWS V14.01,2013-07-23 05:57:00,
2013-07-23 01:58:00,73.9,71.5,29.82,NNW,338,0.0,0.0,92,0.00,,---,0.00,VWS V14.01,2013-07-23 05:58:00,
2013-07-23 01:59:00,73.9,71.8,29.82,NNW,338,0.0,0.0,93,0.00,,---,0.00,VWS V14.01,2013-07-23 05:59:00,
2013-07-23 02:00:00,73.9,71.8,29.82,NNW,338,0.0,0.0,93,0.00,,---,0.00,VWS V14.01,2013-07-23 06:00:00,
2013-07-23 02:01:00,73.8,71.9,29.82,SW,225,0.0,0.0,94,0.00,,---,0.00,VWS V14.01,2013-07-23 06:01:00,
2013-07-23 02:02:00,86.9,68.8,29.74,SSE,158,1.3,1.3,55,0.00,,---,0.00,VWS V14.01,2013-07-23 06:02:00,
2013-07-23 02:03:00,73.8,71.6,29.82,SSW,202,0.0,0.0,93,0.00,,---,0.00,VWS V14.01,2013-07-23 06:03:00,
2013-07-23 02:04:00,73.8,71.6,29.82,SW,225,0.0,0.0,93,0.00,,---,0.00,VWS V14.01,2013-07-23 06:04:00,
2013-07-23 02:05:00,73.8,71.6,29.82,SW,225,0.0,0.0,93,0.00,,---,0.00,VWS V14.01,2013-07-23 06:05:00,
2013-07-23 02:06:00,73.8,71.9,29.82,SW,225,0.0,0.0,94,0.00,,---,0.00,VWS V14.01,2013-07-23 06:06:00,
2013-07-23 02:07:00,73.8,71.9,29.82,SW,225,0.0,0.0,94,0.00,,---,0.00,VWS V14.01,2013-07-23 06:07:00,
2013-07-23 02:08:00,73.8,71.9,29.82,SW,225,0.0,0.0,94,0.00,,---,0.00,VWS V14.01,2013-07-23 06:08:00,
2013-07-23 02:09:00,73.8,71.9,29.82,SW,225,0.0,0.0,94,0.00,,---,0.00,VWS V14.01,2013-07-23 06:09:00,
2013-07-23 02:10:00,73.8,71.9,29.82,SW,225,0.0,0.0,94,0.00,,---,0.00,VWS V14.01,2013-07-23 06:10:00,
2013-07-23 02:11:00,73.6,72.1,29.82,SW,225,0.0,0.0,95,0.00,,---,0.00,VWS V14.01,2013-07-23 06:11:00,
2013-07-23 02:12:00,73.8,71.9,29.82,SW,225,0.0,0.0,94,0.00,,---,0.00,VWS V14.01,2013-07-23 06:12:00,
2013-07-23 02:13:00,73.8,71.9,29.82,SW,225,0.0,0.0,94,0.00,,---,0.00,VWS V14.01,2013-07-23 06:13:00,
2013-07-23 02:14:00,73.8,71.9,29.82,SW,225,0.0,0.0,94,0.00,,---,0.00,VWS V14.01,2013-07-23 06:14:00,
2013-07-23 02:15:00,73.8,71.9,29.82,SW,225,0.0,0.0,94,0.00,,---,0.00,VWS V14.01,2013-07-23 06:15:00,
2013-07-23 02:16:00,73.6,72.1,29.82,SW,225,0.0,0.0,95,0.00,,---,0.00,VWS V14.01,2013-07-23 06:16:00,
2013-07-23 02:17:00,73.8,72.2,29.82,SW,225,0.0,0.0,95,0.00,,---,0.00,VWS V14.01,2013-07-23 06:17:00,
2013-07-23 02:18:00,73.8,72.2,29.82,SW,225,0.0,0.0,95,0.00,,---,0.00,VWS V14.01,2013-07-23 06:18:00,
2013-07-23 02:19:00,73.6,72.1,29.82,SW,225,0.0,0.0,95,0.00,,---,0.00,VWS V14.01,2013-07-23 06:19:00,
2013-07-23 02:20:00,73.6,72.1,29.82,SW,225,0.0,0.0,95,0.00,,---,0.00,VWS V14.01,2013-07-23 06:20:00,
2013-07-23 02:21:00,73.6,72.1,29.82,SW,225,0.0,0.0,95,0.00,,---,0.00,VWS V14.01,2013-07-23 06:21:00,
2013-07-23 02:22:00,73.6,72.1,29.82,SW,225,0.0,0.0,95,0.00,,---,0.00,VWS V14.01,2013-07-23 06:22:00,
2013-07-23 02:23:00,73.6,72.1,29.82,SW,225,0.0,0.0,95,0.00,,---,0.00,VWS V14.01,2013-07-23 06:23:00,
2013-07-23 02:24:00,73.6,72.1,29.82,SW,225,0.0,0.0,95,0.00,,---,0.00,VWS V14.01,2013-07-23 06:24:00,
2013-07-23 02:25:00,73.6,72.1,29.82,SW,225,0.0,0.0,95,0.00,,---,0.00,VWS V14.01,2013-07-23 06:25:00,
2013-07-23 02:26:00,73.6,72.4,29.82,SW,225,0.0,0.0,96,0.00,,---,0.00,VWS V14.01,2013-07-23 06:26:00,
2013-07-23 02:27:00,73.6,72.1,29.82,SW,225,0.0,0.0,95,0.00,,---,0.00,VWS V14.01,2013-07-23 06:27:00,
2013-07-23 02:28:00,73.6,72.1,29.82,SW,225,0.0,0.0,95,0.00,,---,0.00,VWS V14.01,2013-07-23 06:28:00,
2013-07-23 02:29:00,73.6,72.1,29.82,SW,225,0.0,0.0,95,0.00,,---,0.00,VWS V14.01,2013-07-23 06:29:00,
2013-07-23 02:30:00,73.6,72.1,29.82,SW,225,0.0,0.0,95,0.00,,---,0.00,VWS V14.01,2013-07-23 06:30:00,
2013-07-23 02:31:00,73.6,72.4,29.82,SW,225,0.0,0.0,96,0.00,,---,0.00,VWS V14.01,2013-07-23 06:31:00,
2013-07-23 02:32:00,73.6,72.4,29.82,SW,225,0.0,0.0,96,0.00,,---,0.00,VWS V14.01,2013-07-23 06:32:00,
2013-07-23 02:33:00,73.6,72.4,29.82,SW,225,0.0,0.0,96,0.00,,---,0.00,VWS V14.01,2013-07-23 06:33:00,
2013-07-23 02:34:00,73.6,72.4,29.82,SW,225,0.0,0.0,96,0.00,,---,0.00,VWS V14.01,2013-07-23 06:34:00,
2013-07-23 02:35:00,73.4,71.9,29.82,SW,225,0.0,0.0,95,0.00,,---,0.00,VWS V14.01,2013-07-23 06:35:00,
2013-07-23 02:36:00,73.4,72.2,29.82,SW,225,0.0,0.0,96,0.00,,---,0.00,VWS V14.01,2013-07-23 06:36:00,
2013-07-23 02:37:00,73.6,72.4,29.82,SW,225,0.0,0.0,96,0.00,,---,0.00,VWS V14.01,2013-07-23 06:37:00,
2013-07-23 02:38:00,73.4,72.2,29.82,SW,225,0.0,0.0,96,0.00,,---,0.00,VWS V14.01,2013-07-23 06:38:00,
2013-07-23 02:39:00,73.6,72.4,29.82,SW,225,0.0,0.0,96,0.00,,---,0.00,VWS V14.01,2013-07-23 06:39:00,
2013-07-23 02:40:00,73.6,72.4,29.82,SW,225,0.0,0.0,96,0.00,,---,0.00,VWS V14.01,2013-07-23 06:40:00,
2013-07-23 02:41:00,73.4,72.2,29.82,SW,225,0.0,0.0,96,0.00,,---,0.00,VWS V14.01,2013-07-23 06:41:00,
2013-07-23 02:42:00,73.4,72.2,29.82,SW,225,0.0,0.0,96,0.00,,---,0.00,VWS V14.01,2013-07-23 06:42:00,
2013-07-23 02:43:00,73.4,72.2,29.82,SW,225,0.0,0.0,96,0.00,,---,0.00,VWS V14.01,2013-07-23 06:43:00,
2013-07-23 02:44:00,73.4,72.2,29.82,SW,225,0.0,0.0,96,0.00,,---,0.00,VWS V14.01,2013-07-23 06:44:00,
2013-07-23 02:45:00,73.4,72.2,29.82,SW,225,0.0,0.0,96,0.00,,---,0.00,VWS V14.01,2013-07-23 06:45:00,
2013-07-23 02:46:00,73.4,72.2,29.82,SW,225,0.0,0.0,96,0.00,,---,0.00,VWS V14.01,2013-07-23 06:46:00,
2013-07-23 02:47:00,73.4,72.2,29.82,SW,225,0.0,0.0,96,0.00,,---,0.00,VWS V14.01,2013-07-23 06:47:00,
2013-07-23 02:48:00,73.4,72.2,29.82,SW,225,0.0,0.0,96,0.00,,---,0.00,VWS V14.01,2013-07-23 06:48:00,
2013-07-23 02:49:00,73.4,72.2,29.82,SW,225,0.0,0.0,96,0.00,,---,0.00,VWS V14.01,2013-07-23 06:49:00,
2013-07-23 02:50:00,73.4,72.2,29.82,SW,225,0.0,0.0,96,0.00,,---,0.00,VWS V14.01,2013-07-23 06:50:00,
2013-07-23 02:51:00,73.4,72.2,29.82,SW,225,0.0,0.0,96,0.00,,---,0.00,VWS V14.01,2013-07-23 06:51:00,
2013-07-23 02:52:00,73.4,72.2,29.82,SW,225,0.0,0.0,96,0.00,,---,0.00,VWS V14.01,2013-07-23 06:52:00,
2013-07-23 02:53:00,73.4,72.2,29.82,SW,225,0.0,0.0,96,0.00,,---,0.00,VWS V14.01,2013-07-23 06:53:00,
2013-07-23 02:54:00,73.4,72.2,29.82,SW,225,0.0,0.0,96,0.00,,---,0.00,VWS V14.01,2013-07-23 06:54:00,
2013-07-23 02:55:00,73.4,72.2,29.82,SW,225,0.0,0.0,96,0.00,,---,0.00,VWS V14.01,2013-07-23 06:55:00,
2013-07-23 02:56:00,73.4,72.5,29.82,SW,225,0.0,0.0,97,0.00,,---,0.00,VWS V14.01,2013-07-23 06:56:00,
2013-07-23 02:57:00,73.4,72.2,29.82,SW,225,0.0,0.0,96,0.00,,---,0.00,VWS V14.01,2013-07-23 06:57:00,
2013-07-23 02:58:00,73.4,72.2,29.82,SW,225,0.0,0.0,96,0.00,,---,0.00,VWS V14.01,2013-07-23 06:58:00,
2013-07-23 02:59:00,73.4,72.2,29.82,SW,225,0.0,0.0,96,0.00,,---,0.00,VWS V14.01,2013-07-23 06:59:00,
2013-07-23 03:00:00,73.4,72.2,29.82,SW,225,0.0,0.0,96,0.00,,---,0.00,VWS V14.01,2013-07-23 07:00:00,
2013-07-23 03:01:00,73.2,72.3,29.82,SW,225,0.0,0.0,97,0.00,,---,0.00,VWS V14.01,2013-07-23 07:01:00,
2013-07-23 03:02:00,73.4,72.5,29.82,SW,225,0.0,0.0,97,0.00,,---,0.00,VWS V14.01,2013-07-23 07:02:00,
2013-07-23 03:03:00,73.4,72.5,29.82,SW,225,0.0,0.0,97,0.00,,---,0.00,VWS V14.01,2013-07-23 07:03:00,
2013-07-23 03:04:00,73.4,72.5,29.82,SW,225,0.0,0.0,97,0.00,,---,0.00,VWS V14.01,2013-07-23 07:04:00,
2013-07-23 03:05:00,73.4,72.5,29.82,SW,225,0.0,0.0,97,0.00,,---,0.00,VWS V14.01,2013-07-23 07:05:00,
2013-07-23 03:06:00,73.2,72.3,29.82,SW,225,0.0,0.0,97,0.00,,---,0.00,VWS V14.01,2013-07-23 07:06:00,
2013-07-23 03:07:00,73.4,72.5,29.82,SW,225,0.0,0.0,97,0.00,,---,0.00,VWS V14.01,2013-07-23 07:07:00,
2013-07-23 03:08:00,73.4,72.5,29.82,SW,225,0.0,0.0,97,0.00,,---,0.00,VWS V14.01,2013-07-23 07:08:00,
2013-07-23 03:09:00,73.2,72.3,29.82,SW,225,0.0,0.0,97,0.00,,---,0.00,VWS V14.01,2013-07-23 07:09:00,
2013-07-23 03:10:00,73.2,72.3,29.82,SW,225,0.0,0.0,97,0.00,,---,0.00,VWS V14.01,2013-07-23 07:10:00,
2013-07-23 03:11:00,73.2,72.3,29.82,SW,225,0.0,0.0,97,0.00,,---,0.00,VWS V14.01,2013-07-23 07:11:00,
2013-07-23 03:12:00,73.2,72.3,29.82,SW,225,0.0,0.0,97,0.00,,---,0.00,VWS V14.01,2013-07-23 07:12:00,
2013-07-23 03:13:00,73.2,72.3,29.82,SW,225,0.0,0.0,97,0.00,,---,0.00,VWS V14.01,2013-07-23 07:13:00,
2013-07-23 03:14:00,73.2,72.3,29.82,SW,225,0.0,0.0,97,0.00,,---,0.00,VWS V14.01,2013-07-23 07:14:00,
2013-07-23 03:15:00,73.2,72.3,29.82,SW,225,0.0,0.0,97,0.00,,---,0.00,VWS V14.01,2013-07-23 07:15:00,
2013-07-23 03:16:00,73.2,72.6,29.82,SW,225,0.0,0.0,98,0.00,,---,0.00,VWS V14.01,2013-07-23 07:16:00,
2013-07-23 03:17:00,73.2,72.3,29.82,SW,225,0.0,0.0,97,0.00,,---,0.00,VWS V14.01,2013-07-23 07:17:00,
2013-07-23 03:18:00,73.2,72.3,29.82,SW,225,0.0,0.0,97,0.00,,---,0.00,VWS V14.01,2013-07-23 07:18:00,
2013-07-23 03:19:00,73.2,72.3,29.82,SW,225,0.0,0.0,97,0.00,,---,0.00,VWS V14.01,2013-07-23 07:19:00,
2013-07-23 03:20:00,73.2,72.3,29.82,SW,225,0.0,0.0,97,0.00,,---,0.00,VWS V14.01,2013-07-23 07:20:00,
2013-07-23 03:21:00,73.2,72.6,29.82,SW,225,0.0,0.0,98,0.00,,---,0.00,VWS V14.01,2013-07-23 07:21:00,
2013-07-23 03:22:00,73.2,72.3,29.82,SW,225,0.0,0.0,97,0.00,,---,0.00,VWS V14.01,2013-07-23 07:22:00,
2013-07-23 03:23:00,73.2,72.3,29.82,SW,225,0.0,0.0,97,0.00,,---,0.00,VWS V14.01,2013-07-23 07:23:00,
2013-07-23 03:24:00,73.2,72.6,29.82,SW,225,0.0,0.0,98,0.00,,---,0.00,VWS V14.01,2013-07-23 07:24:00,
2013-07-23 03:25:00,73.2,72.6,29.82,SW,225,0.0,0.0,98,0.00,,---,0.00,VWS V14.01,2013-07-23 07:25:00,
2013-07-23 03:26:00,73.0,72.1,29.82,SSW,202,0.0,0.0,97,0.00,,---,0.00,VWS V14.01,2013-07-23 07:26:00,
2013-07-23 03:27:00,73.2,72.6,29.82,SW,225,0.0,0.0,98,0.00,,---,0.00,VWS V14.01,2013-07-23 07:27:00,
2013-07-23 03:28:00,73.2,72.6,29.82,SW,225,0.0,0.0,98,0.00,,---,0.00,VWS V14.01,2013-07-23 07:28:00,
2013-07-23 03:29:00,73.2,72.6,29.82,SW,225,0.0,0.0,98,0.00,,---,0.00,VWS V14.01,2013-07-23 07:29:00,
2013-07-23 03:30:00,73.2,72.6,29.82,SW,225,0.0,0.0,98,0.00,,---,0.00,VWS V14.01,2013-07-23 07:30:00,
2013-07-23 03:31:00,73.2,72.6,29.82,SSW,202,0.0,0.0,98,0.00,,---,0.00,VWS V14.01,2013-07-23 07:31:00,
2013-07-23 03:32:00,73.2,72.3,29.82,SW,225,0.0,0.0,97,0.00,,---,0.00,VWS V14.01,2013-07-23 07:32:00,
2013-07-23 03:33:00,73.0,72.1,29.82,SSW,202,0.0,0.0,97,0.00,,---,0.00,VWS V14.01,2013-07-23 07:33:00,
2013-07-23 03:34:00,73.0,72.1,29.82,SSW,202,0.0,0.0,97,0.00,,---,0.00,VWS V14.01,2013-07-23 07:34:00,
2013-07-23 03:35:00,73.0,72.1,29.82,SSW,202,0.0,0.0,97,0.00,,---,0.00,VWS V14.01,2013-07-23 07:35:00,
2013-07-23 03:36:00,73.2,72.6,29.82,SSW,202,0.0,0.0,98,0.00,,---,0.00,VWS V14.01,2013-07-23 07:36:00,
2013-07-23 03:37:00,73.2,72.3,29.82,SSW,202,0.0,0.0,97,0.00,,---,0.00,VWS V14.01,2013-07-23 07:37:00,
2013-07-23 03:38:00,73.2,72.3,29.82,SSW,202,0.0,0.0,97,0.00,,---,0.00,VWS V14.01,2013-07-23 07:38:00,
2013-07-23 03:39:00,73.2,72.6,29.82,SSW,202,0.0,0.0,98,0.00,,---,0.00,VWS V14.01,2013-07-23 07:39:00,
2013-07-23 03:40:00,73.2,72.6,29.82,SSW,202,0.0,0.0,98,0.00,,---,0.00,VWS V14.01,2013-07-23 07:40:00,
2013-07-23 03:41:00,73.2,72.6,29.82,SSW,202,0.0,0.0,98,0.00,,---,0.00,VWS V14.01,2013-07-23 07:41:00,
2013-07-23 03:42:00,73.2,72.6,29.82,SSW,202,0.0,0.0,98,0.00,,---,0.00,VWS V14.01,2013-07-23 07:42:00,
2013-07-23 03:43:00,73.2,72.6,29.82,SSW,202,0.0,0.0,98,0.00,,---,0.00,VWS V14.01,2013-07-23 07:43:00,
2013-07-23 03:44:00,73.2,72.6,29.82,SSW,202,0.0,0.0,98,0.00,,---,0.00,VWS V14.01,2013-07-23 07:44:00,
2013-07-23 03:45:00,73.2,72.6,29.82,SSW,202,0.0,0.0,98,0.00,,---,0.00,VWS V14.01,2013-07-23 07:45:00,
2013-07-23 03:46:00,73.2,72.6,29.82,SSW,202,0.0,0.0,98,0.00,,---,0.00,VWS V14.01,2013-07-23 07:46:00,
2013-07-23 03:47:00,73.2,72.6,29.82,SSW,202,0.0,0.0,98,0.00,,---,0.00,VWS V14.01,2013-07-23 07:47:00,
2013-07-23 03:48:00,73.2,72.6,29.82,SSW,202,0.0,0.0,98,0.00,,---,0.00,VWS V14.01,2013-07-23 07:48:00,
2013-07-23 03:49:00,73.2,72.6,29.82,SSW,202,0.0,0.0,98,0.00,,---,0.00,VWS V14.01,2013-07-23 07:49:00,
2013-07-23 03:50:00,73.2,72.6,29.82,SSW,202,0.0,0.0,98,0.00,,---,0.00,VWS V14.01,2013-07-23 07:50:00,
2013-07-23 03:51:00,73.0,72.4,29.82,SSW,202,0.0,0.0,98,0.00,,---,0.00,VWS V14.01,2013-07-23 07:51:00,
2013-07-23 03:52:00,73.2,72.6,29.82,SSW,202,0.0,0.0,98,0.00,,---,0.00,VWS V14.01,2013-07-23 07:52:00,
2013-07-23 03:53:00,73.2,72.6,29.82,SSW,202,0.0,0.0,98,0.00,,---,0.00,VWS V14.01,2013-07-23 07:53:00,
2013-07-23 03:54:00,73.2,72.6,29.82,SSW,202,0.0,0.0,98,0.00,,---,0.00,VWS V14.01,2013-07-23 07:54:00,
2013-07-23 03:55:00,73.2,72.6,29.82,SSW,202,0.0,0.0,98,0.00,,---,0.00,VWS V14.01,2013-07-23 07:55:00,
2013-07-23 03:56:00,73.4,72.8,29.82,ENE,68,0.0,0.0,98,0.00,,---,0.00,VWS V14.01,2013-07-23 07:56:00,
2013-07-23 03:57:00,73.0,72.4,29.82,SSW,202,0.0,0.0,98,0.00,,---,0.00,VWS V14.01,2013-07-23 07:57:00,
2013-07-23 03:58:00,73.0,72.4,29.82,SSW,202,0.0,0.0,98,0.00,,---,0.00,VWS V14.01,2013-07-23 07:58:00,
2013-07-23 03:59:00,73.0,72.4,29.82,SSW,202,0.0,0.0,98,0.00,,---,0.00,VWS V14.01,2013-07-23 07:59:00,
2013-07-23 04:00:00,73.0,72.4,29.82,SSW,202,0.0,0.0,98,0.00,,---,0.00,VWS V14.01,2013-07-23 08:00:00,
2013-07-23 04:01:00,73.6,73.0,29.82,ENE,68,0.0,0.0,98,0.00,,---,0.00,VWS V14.01,2013-07-23 08:01:00,
2013-07-23 04:02:00,73.0,72.4,29.82,East,90,0.0,0.0,98,0.00,,---,0.00,VWS V14.01,2013-07-23 08:02:00,
2013-07-23 04:03:00,73.2,72.6,29.82,ENE,68,0.0,0.0,98,0.00,,---,0.00,VWS V14.01,2013-07-23 08:03:00,
2013-07-23 04:04:00,73.4,72.8,29.82,ENE,68,0.0,0.0,98,0.00,,---,0.00,VWS V14.01,2013-07-23 08:04:00,
2013-07-23 04:05:00,73.4,72.8,29.82,ENE,68,0.0,0.0,98,0.00,,---,0.00,VWS V14.01,2013-07-23 08:05:00,
2013-07-23 04:06:00,73.6,73.0,29.82,NNE,22,0.0,0.0,98,0.00,,---,0.00,VWS V14.01,2013-07-23 08:06:00,
2013-07-23 04:07:00,73.6,73.0,29.82,ENE,68,0.0,0.0,98,0.00,,---,0.00,VWS V14.01,2013-07-23 08:07:00,
2013-07-23 04:08:00,73.6,73.0,29.82,ENE,68,0.0,0.0,98,0.00,,---,0.00,VWS V14.01,2013-07-23 08:08:00,
2013-07-23 04:09:00,73.6,73.0,29.82,ENE,68,0.0,0.0,98,0.00,,---,0.00,VWS V14.01,2013-07-23 08:09:00,
2013-07-23 04:10:00,73.6,73.0,29.82,ENE,68,0.0,0.0,98,0.00,,---,0.00,VWS V14.01,2013-07-23 08:10:00,
2013-07-23 04:11:00,73.6,73.0,29.82,NNE,22,0.0,0.0,98,0.00,,---,0.00,VWS V14.01,2013-07-23 08:11:00,
2013-07-23 04:12:00,73.6,73.0,29.82,East,90,0.0,0.0,98,0.00,,---,0.00,VWS V14.01,2013-07-23 08:12:00,
2013-07-23 04:13:00,73.4,72.8,29.82,East,90,0.0,0.0,98,0.00,,---,0.00,VWS V14.01,2013-07-23 08:13:00,
2013-07-23 04:14:00,73.6,73.0,29.82,NNE,22,0.0,0.0,98,0.00,,---,0.00,VWS V14.01,2013-07-23 08:14:00,
2013-07-23 04:15:00,73.6,73.0,29.82,NNE,22,0.0,0.0,98,0.00,,---,0.00,VWS V14.01,2013-07-23 08:15:00,
2013-07-23 04:16:00,73.6,73.0,29.82,NNE,22,0.0,0.0,98,0.00,,---,0.00,VWS V14.01,2013-07-23 08:16:00,
2013-07-23 04:17:00,73.6,73.0,29.82,NNE,22,0.0,0.0,98,0.00,,---,0.00,VWS V14.01,2013-07-23 08:17:00,
2013-07-23 04:18:00,73.6,73.0,29.82,NNE,22,0.0,0.0,98,0.00,,---,0.00,VWS V14.01,2013-07-23 08:18:00,
2013-07-23 04:19:00,73.6,73.0,29.82,NNE,22,0.0,0.0,98,0.00,,---,0.00,VWS V14.01,2013-07-23 08:19:00,
2013-07-23 04:20:00,73.6,73.0,29.82,NNE,22,0.0,0.0,98,0.00,,---,0.00,VWS V14.01,2013-07-23 08:20:00,
2013-07-23 04:21:00,73.6,73.0,29.82,WNW,292,0.0,0.0,98,0.00,,---,0.00,VWS V14.01,2013-07-23 08:21:00,
2013-07-23 04:22:00,73.4,72.8,29.82,NNE,22,0.0,0.0,98,0.00,,---,0.00,VWS V14.01,2013-07-23 08:22:00,
2013-07-23 04:23:00,73.6,73.0,29.82,NNE,22,0.0,0.0,98,0.00,,---,0.00,VWS V14.01,2013-07-23 08:23:00,
2013-07-23 04:24:00,73.6,73.0,29.82,NNE,22,0.0,0.0,98,0.00,,---,0.00,VWS V14.01,2013-07-23 08:24:00,
2013-07-23 04:25:00,73.6,73.0,29.82,NNE,22,0.0,0.0,98,0.00,,---,0.00,VWS V14.01,2013-07-23 08:25:00,
2013-07-23 04:26:00,73.6,73.0,29.82,North,0,0.0,0.0,98,0.00,,---,0.00,VWS V14.01,2013-07-23 08:26:00,
2013-07-23 04:27:00,73.6,73.0,29.82,NNE,22,0.0,0.0,98,0.00,,---,0.00,VWS V14.01,2013-07-23 08:27:00,
2013-07-23 04:28:00,73.6,73.0,29.82,NNE,22,0.0,0.0,98,0.00,,---,0.00,VWS V14.01,2013-07-23 08:28:00,
2013-07-23 04:29:00,73.6,73.0,29.82,WNW,292,0.0,0.0,98,0.00,,---,0.00,VWS V14.01,2013-07-23 08:29:00,
2013-07-23 04:30:00,73.6,73.0,29.82,WNW,292,0.0,0.0,98,0.00,,---,0.00,VWS V14.01,2013-07-23 08:30:00,
2013-07-23 04:31:00,73.8,73.2,29.82,North,0,0.0,0.0,98,0.00,,---,0.00,VWS V14.01,2013-07-23 08:31:00,
2013-07-23 04:32:00,73.6,73.0,29.82,NNW,338,0.0,0.0,98,0.00,,---,0.00,VWS V14.01,2013-07-23 08:32:00,
2013-07-23 04:33:00,73.6,73.0,29.82,North,0,0.0,0.0,98,0.00,,---,0.00,VWS V14.01,2013-07-23 08:33:00,
2013-07-23 04:34:00,73.6,73.0,29.82,North,0,0.0,0.0,98,0.00,,---,0.00,VWS V14.01,2013-07-23 08:34:00,
2013-07-23 04:35:00,73.8,73.2,29.82,North,0,0.0,0.0,98,0.00,,---,0.00,VWS V14.01,2013-07-23 08:35:00,
2013-07-23 04:36:00,73.6,73.0,29.82,ENE,68,0.0,0.0,98,0.00,,---,0.00,VWS V14.01,2013-07-23 08:36:00,
2013-07-23 04:37:00,73.6,73.0,29.82,North,0,0.0,0.0,98,0.00,,---,0.00,VWS V14.01,2013-07-23 08:37:00,
2013-07-23 04:38:00,73.6,73.0,29.82,North,0,0.0,0.0,98,0.00,,---,0.00,VWS V14.01,2013-07-23 08:38:00,
2013-07-23 04:39:00,73.8,73.2,29.82,North,0,0.0,0.0,98,0.00,,---,0.00,VWS V14.01,2013-07-23 08:39:00,
2013-07-23 04:40:00,73.8,73.2,29.82,North,0,0.0,0.0,98,0.00,,---,0.00,VWS V14.01,2013-07-23 08:40:00,
2013-07-23 04:41:00,73.4,72.8,29.82,ENE,68,0.0,0.0,98,0.00,,---,0.00,VWS V14.01,2013-07-23 08:41:00,
2013-07-23 04:42:00,73.6,73.0,29.82,North,0,0.0,0.0,98,0.00,,---,0.00,VWS V14.01,2013-07-23 08:42:00,
2013-07-23 04:43:00,73.6,73.0,29.82,North,0,0.0,0.0,98,0.00,,---,0.00,VWS V14.01,2013-07-23 08:43:00,
2013-07-23 04:44:00,73.6,73.0,29.82,North,0,0.0,0.0,98,0.00,,---,0.00,VWS V14.01,2013-07-23 08:44:00,
2013-07-23 04:45:00,73.4,72.8,29.82,ENE,68,0.0,0.0,98,0.00,,---,0.00,VWS V14.01,2013-07-23 08:45:00,
2013-07-23 04:46:00,73.6,73.0,29.82,ENE,68,0.0,0.0,98,0.00,,---,0.00,VWS V14.01,2013-07-23 08:46:00,
2013-07-23 04:47:00,73.4,72.8,29.82,ENE,68,0.0,0.0,98,0.00,,---,0.00,VWS V14.01,2013-07-23 08:47:00,
2013-07-23 04:48:00,73.4,72.8,29.82,ENE,68,0.0,0.0,98,0.00,,---,0.00,VWS V14.01,2013-07-23 08:48:00,
2013-07-23 04:49:00,73.4,72.8,29.82,ENE,68,0.0,0.0,98,0.00,,---,0.00,VWS V14.01,2013-07-23 08:49:00,
2013-07-23 04:50:00,73.4,72.8,29.82,ENE,68,0.0,0.0,98,0.00,,---,0.00,VWS V14.01,2013-07-23 08:50:00,
2013-07-23 04:51:00,73.6,73.0,29.82,ENE,68,0.0,0.0,98,0.00,,---,0.00,VWS V14.01,2013-07-23 08:51:00,
2013-07-23 04:52:00,73.4,72.8,29.82,ENE,68,0.0,0.0,98,0.00,,---,0.00,VWS V14.01,2013-07-23 08:52:00,
2013-07-23 04:53:00,73.4,72.8,29.82,ENE,68,0.0,0.0,98,0.00,,---,0.00,VWS V14.01,2013-07-23 08:53:00,
2013-07-23 04:54:00,73.6,73.0,29.82,ENE,68,0.0,0.0,98,0.00,,---,0.00,VWS V14.01,2013-07-23 08:54:00,
2013-07-23 04:55:00,73.6,73.0,29.82,ENE,68,0.0,0.0,98,0.00,,---,0.00,VWS V14.01,2013-07-23 08:55:00,
2013-07-23 04:56:00,73.6,73.0,29.82,ENE,68,0.0,0.0,98,0.00,,---,0.00,VWS V14.01,2013-07-23 08:56:00,
2013-07-23 04:57:00,73.6,73.0,29.82,ENE,68,0.0,0.0,98,0.00,,---,0.00,VWS V14.01,2013-07-23 08:57:00,
2013-07-23 04:58:00,73.6,73.0,29.82,ENE,68,0.0,0.0,98,0.00,,---,0.00,VWS V14.01,2013-07-23 08:58:00,
2013-07-23 04:59:00,73.6,73.0,29.82,ENE,68,0.0,0.0,98,0.00,,---,0.00,VWS V14.01,2013-07-23 08:59:00,
2013-07-23 05:00:00,73.6,73.0,29.82,ENE,68,0.0,0.0,98,0.00,,---,0.00,VWS V14.01,2013-07-23 09:00:00,
2013-07-23 05:01:00,73.4,72.8,29.79,ENE,68,0.0,0.0,98,0.00,,---,0.00,VWS V14.01,2013-07-23 09:01:00,
2013-07-23 05:02:00,73.6,73.0,29.82,ENE,68,0.0,0.0,98,0.00,,---,0.00,VWS V14.01,2013-07-23 09:02:00,
2013-07-23 05:03:00,73.6,73.0,29.82,ENE,68,0.0,0.0,98,0.00,,---,0.00,VWS V14.01,2013-07-23 09:03:00,
2013-07-23 05:04:00,73.6,73.0,29.82,ENE,68,0.0,0.0,98,0.00,,---,0.00,VWS V14.01,2013-07-23 09:04:00,
2013-07-23 05:05:00,73.6,73.0,29.82,ENE,68,0.0,0.0,98,0.00,,---,0.00,VWS V14.01,2013-07-23 09:05:00,
2013-07-23 05:06:00,73.4,72.8,29.79,ENE,68,0.0,0.0,98,0.00,,---,0.00,VWS V14.01,2013-07-23 09:06:00,
2013-07-23 05:07:00,73.6,73.0,29.79,ENE,68,0.0,0.0,98,0.00,,---,0.00,VWS V14.01,2013-07-23 09:07:00,
2013-07-23 05:08:00,73.4,72.8,29.79,ENE,68,0.0,0.0,98,0.00,,---,0.00,VWS V14.01,2013-07-23 09:08:00,
2013-07-23 05:09:00,73.4,72.8,29.79,ENE,68,0.0,0.0,98,0.00,,---,0.00,VWS V14.01,2013-07-23 09:09:00,
2013-07-23 05:10:00,73.4,72.8,29.79,ENE,68,0.0,0.0,98,0.00,,---,0.00,VWS V14.01,2013-07-23 09:10:00,
2013-07-23 05:11:00,73.4,72.8,29.79,ENE,68,0.0,0.0,98,0.00,,---,0.00,VWS V14.01,2013-07-23 09:11:00,
2013-07-23 05:12:00,73.4,72.8,29.79,ENE,68,0.0,0.0,98,0.00,,---,0.00,VWS V14.01,2013-07-23 09:12:00,
2013-07-23 05:13:00,73.4,72.8,29.79,ENE,68,0.0,0.0,98,0.00,,---,0.00,VWS V14.01,2013-07-23 09:13:00,
2013-07-23 05:14:00,73.4,72.8,29.79,ENE,68,0.0,0.0,98,0.00,,---,0.00,VWS V14.01,2013-07-23 09:14:00,
2013-07-23 05:15:00,73.4,72.8,29.79,ENE,68,0.0,0.0,98,0.00,,---,0.00,VWS V14.01,2013-07-23 09:15:00,
2013-07-23 05:16:00,73.4,72.8,29.79,ENE,68,0.0,0.0,98,0.00,,---,0.00,VWS V14.01,2013-07-23 09:16:00,
2013-07-23 05:17:00,73.4,72.8,29.79,ENE,68,0.0,0.0,98,0.00,,---,0.00,VWS V14.01,2013-07-23 09:17:00,
2013-07-23 05:18:00,73.4,72.8,29.79,ENE,68,0.0,0.0,98,0.00,,---,0.00,VWS V14.01,2013-07-23 09:18:00,
2013-07-23 05:19:00,73.4,72.8,29.79,ENE,68,0.0,0.0,98,0.00,,---,0.00,VWS V14.01,2013-07-23 09:19:00,
2013-07-23 05:20:00,73.4,72.8,29.79,ENE,68,0.0,0.0,98,0.00,,---,0.00,VWS V14.01,2013-07-23 09:20:00,
2013-07-23 05:21:00,73.4,72.8,29.79,ENE,68,0.0,0.0,98,0.00,,---,0.00,VWS V14.01,2013-07-23 09:21:00,
2013-07-23 05:22:00,73.4,72.8,29.79,ENE,68,0.0,0.0,98,0.00,,---,0.00,VWS V14.01,2013-07-23 09:22:00,
2013-07-23 05:23:00,73.4,72.8,29.79,ENE,68,0.0,0.0,98,0.00,,---,0.00,VWS V14.01,2013-07-23 09:23:00,
2013-07-23 05:24:00,73.4,72.8,29.79,ENE,68,0.0,0.0,98,0.00,,---,0.00,VWS V14.01,2013-07-23 09:24:00,
2013-07-23 05:25:00,73.4,72.8,29.79,ENE,68,0.0,0.0,98,0.00,,---,0.00,VWS V14.01,2013-07-23 09:25:00,
2013-07-23 05:26:00,73.6,73.0,29.79,ENE,68,0.0,0.0,98,0.00,,---,0.00,VWS V14.01,2013-07-23 09:26:00,
2013-07-23 05:27:00,73.4,72.8,29.79,ENE,68,0.0,0.0,98,0.00,,---,0.00,VWS V14.01,2013-07-23 09:27:00,
2013-07-23 05:28:00,73.4,72.8,29.79,ENE,68,0.0,0.0,98,0.00,,---,0.00,VWS V14.01,2013-07-23 09:28:00,
2013-07-23 05:29:00,73.4,72.8,29.79,ENE,68,0.0,0.0,98,0.00,,---,0.00,VWS V14.01,2013-07-23 09:29:00,
2013-07-23 05:30:00,73.4,72.8,29.79,ENE,68,0.0,0.0,98,0.00,,---,0.00,VWS V14.01,2013-07-23 09:30:00,
2013-07-23 05:31:00,73.6,73.0,29.79,ENE,68,0.0,0.0,98,0.00,,---,0.00,VWS V14.01,2013-07-23 09:31:00,
2013-07-23 05:32:00,73.6,73.0,29.79,ENE,68,0.0,0.0,98,0.00,,---,0.00,VWS V14.01,2013-07-23 09:32:00,
2013-07-23 05:33:00,73.6,73.0,29.79,ENE,68,0.0,0.0,98,0.00,,---,0.00,VWS V14.01,2013-07-23 09:33:00,
2013-07-23 05:34:00,73.6,73.0,29.79,ENE,68,0.0,0.0,98,0.00,,---,0.00,VWS V14.01,2013-07-23 09:34:00,
2013-07-23 05:35:00,73.6,73.0,29.79,ENE,68,0.0,0.0,98,0.00,,---,0.00,VWS V14.01,2013-07-23 09:35:00,
2013-07-23 05:36:00,73.6,73.0,29.79,ENE,68,0.0,0.0,98,0.00,,---,0.00,VWS V14.01,2013-07-23 09:36:00,
2013-07-23 05:37:00,73.6,73.0,29.79,ENE,68,0.0,0.0,98,0.00,,---,0.00,VWS V14.01,2013-07-23 09:37:00,
2013-07-23 05:38:00,73.6,73.0,29.79,ENE,68,0.0,0.0,98,0.00,,---,0.00,VWS V14.01,2013-07-23 09:38:00,
2013-07-23 05:39:00,73.6,73.0,29.79,ENE,68,0.0,0.0,98,0.00,,---,0.00,VWS V14.01,2013-07-23 09:39:00,
2013-07-23 05:40:00,73.4,72.8,29.79,ENE,68,0.0,0.0,98,0.00,,---,0.00,VWS V14.01,2013-07-23 09:40:00,
2013-07-23 05:41:00,73.6,73.0,29.79,ENE,68,0.0,0.0,98,0.00,,---,0.00,VWS V14.01,2013-07-23 09:41:00,
2013-07-23 05:42:00,73.4,72.8,29.79,ENE,68,0.0,0.0,98,0.00,,---,0.00,VWS V14.01,2013-07-23 09:42:00,
2013-07-23 05:43:00,73.4,72.8,29.79,ENE,68,0.0,0.0,98,0.00,,---,0.00,VWS V14.01,2013-07-23 09:43:00,
2013-07-23 05:44:00,73.6,73.0,29.79,ENE,68,0.0,0.0,98,0.00,,---,0.00,VWS V14.01,2013-07-23 09:44:00,
2013-07-23 05:45:00,73.6,73.0,29.79,ENE,68,0.0,0.0,98,0.00,,---,0.00,VWS V14.01,2013-07-23 09:45:00,
2013-07-23 05:46:00,73.6,73.0,29.79,ENE,68,0.0,0.0,98,0.00,,---,0.00,VWS V14.01,2013-07-23 09:46:00,
2013-07-23 05:47:00,73.6,73.0,29.79,ENE,68,0.0,0.0,98,0.00,,---,0.00,VWS V14.01,2013-07-23 09:47:00,
2013-07-23 05:48:00,73.6,73.0,29.79,ENE,68,0.0,0.0,98,0.00,,---,0.00,VWS V14.01,2013-07-23 09:48:00,
2013-07-23 05:49:00,73.6,73.0,29.79,ENE,68,0.0,0.0,98,0.00,,---,0.00,VWS V14.01,2013-07-23 09:49:00,
2013-07-23 05:50:00,73.6,73.0,29.79,ENE,68,0.0,0.0,98,0.00,,---,0.00,VWS V14.01,2013-07-23 09:50:00,
2013-07-23 05:51:00,73.4,72.8,29.79,ENE,68,0.0,0.0,98,0.00,,---,0.00,VWS V14.01,2013-07-23 09:51:00,
2013-07-23 05:52:00,73.6,73.0,29.79,ENE,68,0.0,0.0,98,0.00,,---,0.00,VWS V14.01,2013-07-23 09:52:00,
2013-07-23 05:53:00,73.6,73.0,29.79,ENE,68,0.0,0.0,98,0.00,,---,0.00,VWS V14.01,2013-07-23 09:53:00,
2013-07-23 05:54:00,73.6,73.0,29.79,ENE,68,0.0,0.0,98,0.00,,---,0.00,VWS V14.01,2013-07-23 09:54:00,
2013-07-23 05:55:00,73.6,73.0,29.79,ENE,68,0.0,0.0,98,0.00,,---,0.00,VWS V14.01,2013-07-23 09:55:00,
2013-07-23 05:56:00,73.4,72.8,29.79,ENE,68,0.0,0.0,98,0.00,,---,0.00,VWS V14.01,2013-07-23 09:56:00,
2013-07-23 05:57:00,73.6,73.0,29.79,ENE,68,0.0,0.0,98,0.00,,---,0.00,VWS V14.01,2013-07-23 09:57:00,
2013-07-23 05:58:00,73.4,72.8,29.79,ENE,68,0.0,0.0,98,0.00,,---,0.00,VWS V14.01,2013-07-23 09:58:00,
2013-07-23 05:59:00,73.4,72.8,29.79,ENE,68,0.0,0.0,98,0.00,,---,0.00,VWS V14.01,2013-07-23 09:59:00,
2013-07-23 06:00:00,73.4,72.8,29.79,ENE,68,0.0,0.0,98,0.00,,---,0.00,VWS V14.01,2013-07-23 10:00:00,
2013-07-23 06:01:00,73.4,72.8,29.79,ENE,68,0.0,0.0,98,0.00,,---,0.00,VWS V14.01,2013-07-23 10:01:00,
2013-07-23 06:02:00,73.6,73.0,29.79,ENE,68,0.0,0.0,98,0.00,,---,0.00,VWS V14.01,2013-07-23 10:02:00,
2013-07-23 06:03:00,73.6,73.0,29.79,ENE,68,0.0,0.0,98,0.00,,---,0.00,VWS V14.01,2013-07-23 10:03:00,
2013-07-23 06:04:00,73.6,73.0,29.79,ENE,68,0.0,0.0,98,0.00,,---,0.00,VWS V14.01,2013-07-23 10:04:00,
2013-07-23 06:05:00,73.4,72.8,29.79,ENE,68,0.0,0.0,98,0.00,,---,0.00,VWS V14.01,2013-07-23 10:05:00,
2013-07-23 06:06:00,73.6,73.0,29.79,ENE,68,0.0,0.0,98,0.00,,---,0.00,VWS V14.01,2013-07-23 10:06:00,
2013-07-23 06:07:00,73.6,73.0,29.79,ENE,68,0.0,0.0,98,0.00,,---,0.00,VWS V14.01,2013-07-23 10:07:00,
2013-07-23 06:08:00,73.4,72.8,29.79,ENE,68,0.0,0.0,98,0.00,,---,0.00,VWS V14.01,2013-07-23 10:08:00,
2013-07-23 06:09:00,73.4,72.8,29.79,ENE,68,0.0,0.0,98,0.00,,---,0.00,VWS V14.01,2013-07-23 10:09:00,
2013-07-23 06:10:00,73.4,72.8,29.79,ENE,68,0.0,0.0,98,0.00,,---,0.00,VWS V14.01,2013-07-23 10:10:00,
2013-07-23 06:11:00,73.6,73.0,29.79,ENE,68,0.0,0.0,98,0.00,,---,0.00,VWS V14.01,2013-07-23 10:11:00,
2013-07-23 06:12:00,73.6,73.0,29.79,ENE,68,0.0,0.0,98,0.00,,---,0.00,VWS V14.01,2013-07-23 10:12:00,
2013-07-23 06:13:00,73.6,73.0,29.79,ENE,68,0.0,0.0,98,0.00,,---,0.00,VWS V14.01,2013-07-23 10:13:00,
2013-07-23 06:14:00,73.6,73.0,29.79,ENE,68,0.0,0.0,98,0.00,,---,0.00,VWS V14.01,2013-07-23 10:14:00,
2013-07-23 06:15:00,73.6,73.0,29.79,ENE,68,0.0,0.0,98,0.00,,---,0.00,VWS V14.01,2013-07-23 10:15:00,
2013-07-23 06:16:00,73.6,73.0,29.79,ENE,68,0.0,0.0,98,0.00,,---,0.00,VWS V14.01,2013-07-23 10:16:00,
2013-07-23 06:17:00,73.6,73.0,29.79,ENE,68,0.0,0.0,98,0.00,,---,0.00,VWS V14.01,2013-07-23 10:17:00,
2013-07-23 06:18:00,73.6,73.0,29.79,ENE,68,0.0,0.0,98,0.00,,---,0.00,VWS V14.01,2013-07-23 10:18:00,
2013-07-23 06:19:00,73.6,73.0,29.79,ENE,68,0.0,0.0,98,0.00,,---,0.00,VWS V14.01,2013-07-23 10:19:00,
2013-07-23 06:20:00,73.6,73.0,29.79,ENE,68,0.0,0.0,98,0.00,,---,0.00,VWS V14.01,2013-07-23 10:20:00,
2013-07-23 06:21:00,73.6,73.0,29.79,ENE,68,0.0,0.0,98,0.00,,---,0.00,VWS V14.01,2013-07-23 10:21:00,
2013-07-23 06:22:00,73.6,73.0,29.79,ENE,68,0.0,0.0,98,0.00,,---,0.00,VWS V14.01,2013-07-23 10:22:00,
2013-07-23 06:23:00,73.6,73.0,29.79,ENE,68,0.0,0.0,98,0.00,,---,0.00,VWS V14.01,2013-07-23 10:23:00,
2013-07-23 06:24:00,73.6,73.0,29.79,ENE,68,0.0,0.0,98,0.00,,---,0.00,VWS V14.01,2013-07-23 10:24:00,
2013-07-23 06:25:00,73.8,73.2,29.79,ENE,68,0.0,0.0,98,0.00,,---,0.00,VWS V14.01,2013-07-23 10:25:00,
2013-07-23 06:26:00,73.6,73.0,29.79,ENE,68,0.0,0.0,98,0.00,,---,0.00,VWS V14.01,2013-07-23 10:26:00,
2013-07-23 06:27:00,73.6,73.0,29.79,ENE,68,0.0,0.0,98,0.00,,---,0.00,VWS V14.01,2013-07-23 10:27:00,
2013-07-23 06:28:00,73.6,73.0,29.79,ENE,68,0.0,0.0,98,0.00,,---,0.00,VWS V14.01,2013-07-23 10:28:00,
2013-07-23 06:29:00,73.6,73.0,29.79,ENE,68,0.0,0.0,98,0.00,,---,0.00,VWS V14.01,2013-07-23 10:29:00,
2013-07-23 06:30:00,73.8,73.2,29.79,ENE,68,0.0,0.0,98,0.00,,---,0.00,VWS V14.01,2013-07-23 10:30:00,
2013-07-23 06:31:00,73.6,73.0,29.79,ENE,68,0.0,0.0,98,0.00,,---,0.00,VWS V14.01,2013-07-23 10:31:00,
2013-07-23 06:32:00,73.6,73.0,29.79,ENE,68,0.0,0.0,98,0.00,,---,0.00,VWS V14.01,2013-07-23 10:32:00,
2013-07-23 06:33:00,73.6,73.0,29.79,ENE,68,0.0,0.0,98,0.00,,---,0.00,VWS V14.01,2013-07-23 10:33:00,
2013-07-23 06:34:00,73.8,73.2,29.79,ENE,68,0.0,0.0,98,0.00,,---,0.00,VWS V14.01,2013-07-23 10:34:00,
2013-07-23 06:35:00,73.9,73.3,29.79,ENE,68,0.0,0.0,98,0.00,,---,0.00,VWS V14.01,2013-07-23 10:35:00,
2013-07-23 06:36:00,73.8,73.2,29.79,ENE,68,0.0,0.0,98,0.00,,---,0.00,VWS V14.01,2013-07-23 10:36:00,
2013-07-23 06:37:00,73.8,73.2,29.79,ENE,68,0.0,0.0,98,0.00,,---,0.00,VWS V14.01,2013-07-23 10:37:00,
2013-07-23 06:38:00,73.8,73.2,29.79,ENE,68,0.0,0.0,98,0.00,,---,0.00,VWS V14.01,2013-07-23 10:38:00,
2013-07-23 06:39:00,73.8,73.2,29.79,ENE,68,0.0,0.0,98,0.00,,---,0.00,VWS V14.01,2013-07-23 10:39:00,
2013-07-23 06:40:00,74.1,73.5,29.79,ENE,68,0.0,0.0,98,0.00,,---,0.00,VWS V14.01,2013-07-23 10:40:00,
2013-07-23 06:41:00,73.8,73.2,29.79,ENE,68,0.0,0.0,98,0.00,,---,0.00,VWS V14.01,2013-07-23 10:41:00,
2013-07-23 06:42:00,73.9,73.3,29.79,ENE,68,0.0,0.0,98,0.00,,---,0.00,VWS V14.01,2013-07-23 10:42:00,
2013-07-23 06:43:00,73.9,73.3,29.79,ENE,68,0.0,0.0,98,0.00,,---,0.00,VWS V14.01,2013-07-23 10:43:00,
2013-07-23 06:44:00,73.9,73.3,29.79,ENE,68,0.0,0.0,98,0.00,,---,0.00,VWS V14.01,2013-07-23 10:44:00,
2013-07-23 06:45:00,74.1,73.5,29.79,ENE,68,0.0,0.0,98,0.00,,---,0.00,VWS V14.01,2013-07-23 10:45:00,
2013-07-23 06:46:00,73.9,73.3,29.79,ENE,68,0.0,0.0,98,0.00,,---,0.00,VWS V14.01,2013-07-23 10:46:00,
2013-07-23 06:47:00,73.9,73.3,29.79,ENE,68,0.0,0.0,98,0.00,,---,0.00,VWS V14.01,2013-07-23 10:47:00,
2013-07-23 06:48:00,74.1,73.5,29.79,ENE,68,0.0,0.0,98,0.00,,---,0.00,VWS V14.01,2013-07-23 10:48:00,
2013-07-23 06:49:00,74.1,73.5,29.79,ENE,68,0.0,0.0,98,0.00,,---,0.00,VWS V14.01,2013-07-23 10:49:00,
2013-07-23 06:50:00,74.3,73.7,29.79,ENE,68,0.0,0.0,98,0.00,,---,0.00,VWS V14.01,2013-07-23 10:50:00,
2013-07-23 06:51:00,74.1,73.5,29.79,ENE,68,0.0,0.0,98,0.00,,---,0.00,VWS V14.01,2013-07-23 10:51:00,
2013-07-23 06:52:00,74.1,73.5,29.79,ENE,68,0.0,0.0,98,0.00,,---,0.00,VWS V14.01,2013-07-23 10:52:00,
2013-07-23 06:53:00,74.1,73.5,29.79,ENE,68,0.0,0.0,98,0.00,,---,0.00,VWS V14.01,2013-07-23 10:53:00,
2013-07-23 06:54:00,74.1,73.5,29.79,ENE,68,0.0,0.0,98,0.00,,---,0.00,VWS V14.01,2013-07-23 10:54:00,
2013-07-23 06:55:00,74.3,73.7,29.79,ENE,68,0.0,0.0,98,0.00,,---,0.00,VWS V14.01,2013-07-23 10:55:00,
2013-07-23 06:56:00,74.1,73.5,29.79,ENE,68,0.0,0.0,98,0.00,,---,0.00,VWS V14.01,2013-07-23 10:56:00,
2013-07-23 06:57:00,74.3,73.7,29.79,ENE,68,0.0,0.0,98,0.00,,---,0.00,VWS V14.01,2013-07-23 10:57:00,
2013-07-23 06:58:00,74.3,73.7,29.79,ENE,68,0.0,0.0,98,0.00,,---,0.00,VWS V14.01,2013-07-23 10:58:00,
2013-07-23 06:59:00,74.3,73.7,29.79,ENE,68,0.0,0.0,98,0.00,,---,0.00,VWS V14.01,2013-07-23 10:59:00,
2013-07-23 07:00:00,74.5,73.9,29.79,ENE,68,0.0,0.0,98,0.00,,---,0.00,VWS V14.01,2013-07-23 11:00:00,
2013-07-23 07:01:00,74.3,73.7,29.79,ENE,68,0.0,0.0,98,0.00,,---,0.00,VWS V14.01,2013-07-23 11:01:00,
2013-07-23 07:02:00,74.3,73.7,29.79,ENE,68,0.0,0.0,98,0.00,,---,0.00,VWS V14.01,2013-07-23 11:02:00,
2013-07-23 07:03:00,74.3,73.7,29.79,ENE,68,0.0,0.0,98,0.00,,---,0.00,VWS V14.01,2013-07-23 11:03:00,
2013-07-23 07:04:00,74.3,73.7,29.79,ENE,68,0.0,0.0,98,0.00,,---,0.00,VWS V14.01,2013-07-23 11:04:00,
2013-07-23 07:05:00,75.0,74.4,29.79,ENE,68,0.0,0.0,98,0.00,,---,0.00,VWS V14.01,2013-07-23 11:05:00,
2013-07-23 07:06:00,74.3,73.7,29.79,ENE,68,0.0,0.0,98,0.00,,---,0.00,VWS V14.01,2013-07-23 11:06:00,
2013-07-23 07:07:00,74.3,73.7,29.79,ENE,68,0.0,0.0,98,0.00,,---,0.00,VWS V14.01,2013-07-23 11:07:00,
2013-07-23 07:08:00,74.5,73.9,29.79,ENE,68,0.0,0.0,98,0.00,,---,0.00,VWS V14.01,2013-07-23 11:08:00,
2013-07-23 07:09:00,74.5,73.9,29.79,ENE,68,0.0,0.0,98,0.00,,---,0.00,VWS V14.01,2013-07-23 11:09:00,
2013-07-23 07:10:00,75.4,74.8,29.79,ENE,68,0.0,0.0,98,0.00,,---,0.00,VWS V14.01,2013-07-23 11:10:00,
2013-07-23 07:11:00,74.7,74.1,29.79,ENE,68,0.0,0.0,98,0.00,,---,0.00,VWS V14.01,2013-07-23 11:11:00,
2013-07-23 07:12:00,74.8,74.2,29.79,ENE,68,0.0,0.0,98,0.00,,---,0.00,VWS V14.01,2013-07-23 11:12:00,
2013-07-23 07:13:00,75.0,74.4,29.79,ENE,68,0.0,0.0,98,0.00,,---,0.00,VWS V14.01,2013-07-23 11:13:00,
2013-07-23 07:14:00,75.0,74.4,29.79,ENE,68,0.0,0.0,98,0.00,,---,0.00,VWS V14.01,2013-07-23 11:14:00,
2013-07-23 07:15:00,75.6,75.0,29.79,ENE,68,0.0,0.0,98,0.00,,---,0.00,VWS V14.01,2013-07-23 11:15:00,
2013-07-23 07:16:00,75.4,74.8,29.79,ENE,68,0.0,0.0,98,0.00,,---,0.00,VWS V14.01,2013-07-23 11:16:00,
2013-07-23 07:17:00,75.4,74.8,29.79,ENE,68,0.0,0.0,98,0.00,,---,0.00,VWS V14.01,2013-07-23 11:17:00,
2013-07-23 07:18:00,75.4,74.8,29.79,ENE,68,0.0,0.0,98,0.00,,---,0.00,VWS V14.01,2013-07-23 11:18:00,
2013-07-23 07:19:00,75.4,74.8,29.79,ENE,68,0.0,0.0,98,0.00,,---,0.00,VWS V14.01,2013-07-23 11:19:00,
2013-07-23 07:20:00,75.6,75.0,29.79,ENE,68,0.0,0.0,98,0.00,,---,0.00,VWS V14.01,2013-07-23 11:20:00,
2013-07-23 07:21:00,75.4,74.8,29.79,ENE,68,0.0,0.0,98,0.00,,---,0.00,VWS V14.01,2013-07-23 11:21:00,
2013-07-23 07:22:00,75.4,74.8,29.79,ENE,68,0.0,0.0,98,0.00,,---,0.00,VWS V14.01,2013-07-23 11:22:00,
2013-07-23 07:23:00,75.6,75.0,29.79,ENE,68,0.0,0.0,98,0.00,,---,0.00,VWS V14.01,2013-07-23 11:23:00,
2013-07-23 07:24:00,75.6,75.0,29.79,ENE,68,0.0,0.0,98,0.00,,---,0.00,VWS V14.01,2013-07-23 11:24:00,
2013-07-23 07:25:00,75.7,75.1,29.79,ENE,68,0.0,0.0,98,0.00,,---,0.00,VWS V14.01,2013-07-23 11:25:00,
2013-07-23 07:26:00,75.6,75.0,29.79,ENE,68,0.0,0.0,98,0.00,,---,0.00,VWS V14.01,2013-07-23 11:26:00,
2013-07-23 07:27:00,75.6,75.0,29.79,ENE,68,0.0,0.0,98,0.00,,---,0.00,VWS V14.01,2013-07-23 11:27:00,
2013-07-23 07:28:00,75.6,75.0,29.79,ENE,68,0.0,0.0,98,0.00,,---,0.00,VWS V14.01,2013-07-23 11:28:00,
2013-07-23 07:29:00,75.6,75.0,29.79,ENE,68,0.0,0.0,98,0.00,,---,0.00,VWS V14.01,2013-07-23 11:29:00,
2013-07-23 07:30:00,75.7,75.1,29.79,ENE,68,0.0,0.0,98,0.00,,---,0.00,VWS V14.01,2013-07-23 11:30:00,
2013-07-23 07:31:00,75.6,75.0,29.79,ENE,68,0.0,0.0,98,0.00,,---,0.00,VWS V14.01,2013-07-23 11:31:00,
2013-07-23 07:32:00,75.7,75.1,29.79,ENE,68,0.0,0.0,98,0.00,,---,0.00,VWS V14.01,2013-07-23 11:32:00,
2013-07-23 07:33:00,75.7,75.1,29.79,ENE,68,0.0,0.0,98,0.00,,---,0.00,VWS V14.01,2013-07-23 11:33:00,
2013-07-23 07:34:00,75.7,75.1,29.79,ENE,68,0.0,0.0,98,0.00,,---,0.00,VWS V14.01,2013-07-23 11:34:00,
2013-07-23 07:35:00,75.7,75.1,29.79,ENE,68,0.0,0.0,98,0.00,,---,0.00,VWS V14.01,2013-07-23 11:35:00,
2013-07-23 07:36:00,75.7,75.1,29.79,ENE,68,0.0,0.0,98,0.00,,---,0.00,VWS V14.01,2013-07-23 11:36:00,
2013-07-23 07:37:00,75.7,75.1,29.79,ENE,68,0.0,0.0,98,0.00,,---,0.00,VWS V14.01,2013-07-23 11:37:00,
2013-07-23 07:38:00,75.7,75.1,29.79,ENE,68,0.0,0.0,98,0.00,,---,0.00,VWS V14.01,2013-07-23 11:38:00,
2013-07-23 07:39:00,75.7,75.1,29.79,ENE,68,0.0,0.0,98,0.00,,---,0.00,VWS V14.01,2013-07-23 11:39:00,
2013-07-23 07:40:00,75.7,75.1,29.79,ENE,68,0.0,0.0,98,0.00,,---,0.00,VWS V14.01,2013-07-23 11:40:00,
2013-07-23 07:41:00,75.7,75.1,29.79,ENE,68,0.0,0.0,98,0.00,,---,0.00,VWS V14.01,2013-07-23 11:41:00,
2013-07-23 07:42:00,75.7,75.1,29.79,ENE,68,0.0,0.0,98,0.00,,---,0.00,VWS V14.01,2013-07-23 11:42:00,
2013-07-23 07:43:00,75.7,75.1,29.79,ENE,68,0.0,0.0,98,0.00,,---,0.00,VWS V14.01,2013-07-23 11:43:00,
2013-07-23 07:44:00,75.7,75.1,29.79,ENE,68,0.0,0.0,98,0.00,,---,0.00,VWS V14.01,2013-07-23 11:44:00,
2013-07-23 07:45:00,75.9,75.3,29.79,ENE,68,0.0,0.0,98,0.00,,---,0.00,VWS V14.01,2013-07-23 11:45:00,
2013-07-23 07:46:00,75.9,75.3,29.79,ENE,68,0.0,0.0,98,0.00,,---,0.00,VWS V14.01,2013-07-23 11:46:00,
2013-07-23 07:47:00,75.9,75.3,29.79,ENE,68,0.0,0.0,98,0.00,,---,0.00,VWS V14.01,2013-07-23 11:47:00,
2013-07-23 07:48:00,75.9,75.3,29.79,ENE,68,0.0,0.0,98,0.00,,---,0.00,VWS V14.01,2013-07-23 11:48:00,
2013-07-23 07:49:00,75.7,75.1,29.79,ENE,68,0.0,0.0,98,0.00,,---,0.00,VWS V14.01,2013-07-23 11:49:00,
2013-07-23 07:50:00,76.3,75.7,29.79,ENE,68,0.0,0.0,98,0.00,,---,0.00,VWS V14.01,2013-07-23 11:50:00,
2013-07-23 07:52:00,75.7,75.1,29.79,ENE,68,0.0,0.0,98,0.00,,---,0.00,VWS V14.01,2013-07-23 11:52:00,
2013-07-23 07:53:00,75.9,75.3,29.79,ENE,68,0.0,0.0,98,0.00,,---,0.00,VWS V14.01,2013-07-23 11:53:00,
2013-07-23 07:55:00,78.4,77.8,29.79,ENE,68,0.0,0.0,98,0.00,,---,0.00,VWS V14.01,2013-07-23 11:55:00,
2013-07-23 07:56:00,76.1,75.5,29.79,ENE,68,0.0,0.0,98,0.00,,---,0.00,VWS V14.01,2013-07-23 11:56:00,
2013-07-23 07:57:00,76.1,75.5,29.79,ENE,68,0.0,0.0,98,0.00,,---,0.00,VWS V14.01,2013-07-23 11:57:00,
2013-07-23 07:58:00,76.1,75.5,29.79,ENE,68,0.0,0.0,98,0.00,,---,0.00,VWS V14.01,2013-07-23 11:58:00,
2013-07-23 07:59:00,76.3,75.7,29.79,ENE,68,0.0,0.0,98,0.00,,---,0.00,VWS V14.01,2013-07-23 11:59:00,
2013-07-23 08:00:00,80.1,79.1,29.79,ENE,68,0.0,0.0,97,0.00,,---,0.00,VWS V14.01,2013-07-23 12:00:00,
2013-07-23 08:01:00,77.2,76.6,29.79,ENE,68,0.0,0.0,98,0.00,,---,0.00,VWS V14.01,2013-07-23 12:01:00,
2013-07-23 08:02:00,77.5,76.9,29.79,ENE,68,0.0,0.0,98,0.00,,---,0.00,VWS V14.01,2013-07-23 12:02:00,
2013-07-23 08:03:00,77.9,77.3,29.79,ENE,68,0.0,0.0,98,0.00,,---,0.00,VWS V14.01,2013-07-23 12:03:00,
2013-07-23 08:04:00,78.4,77.8,29.79,ENE,68,0.0,0.0,98,0.00,,---,0.00,VWS V14.01,2013-07-23 12:04:00,
2013-07-23 08:05:00,81.3,80.4,29.79,ENE,68,0.0,0.0,97,0.00,,---,0.00,VWS V14.01,2013-07-23 12:05:00,
2013-07-23 08:06:00,79.3,78.4,29.79,ENE,68,0.0,0.0,97,0.00,,---,0.00,VWS V14.01,2013-07-23 12:06:00,
2013-07-23 08:07:00,79.7,78.8,29.79,ENE,68,0.0,0.0,97,0.00,,---,0.00,VWS V14.01,2013-07-23 12:07:00,
2013-07-23 08:08:00,79.9,79.0,29.79,ENE,68,0.0,0.0,97,0.00,,---,0.00,VWS V14.01,2013-07-23 12:08:00,
2013-07-23 08:09:00,80.1,79.1,29.79,ENE,68,0.0,0.0,97,0.00,,---,0.00,VWS V14.01,2013-07-23 12:09:00,
2013-07-23 08:10:00,83.5,82.5,29.79,WNW,292,0.0,0.0,97,0.00,,---,0.00,VWS V14.01,2013-07-23 12:10:00,
2013-07-23 08:11:00,80.4,79.5,29.79,ENE,68,0.0,0.0,97,0.00,,---,0.00,VWS V14.01,2013-07-23 12:11:00,
2013-07-23 08:12:00,81.0,80.0,29.79,ENE,68,0.0,0.0,97,0.00,,---,0.00,VWS V14.01,2013-07-23 12:12:00,
2013-07-23 08:13:00,81.1,80.2,29.79,ENE,68,0.0,0.0,97,0.00,,---,0.00,VWS V14.01,2013-07-23 12:13:00,
2013-07-23 08:14:00,81.3,80.4,29.79,ENE,68,0.0,0.0,97,0.00,,---,0.00,VWS V14.01,2013-07-23 12:14:00,
2013-07-23 08:15:00,83.8,79.9,29.79,West,270,0.0,0.0,88,0.00,,---,0.00,VWS V14.01,2013-07-23 12:15:00,
2013-07-23 08:16:00,82.0,81.1,29.79,ENE,68,0.0,0.0,97,0.00,,---,0.00,VWS V14.01,2013-07-23 12:16:00,
2013-07-23 08:17:00,82.8,81.5,29.79,ENE,68,0.0,0.0,96,0.00,,---,0.00,VWS V14.01,2013-07-23 12:17:00,
2013-07-23 08:18:00,83.3,82.0,29.79,ENE,68,0.0,0.0,96,0.00,,---,0.00,VWS V14.01,2013-07-23 12:18:00,
2013-07-23 08:19:00,83.5,82.5,29.79,WNW,292,0.0,0.0,97,0.00,,---,0.00,VWS V14.01,2013-07-23 12:19:00,
2013-07-23 08:20:00,83.7,82.4,29.79,WNW,292,0.0,0.0,96,0.00,,---,0.00,VWS V14.01,2013-07-23 12:20:00,
2013-07-23 08:21:00,82.0,76.7,29.79,ENE,68,0.0,0.0,84,0.00,,---,0.00,VWS V14.01,2013-07-23 12:21:00,
2013-07-23 08:22:00,84.4,81.8,29.79,North,0,0.0,0.0,92,0.00,,---,0.00,VWS V14.01,2013-07-23 12:22:00,
2013-07-23 08:23:00,84.2,80.9,29.79,WNW,292,0.0,0.0,90,0.00,,---,0.00,VWS V14.01,2013-07-23 12:23:00,
2013-07-23 08:24:00,83.8,79.9,29.79,West,270,0.0,0.0,88,0.00,,---,0.00,VWS V14.01,2013-07-23 12:24:00,
2013-07-23 08:25:00,81.0,75.3,29.79,ENE,68,0.0,0.0,83,0.00,,---,0.00,VWS V14.01,2013-07-23 12:25:00,
2013-07-23 08:26:00,83.5,78.8,29.79,ENE,68,0.0,0.0,86,0.00,,---,0.00,VWS V14.01,2013-07-23 12:26:00,
2013-07-23 08:27:00,82.9,78.0,29.79,ENE,68,0.0,0.0,85,0.00,,---,0.00,VWS V14.01,2013-07-23 12:27:00,
2013-07-23 08:29:00,82.0,76.7,29.79,ENE,68,0.0,0.0,84,0.00,,---,0.00,VWS V14.01,2013-07-23 12:29:00,
2013-07-23 08:30:00,80.2,73.9,29.79,ENE,68,0.0,0.0,81,0.00,,---,0.00,VWS V14.01,2013-07-23 12:30:00,
2013-07-23 08:31:00,81.7,76.4,29.79,ENE,68,0.0,0.0,84,0.00,,---,0.00,VWS V14.01,2013-07-23 12:31:00,
2013-07-23 08:32:00,81.5,76.2,29.79,ENE,68,0.0,0.0,84,0.00,,---,0.00,VWS V14.01,2013-07-23 12:32:00,
2013-07-23 08:33:00,81.1,75.5,29.79,ENE,68,0.0,0.0,83,0.00,,---,0.00,VWS V14.01,2013-07-23 12:33:00,
2013-07-23 08:34:00,81.0,75.3,29.79,ENE,68,0.0,0.0,83,0.00,,---,0.00,VWS V14.01,2013-07-23 12:34:00,
2013-07-23 08:35:00,80.6,74.6,29.79,ENE,68,0.0,0.0,82,0.00,,---,0.00,VWS V14.01,2013-07-23 12:35:00,
2013-07-23 08:36:00,80.8,74.8,29.79,ENE,68,0.0,0.0,82,0.00,,---,0.00,VWS V14.01,2013-07-23 12:36:00,
2013-07-23 08:37:00,80.4,74.4,29.79,ENE,68,0.0,0.0,82,0.00,,---,0.00,VWS V14.01,2013-07-23 12:37:00,
2013-07-23 08:38:00,80.2,73.9,29.79,ENE,68,0.0,0.0,81,0.00,,---,0.00,VWS V14.01,2013-07-23 12:38:00,
2013-07-23 08:39:00,80.2,73.9,29.79,ENE,68,0.0,0.0,81,0.00,,---,0.00,VWS V14.01,2013-07-23 12:39:00,
2013-07-23 08:40:00,80.2,74.2,29.79,ENE,68,0.0,0.0,82,0.00,,---,0.00,VWS V14.01,2013-07-23 12:40:00,
2013-07-23 08:41:00,80.2,73.9,29.79,ENE,68,0.0,0.0,81,0.00,,---,0.00,VWS V14.01,2013-07-23 12:41:00,
2013-07-23 08:42:00,80.2,73.9,29.79,ENE,68,0.0,0.0,81,0.00,,---,0.00,VWS V14.01,2013-07-23 12:42:00,
2013-07-23 08:43:00,80.4,74.4,29.79,ENE,68,0.0,0.0,82,0.00,,---,0.00,VWS V14.01,2013-07-23 12:43:00,
2013-07-23 08:44:00,80.6,74.6,29.79,ENE,68,0.0,0.0,82,0.00,,---,0.00,VWS V14.01,2013-07-23 12:44:00,
2013-07-23 08:45:00,80.1,73.7,29.79,ENE,68,0.0,0.0,81,0.00,,---,0.00,VWS V14.01,2013-07-23 12:45:00,
2013-07-23 08:46:00,80.2,73.9,29.79,ENE,68,0.0,0.0,81,0.00,,---,0.00,VWS V14.01,2013-07-23 12:46:00,
2013-07-23 08:47:00,80.2,73.9,29.79,ENE,68,0.0,0.0,81,0.00,,---,0.00,VWS V14.01,2013-07-23 12:47:00,
2013-07-23 08:48:00,80.2,73.9,29.79,ENE,68,0.0,0.0,81,0.00,,---,0.00,VWS V14.01,2013-07-23 12:48:00,
2013-07-23 08:49:00,80.2,74.2,29.79,ENE,68,0.0,0.0,82,0.00,,---,0.00,VWS V14.01,2013-07-23 12:49:00,
2013-07-23 08:50:00,80.1,73.7,29.79,ENE,68,0.0,0.0,81,0.00,,---,0.00,VWS V14.01,2013-07-23 12:50:00,
2013-07-23 08:51:00,80.2,73.9,29.79,ENE,68,0.0,0.0,81,0.00,,---,0.00,VWS V14.01,2013-07-23 12:51:00,
2013-07-23 08:52:00,80.2,73.9,29.79,ENE,68,0.0,0.0,81,0.00,,---,0.00,VWS V14.01,2013-07-23 12:52:00,
2013-07-23 08:53:00,80.2,73.9,29.79,ENE,68,0.0,0.0,81,0.00,,---,0.00,VWS V14.01,2013-07-23 12:53:00,
2013-07-23 08:54:00,80.1,73.7,29.79,ENE,68,0.0,0.0,81,0.00,,---,0.00,VWS V14.01,2013-07-23 12:54:00,
2013-07-23 08:55:00,80.2,73.9,29.79,ENE,68,0.0,0.0,81,0.00,,---,0.00,VWS V14.01,2013-07-23 12:55:00,
2013-07-23 08:56:00,79.9,73.5,29.79,ENE,68,0.0,0.0,81,0.00,,---,0.00,VWS V14.01,2013-07-23 12:56:00,
2013-07-23 08:57:00,80.1,73.7,29.79,ENE,68,0.0,0.0,81,0.00,,---,0.00,VWS V14.01,2013-07-23 12:57:00,
2013-07-23 08:58:00,80.1,73.7,29.79,ENE,68,0.0,0.0,81,0.00,,---,0.00,VWS V14.01,2013-07-23 12:58:00,
2013-07-23 08:59:00,80.1,73.7,29.79,ENE,68,0.0,0.0,81,0.00,,---,0.00,VWS V14.01,2013-07-23 12:59:00,
2013-07-23 09:00:00,81.7,75.7,29.79,ENE,68,0.0,0.0,82,0.00,,---,0.00,VWS V14.01,2013-07-23 13:00:00,
2013-07-23 09:01:00,80.1,73.3,29.79,ENE,68,0.0,0.0,80,0.00,,---,0.00,VWS V14.01,2013-07-23 13:01:00,
2013-07-23 09:02:00,80.1,73.3,29.79,ENE,68,0.0,0.0,80,0.00,,---,0.00,VWS V14.01,2013-07-23 13:02:00,
2013-07-23 09:03:00,80.1,73.3,29.79,ENE,68,0.0,0.0,80,0.00,,---,0.00,VWS V14.01,2013-07-23 13:03:00,
2013-07-23 09:04:00,80.2,73.9,29.79,ENE,68,0.0,0.0,81,0.00,,---,0.00,VWS V14.01,2013-07-23 13:04:00,
2013-07-23 09:05:00,82.2,75.4,29.79,East,90,0.0,0.0,80,0.00,,---,0.00,VWS V14.01,2013-07-23 13:05:00,
2013-07-23 09:06:00,80.4,74.1,29.79,ENE,68,0.0,0.0,81,0.00,,---,0.00,VWS V14.01,2013-07-23 13:06:00,
2013-07-23 09:07:00,81.0,74.6,29.79,ENE,68,0.0,0.0,81,0.00,,---,0.00,VWS V14.01,2013-07-23 13:07:00,
2013-07-23 09:08:00,81.3,74.9,29.79,ENE,68,0.0,0.0,81,0.00,,---,0.00,VWS V14.01,2013-07-23 13:08:00,
2013-07-23 09:09:00,81.7,75.7,29.79,ENE,68,0.0,0.0,82,0.00,,---,0.00,VWS V14.01,2013-07-23 13:09:00,
2013-07-23 09:10:00,82.6,75.0,29.79,SSW,202,0.0,0.0,78,0.00,,---,0.00,VWS V14.01,2013-07-23 13:10:00,
2013-07-23 09:11:00,82.0,75.6,29.79,ENE,68,0.0,0.0,81,0.00,,---,0.00,VWS V14.01,2013-07-23 13:11:00,
2013-07-23 09:12:00,82.0,75.6,29.79,East,90,0.0,0.0,81,0.00,,---,0.00,VWS V14.01,2013-07-23 13:12:00,
2013-07-23 09:13:00,82.2,75.8,29.79,East,90,0.0,0.0,81,0.00,,---,0.00,VWS V14.01,2013-07-23 13:13:00,
2013-07-23 09:14:00,82.2,75.4,29.79,East,90,0.0,0.0,80,0.00,,---,0.00,VWS V14.01,2013-07-23 13:14:00,
2013-07-23 09:15:00,82.2,74.3,29.79,WNW,292,0.0,0.0,77,0.00,,---,0.00,VWS V14.01,2013-07-23 13:15:00,
2013-07-23 09:16:00,82.6,75.8,29.79,SSE,158,0.0,0.0,80,0.00,,---,0.00,VWS V14.01,2013-07-23 13:16:00,
2013-07-23 09:17:00,82.8,75.6,29.79,South,180,0.0,0.0,79,0.00,,---,0.00,VWS V14.01,2013-07-23 13:17:00,
2013-07-23 09:18:00,82.8,75.6,29.79,SW,225,0.0,0.0,79,0.00,,---,0.00,VWS V14.01,2013-07-23 13:18:00,
2013-07-23 09:19:00,82.6,75.0,29.79,SSW,202,0.0,0.0,78,0.00,,---,0.00,VWS V14.01,2013-07-23 13:19:00,
2013-07-23 09:20:00,81.5,73.2,29.79,WSW,248,0.0,0.0,76,0.00,,---,0.00,VWS V14.01,2013-07-23 13:20:00,
2013-07-23 09:21:00,82.6,75.0,29.79,SSW,202,0.0,0.0,78,0.00,,---,0.00,VWS V14.01,2013-07-23 13:21:00,
2013-07-23 09:22:00,82.6,75.0,29.79,SW,225,0.0,0.0,78,0.00,,---,0.00,VWS V14.01,2013-07-23 13:22:00,
2013-07-23 09:23:00,82.4,74.9,29.79,SSW,202,0.0,0.0,78,0.00,,---,0.00,VWS V14.01,2013-07-23 13:23:00,
2013-07-23 09:24:00,82.2,74.3,29.79,WNW,292,0.0,0.0,77,0.00,,---,0.00,VWS V14.01,2013-07-23 13:24:00,
2013-07-23 09:25:00,81.0,73.1,29.79,WSW,248,0.0,0.0,77,0.00,,---,0.00,VWS V14.01,2013-07-23 13:25:00,
2013-07-23 09:26:00,82.0,73.7,29.79,WSW,248,0.0,0.0,76,0.00,,---,0.00,VWS V14.01,2013-07-23 13:26:00,
2013-07-23 09:27:00,81.7,73.8,29.79,WSW,248,0.0,0.0,77,0.00,,---,0.00,VWS V14.01,2013-07-23 13:27:00,
2013-07-23 09:28:00,81.5,73.2,29.79,WSW,248,0.0,0.0,76,0.00,,---,0.00,VWS V14.01,2013-07-23 13:28:00,
2013-07-23 09:29:00,81.5,73.2,29.79,WSW,248,0.0,0.0,76,0.00,,---,0.00,VWS V14.01,2013-07-23 13:29:00,
2013-07-23 09:30:00,80.2,72.4,29.79,SSW,202,0.0,0.0,77,0.00,,---,0.00,VWS V14.01,2013-07-23 13:30:00,
2013-07-23 09:31:00,81.3,73.4,29.79,WSW,248,0.0,0.0,77,0.00,,---,0.00,VWS V14.01,2013-07-23 13:31:00,
2013-07-23 09:32:00,81.3,73.4,29.79,WSW,248,0.0,0.0,77,0.00,,---,0.00,VWS V14.01,2013-07-23 13:32:00,
2013-07-23 09:33:00,81.1,73.2,29.79,WSW,248,0.0,0.0,77,0.00,,---,0.00,VWS V14.01,2013-07-23 13:33:00,
2013-07-23 09:34:00,81.0,73.1,29.79,WSW,248,0.0,0.0,77,0.00,,---,0.00,VWS V14.01,2013-07-23 13:34:00,
2013-07-23 09:35:00,80.6,72.7,29.79,South,180,0.0,0.0,77,0.00,,---,0.00,VWS V14.01,2013-07-23 13:35:00,
2013-07-23 09:36:00,80.8,72.9,29.79,SSW,202,0.0,0.0,77,0.00,,---,0.00,VWS V14.01,2013-07-23 13:36:00,
2013-07-23 09:37:00,80.4,72.6,29.79,SSW,202,0.0,0.0,77,0.00,,---,0.00,VWS V14.01,2013-07-23 13:37:00,
2013-07-23 09:38:00,80.4,72.6,29.79,SSW,202,0.0,0.0,77,0.00,,---,0.00,VWS V14.01,2013-07-23 13:38:00,
2013-07-23 09:39:00,80.2,72.4,29.79,SSW,202,0.0,0.0,77,0.00,,---,0.00,VWS V14.01,2013-07-23 13:39:00,
2013-07-23 09:40:00,80.2,72.4,29.79,NW,315,0.0,0.0,77,0.00,,---,0.00,VWS V14.01,2013-07-23 13:40:00,
2013-07-23 09:41:00,80.4,72.6,29.79,SSW,202,0.0,0.0,77,0.00,,---,0.00,VWS V14.01,2013-07-23 13:41:00,
2013-07-23 09:42:00,80.4,72.6,29.79,SSW,202,0.0,0.0,77,0.00,,---,0.00,VWS V14.01,2013-07-23 13:42:00,
2013-07-23 09:43:00,80.4,72.6,29.79,SSW,202,0.0,0.0,77,0.00,,---,0.00,VWS V14.01,2013-07-23 13:43:00,
2013-07-23 09:44:00,80.6,72.7,29.79,South,180,0.0,0.0,77,0.00,,---,0.00,VWS V14.01,2013-07-23 13:44:00,
2013-07-23 09:45:00,80.8,72.9,29.79,SSW,202,0.0,0.0,77,0.00,,---,0.00,VWS V14.01,2013-07-23 13:45:00,
2013-07-23 09:46:00,80.2,72.0,29.79,South,180,0.0,0.0,76,0.00,,---,0.00,VWS V14.01,2013-07-23 13:46:00,
2013-07-23 09:47:00,80.2,72.0,29.79,South,180,0.0,0.0,76,0.00,,---,0.00,VWS V14.01,2013-07-23 13:47:00,
2013-07-23 09:48:00,80.2,72.0,29.79,SSW,202,0.0,0.0,76,0.00,,---,0.00,VWS V14.01,2013-07-23 13:48:00,
2013-07-23 09:49:00,80.2,72.4,29.79,NW,315,0.0,0.0,77,0.00,,---,0.00,VWS V14.01,2013-07-23 13:49:00,
2013-07-23 09:50:00,80.8,72.1,29.79,ENE,68,0.0,0.0,75,0.00,,---,0.00,VWS V14.01,2013-07-23 13:50:00,
2013-07-23 09:51:00,80.4,72.6,29.79,NW,315,0.0,0.0,77,0.00,,---,0.00,VWS V14.01,2013-07-23 13:51:00,
2013-07-23 09:52:00,80.6,72.7,29.79,NW,315,0.0,0.0,77,0.00,,---,0.00,VWS V14.01,2013-07-23 13:52:00,
2013-07-23 09:53:00,80.8,72.9,29.79,WNW,292,0.0,0.0,77,0.00,,---,0.00,VWS V14.01,2013-07-23 13:53:00,
2013-07-23 09:54:00,80.8,72.9,29.79,SSW,202,0.0,0.0,77,0.00,,---,0.00,VWS V14.01,2013-07-23 13:54:00,
2013-07-23 09:55:00,81.0,72.7,29.79,ENE,68,0.0,0.0,76,0.00,,---,0.00,VWS V14.01,2013-07-23 13:55:00,
2013-07-23 09:56:00,80.8,72.9,29.79,SW,225,0.0,0.0,77,0.00,,---,0.00,VWS V14.01,2013-07-23 13:56:00,
2013-07-23 09:57:00,80.8,72.5,29.79,NNW,338,0.0,0.0,76,0.00,,---,0.00,VWS V14.01,2013-07-23 13:57:00,
2013-07-23 09:58:00,80.8,71.7,29.79,NW,315,0.0,0.0,74,0.00,,---,0.00,VWS V14.01,2013-07-23 13:58:00,
2013-07-23 09:59:00,80.8,72.1,29.79,ENE,68,0.0,0.0,75,0.00,,---,0.00,VWS V14.01,2013-07-23 13:59:00,
2013-07-23 10:00:00,81.7,73.8,29.79,ESE,112,0.0,0.0,77,0.00,,---,0.00,VWS V14.01,2013-07-23 14:00:00,
2013-07-23 10:01:00,80.8,72.5,29.79,ENE,68,0.0,0.0,76,0.00,,---,0.00,VWS V14.01,2013-07-23 14:01:00,
2013-07-23 10:02:00,81.0,72.7,29.79,ENE,68,0.0,0.0,76,0.00,,---,0.00,VWS V14.01,2013-07-23 14:02:00,
2013-07-23 10:03:00,81.0,72.7,29.79,ENE,68,0.0,0.0,76,0.00,,---,0.00,VWS V14.01,2013-07-23 14:03:00,
2013-07-23 10:04:00,81.0,72.7,29.79,ENE,68,0.0,0.0,76,0.00,,---,0.00,VWS V14.01,2013-07-23 14:04:00,
2013-07-23 10:05:00,82.2,73.9,29.79,ESE,112,0.0,0.0,76,0.00,,---,0.00,VWS V14.01,2013-07-23 14:05:00,
2013-07-23 10:06:00,81.3,73.4,29.79,ENE,68,0.0,0.0,77,0.00,,---,0.00,VWS V14.01,2013-07-23 14:06:00,
2013-07-23 10:07:00,81.5,73.6,29.79,ENE,68,0.0,0.0,77,0.00,,---,0.00,VWS V14.01,2013-07-23 14:07:00,
2013-07-23 10:08:00,81.5,73.2,29.79,ESE,112,0.0,0.0,76,0.00,,---,0.00,VWS V14.01,2013-07-23 14:08:00,
2013-07-23 10:09:00,81.7,73.8,29.79,ESE,112,0.0,0.0,77,0.00,,---,0.00,VWS V14.01,2013-07-23 14:09:00,
2013-07-23 10:10:00,82.9,74.2,29.79,ESE,112,0.0,0.0,75,0.00,,---,0.00,VWS V14.01,2013-07-23 14:10:00,
2013-07-23 10:11:00,82.0,74.1,29.79,ESE,112,0.0,0.0,77,0.00,,---,0.00,VWS V14.01,2013-07-23 14:11:00,
2013-07-23 10:12:00,82.0,73.7,29.79,ESE,112,0.0,0.0,76,0.00,,---,0.00,VWS V14.01,2013-07-23 14:12:00,
2013-07-23 10:13:00,82.2,74.3,29.79,ESE,112,0.0,0.0,77,0.00,,---,0.00,VWS V14.01,2013-07-23 14:13:00,
2013-07-23 10:14:00,82.2,73.9,29.79,ESE,112,0.0,0.0,76,0.00,,---,0.00,VWS V14.01,2013-07-23 14:14:00,
2013-07-23 10:15:00,82.9,73.0,29.79,SSW,202,0.0,0.0,72,0.00,,---,0.00,VWS V14.01,2013-07-23 14:15:00,
2013-07-23 10:16:00,82.4,74.1,29.79,ESE,112,0.0,0.0,76,0.00,,---,0.00,VWS V14.01,2013-07-23 14:16:00,
2013-07-23 10:17:00,82.4,73.7,29.79,ESE,112,0.0,0.0,75,0.00,,---,0.00,VWS V14.01,2013-07-23 14:17:00,
2013-07-23 10:18:00,82.8,74.0,29.79,ESE,112,0.0,0.0,75,0.00,,---,0.00,VWS V14.01,2013-07-23 14:18:00,
2013-07-23 10:19:00,82.9,74.2,29.79,ESE,112,0.0,0.0,75,0.00,,---,0.00,VWS V14.01,2013-07-23 14:19:00,
2013-07-23 10:20:00,83.3,72.5,29.79,NW,315,0.0,0.0,70,0.00,,---,0.00,VWS V14.01,2013-07-23 14:20:00,
2013-07-23 10:21:00,83.1,74.4,29.79,NNE,22,0.0,0.0,75,0.00,,---,0.00,VWS V14.01,2013-07-23 14:21:00,
2013-07-23 10:22:00,82.9,73.4,29.79,WSW,248,0.0,0.0,73,0.00,,---,0.00,VWS V14.01,2013-07-23 14:22:00,
2013-07-23 10:23:00,82.9,73.0,29.79,SSW,202,0.0,0.0,72,0.00,,---,0.00,VWS V14.01,2013-07-23 14:23:00,
2013-07-23 10:24:00,82.9,73.0,29.79,SSW,202,0.0,0.0,72,0.00,,---,0.00,VWS V14.01,2013-07-23 14:24:00,
2013-07-23 10:25:00,83.3,71.6,29.79,WNW,292,0.0,2.0,68,0.00,,---,0.00,VWS V14.01,2013-07-23 14:25:00,
2013-07-23 10:26:00,82.9,73.0,29.79,WSW,248,0.0,0.0,72,0.00,,---,0.00,VWS V14.01,2013-07-23 14:26:00,
2013-07-23 10:27:00,83.1,73.2,29.79,NNE,22,0.0,0.0,72,0.00,,---,0.00,VWS V14.01,2013-07-23 14:27:00,
2013-07-23 10:28:00,83.3,72.5,29.79,NW,315,0.0,0.0,70,0.00,,---,0.00,VWS V14.01,2013-07-23 14:28:00,
2013-07-23 10:29:00,83.3,72.5,29.79,NW,315,0.0,0.0,70,0.00,,---,0.00,VWS V14.01,2013-07-23 14:29:00,
2013-07-23 10:30:00,83.5,72.2,29.79,West,270,0.0,1.6,69,0.00,,---,0.00,VWS V14.01,2013-07-23 14:30:00,
2013-07-23 10:31:00,83.1,71.5,29.79,WNW,292,1.1,1.3,68,0.00,,---,0.00,VWS V14.01,2013-07-23 14:31:00,
2013-07-23 10:32:00,83.1,71.5,29.79,West,270,1.1,2.2,68,0.00,,---,0.00,VWS V14.01,2013-07-23 14:32:00,
2013-07-23 10:33:00,83.1,71.5,29.79,North,0,2.0,2.0,68,0.00,,---,0.00,VWS V14.01,2013-07-23 14:33:00,
2013-07-23 10:34:00,83.3,71.6,29.79,WNW,292,0.0,2.0,68,0.00,,---,0.00,VWS V14.01,2013-07-23 14:34:00,
2013-07-23 10:35:00,82.9,71.3,29.79,SE,135,2.5,2.5,68,0.00,,---,0.00,VWS V14.01,2013-07-23 14:35:00,
2013-07-23 10:36:00,83.8,72.6,29.79,West,270,1.1,2.2,69,0.00,,---,0.00,VWS V14.01,2013-07-23 14:36:00,
2013-07-23 10:37:00,83.7,72.4,29.79,WSW,248,0.0,1.1,69,0.00,,---,0.00,VWS V14.01,2013-07-23 14:37:00,
2013-07-23 10:38:00,83.7,72.4,29.79,WSW,248,0.0,0.0,69,0.00,,---,0.00,VWS V14.01,2013-07-23 14:38:00,
2013-07-23 10:39:00,83.5,72.2,29.79,West,270,0.0,1.6,69,0.00,,---,0.00,VWS V14.01,2013-07-23 14:39:00,
2013-07-23 10:40:00,82.9,70.4,29.79,NNW,338,2.0,2.2,66,0.00,,---,0.00,VWS V14.01,2013-07-23 14:40:00,
2013-07-23 10:41:00,83.1,71.0,29.79,SSE,158,1.3,2.5,67,0.00,,---,0.00,VWS V14.01,2013-07-23 14:41:00,
2013-07-23 10:42:00,82.9,70.9,29.79,SSE,158,0.0,1.3,67,0.00,,---,0.00,VWS V14.01,2013-07-23 14:42:00,
2013-07-23 10:43:00,82.9,71.3,29.79,SSE,158,0.0,0.0,68,0.00,,---,0.00,VWS V14.01,2013-07-23 14:43:00,
2013-07-23 10:44:00,82.9,71.3,29.79,SE,135,2.5,2.5,68,0.00,,---,0.00,VWS V14.01,2013-07-23 14:44:00,
2013-07-23 10:45:00,82.4,70.8,29.79,South,180,0.0,0.0,68,0.00,,---,0.00,VWS V14.01,2013-07-23 14:45:00,
2013-07-23 10:46:00,82.9,71.3,29.79,NNW,338,1.6,1.6,68,0.00,,---,0.00,VWS V14.01,2013-07-23 14:46:00,
2013-07-23 10:47:00,82.9,70.9,29.79,NNE,22,2.0,2.7,67,0.00,,---,0.00,VWS V14.01,2013-07-23 14:47:00,
2013-07-23 10:48:00,82.9,70.9,29.79,NNW,338,2.2,2.9,67,0.00,,---,0.00,VWS V14.01,2013-07-23 14:48:00,
2013-07-23 10:49:00,82.9,70.4,29.79,North,0,2.2,2.2,66,0.00,,---,0.00,VWS V14.01,2013-07-23 14:49:00,
2013-07-23 10:50:00,82.0,70.9,29.79,SSE,158,0.0,0.0,69,0.00,,---,0.00,VWS V14.01,2013-07-23 14:50:00,
2013-07-23 10:52:00,82.9,70.4,29.79,NW,315,0.0,3.4,66,0.00,,---,0.00,VWS V14.01,2013-07-23 14:52:00,
2013-07-23 10:53:00,82.6,70.5,29.79,South,180,0.0,2.0,67,0.00,,---,0.00,VWS V14.01,2013-07-23 14:53:00,
2013-07-23 10:54:00,82.4,70.8,29.79,South,180,0.0,0.0,68,0.00,,---,0.00,VWS V14.01,2013-07-23 14:54:00,
2013-07-23 10:55:00,82.6,70.5,29.79,WSW,248,1.6,1.6,67,0.00,,---,0.00,VWS V14.01,2013-07-23 14:55:00,
2013-07-23 10:56:00,82.4,70.8,29.79,SSE,158,2.2,2.2,68,0.00,,---,0.00,VWS V14.01,2013-07-23 14:56:00,
2013-07-23 10:57:00,82.2,70.6,29.79,SSE,158,1.6,2.5,68,0.00,,---,0.00,VWS V14.01,2013-07-23 14:57:00,
2013-07-23 10:58:00,82.0,70.9,29.79,SSE,158,0.0,1.6,69,0.00,,---,0.00,VWS V14.01,2013-07-23 14:58:00,
2013-07-23 10:59:00,82.0,70.9,29.79,SSE,158,0.0,0.0,69,0.00,,---,0.00,VWS V14.01,2013-07-23 14:59:00,
2013-07-23 11:00:00,82.9,71.3,29.79,SW,225,0.0,0.0,68,0.00,,---,0.00,VWS V14.01,2013-07-23 15:00:00,
2013-07-23 11:01:00,82.4,71.2,29.79,North,0,1.6,1.6,69,0.00,,---,0.00,VWS V14.01,2013-07-23 15:01:00,
2013-07-23 11:02:00,82.6,71.4,29.79,WNW,292,1.3,2.9,69,0.00,,---,0.00,VWS V14.01,2013-07-23 15:02:00,
2013-07-23 11:03:00,82.6,71.4,29.79,WSW,248,1.6,3.6,69,0.00,,---,0.00,VWS V14.01,2013-07-23 15:03:00,
2013-07-23 11:04:00,82.6,70.5,29.79,WSW,248,1.6,1.6,67,0.00,,---,0.00,VWS V14.01,2013-07-23 15:04:00,
2013-07-23 11:05:00,82.6,71.0,29.79,SSW,202,0.0,0.0,68,0.00,,---,0.00,VWS V14.01,2013-07-23 15:05:00,
2013-07-23 11:06:00,82.8,70.7,29.79,SW,225,0.9,0.9,67,0.00,,---,0.00,VWS V14.01,2013-07-23 15:06:00,
2013-07-23 11:07:00,82.8,70.7,29.79,SW,225,0.0,0.9,67,0.00,,---,0.00,VWS V14.01,2013-07-23 15:07:00,
2013-07-23 11:08:00,82.9,71.3,29.79,SW,225,0.0,0.0,68,0.00,,---,0.00,VWS V14.01,2013-07-23 15:08:00,
2013-07-23 11:09:00,82.9,71.3,29.79,SW,225,0.0,0.0,68,0.00,,---,0.00,VWS V14.01,2013-07-23 15:09:00,
2013-07-23 11:10:00,82.9,71.3,29.79,ESE,112,0.0,2.2,68,0.00,,---,0.00,VWS V14.01,2013-07-23 15:10:00,
2013-07-23 11:11:00,82.6,71.0,29.79,SSW,202,0.0,1.6,68,0.00,,---,0.00,VWS V14.01,2013-07-23 15:11:00,
2013-07-23 11:12:00,82.8,71.6,29.79,SSW,202,0.0,0.0,69,0.00,,---,0.00,VWS V14.01,2013-07-23 15:12:00,
2013-07-23 11:13:00,82.6,71.4,29.79,SSW,202,0.0,0.0,69,0.00,,---,0.00,VWS V14.01,2013-07-23 15:13:00,
2013-07-23 11:14:00,82.6,71.0,29.79,SSW,202,0.0,0.0,68,0.00,,---,0.00,VWS V14.01,2013-07-23 15:14:00,
2013-07-23 11:15:00,82.8,71.6,29.79,SSE,158,0.9,1.3,69,0.00,,---,0.00,VWS V14.01,2013-07-23 15:15:00,
2013-07-23 11:16:00,82.8,71.6,29.79,WSW,248,2.0,2.0,69,0.00,,---,0.00,VWS V14.01,2013-07-23 15:16:00,
2013-07-23 11:17:00,82.9,71.3,29.79,WNW,292,3.1,3.1,68,0.00,,---,0.00,VWS V14.01,2013-07-23 15:17:00,
2013-07-23 11:18:00,83.1,71.5,29.79,ESE,112,0.0,3.1,68,0.00,,---,0.00,VWS V14.01,2013-07-23 15:18:00,
2013-07-23 11:19:00,82.9,71.3,29.79,ESE,112,0.0,2.2,68,0.00,,---,0.00,VWS V14.01,2013-07-23 15:19:00,
2013-07-23 11:20:00,82.6,71.0,29.79,SSW,202,1.1,1.1,68,0.00,,---,0.00,VWS V14.01,2013-07-23 15:20:00,
2013-07-23 11:21:00,82.8,71.1,29.79,SE,135,2.0,2.2,68,0.00,,---,0.00,VWS V14.01,2013-07-23 15:21:00,
2013-07-23 11:22:00,82.6,71.0,29.79,SE,135,0.0,2.0,68,0.00,,---,0.00,VWS V14.01,2013-07-23 15:22:00,
2013-07-23 11:23:00,82.8,71.6,29.79,SE,135,0.0,0.0,69,0.00,,---,0.00,VWS V14.01,2013-07-23 15:23:00,
2013-07-23 11:24:00,82.8,71.6,29.79,SSE,158,0.0,1.3,69,0.00,,---,0.00,VWS V14.01,2013-07-23 15:24:00,
2013-07-23 11:25:00,82.9,71.3,29.79,ENE,68,1.3,1.3,68,0.00,,---,0.00,VWS V14.01,2013-07-23 15:25:00,
2013-07-23 11:26:00,82.8,71.6,29.79,ESE,112,2.7,2.7,69,0.00,,---,0.00,VWS V14.01,2013-07-23 15:26:00,
2013-07-23 11:27:00,82.6,71.0,29.79,ESE,112,1.1,3.1,68,0.00,,---,0.00,VWS V14.01,2013-07-23 15:27:00,
2013-07-23 11:28:00,82.6,70.5,29.79,SE,135,0.0,1.1,67,0.00,,---,0.00,VWS V14.01,2013-07-23 15:28:00,
2013-07-23 11:29:00,82.6,71.0,29.79,SSW,202,1.1,1.1,68,0.00,,---,0.00,VWS V14.01,2013-07-23 15:29:00,
2013-07-23 11:30:00,83.1,71.5,29.79,NNE,22,0.0,2.7,68,0.00,,---,0.00,VWS V14.01,2013-07-23 15:30:00,
2013-07-23 11:31:00,82.8,71.1,29.79,WNW,292,0.0,0.9,68,0.00,,---,0.00,VWS V14.01,2013-07-23 15:31:00,
2013-07-23 11:32:00,82.9,71.3,29.79,NNE,22,1.3,1.3,68,0.00,,---,0.00,VWS V14.01,2013-07-23 15:32:00,
2013-07-23 11:33:00,82.9,71.3,29.79,NNE,22,0.0,1.3,68,0.00,,---,0.00,VWS V14.01,2013-07-23 15:33:00,
2013-07-23 11:34:00,82.9,71.3,29.79,ENE,68,1.3,1.3,68,0.00,,---,0.00,VWS V14.01,2013-07-23 15:34:00,
2013-07-23 11:35:00,84.0,71.9,29.79,NE,45,2.9,2.9,67,0.00,,---,0.00,VWS V14.01,2013-07-23 15:35:00,
2013-07-23 11:36:00,82.8,71.1,29.79,SE,135,2.0,2.0,68,0.00,,---,0.00,VWS V14.01,2013-07-23 15:36:00,
2013-07-23 11:37:00,82.8,70.7,29.79,SE,135,0.0,2.7,67,0.00,,---,0.00,VWS V14.01,2013-07-23 15:37:00,
2013-07-23 11:38:00,82.8,71.1,29.79,NNE,22,2.5,2.5,68,0.00,,---,0.00,VWS V14.01,2013-07-23 15:38:00,
2013-07-23 11:39:00,83.1,71.5,29.79,NNE,22,0.0,2.7,68,0.00,,---,0.00,VWS V14.01,2013-07-23 15:39:00,
2013-07-23 11:40:00,84.7,72.1,29.79,SSW,202,0.0,0.9,66,0.00,,---,0.00,VWS V14.01,2013-07-23 15:40:00,
2013-07-23 11:41:00,83.5,71.8,29.79,North,0,1.3,1.3,68,0.00,,---,0.00,VWS V14.01,2013-07-23 15:41:00,
2013-07-23 11:42:00,83.7,71.6,29.79,WNW,292,0.9,2.5,67,0.00,,---,0.00,VWS V14.01,2013-07-23 15:42:00,
2013-07-23 11:43:00,83.8,71.7,29.79,West,270,1.3,1.3,67,0.00,,---,0.00,VWS V14.01,2013-07-23 15:43:00,
2013-07-23 11:44:00,84.0,71.9,29.79,NE,45,2.9,2.9,67,0.00,,---,0.00,VWS V14.01,2013-07-23 15:44:00,
2013-07-23 11:45:00,84.2,70.7,29.79,WNW,292,2.0,2.2,64,0.00,,---,0.00,VWS V14.01,2013-07-23 15:45:00,
2013-07-23 11:46:00,84.2,70.7,29.79,North,0,2.7,2.7,64,0.00,,---,0.00,VWS V14.01,2013-07-23 15:46:00,
2013-07-23 11:47:00,84.6,71.5,29.79,WSW,248,0.0,2.7,65,0.00,,---,0.00,VWS V14.01,2013-07-23 15:47:00,
2013-07-23 11:48:00,84.7,72.1,29.79,WSW,248,0.0,0.0,66,0.00,,---,0.00,VWS V14.01,2013-07-23 15:48:00,
2013-07-23 11:49:00,84.7,72.1,29.79,SSW,202,0.0,0.9,66,0.00,,---,0.00,VWS V14.01,2013-07-23 15:49:00,
2013-07-23 11:50:00,83.1,70.6,29.79,East,90,0.0,0.0,66,0.00,,---,0.00,VWS V14.01,2013-07-23 15:50:00,
2013-07-23 11:51:00,84.4,71.8,29.79,SSE,158,0.0,0.9,66,0.00,,---,0.00,VWS V14.01,2013-07-23 15:51:00,
2013-07-23 11:52:00,84.4,71.8,29.79,WSW,248,0.9,1.6,66,0.00,,---,0.00,VWS V14.01,2013-07-23 15:52:00,
2013-07-23 11:53:00,84.4,71.8,29.79,WNW,292,1.6,1.6,66,0.00,,---,0.00,VWS V14.01,2013-07-23 15:53:00,
2013-07-23 11:54:00,84.2,70.7,29.79,WNW,292,2.0,2.2,64,0.00,,---,0.00,VWS V14.01,2013-07-23 15:54:00,
2013-07-23 11:55:00,81.3,69.3,29.79,East,90,0.0,1.1,67,0.00,,---,0.00,VWS V14.01,2013-07-23 15:55:00,
2013-07-23 11:56:00,84.0,70.5,29.79,ENE,68,0.0,2.9,64,0.00,,---,0.00,VWS V14.01,2013-07-23 15:56:00,
2013-07-23 11:57:00,83.7,70.7,29.79,East,90,1.6,2.0,65,0.00,,---,0.00,VWS V14.01,2013-07-23 15:57:00,
2013-07-23 11:58:00,83.3,69.9,29.79,East,90,0.0,1.6,64,0.00,,---,0.00,VWS V14.01,2013-07-23 15:58:00,
2013-07-23 11:59:00,83.1,70.6,29.79,East,90,0.0,0.0,66,0.00,,---,0.00,VWS V14.01,2013-07-23 15:59:00,
2013-07-23 12:00:00,80.8,69.7,29.79,ESE,112,0.9,1.3,69,0.00,,---,0.00,VWS V14.01,2013-07-23 16:00:00,
2013-07-23 12:01:00,82.2,69.7,29.79,East,90,1.3,2.0,66,0.00,,---,0.00,VWS V14.01,2013-07-23 16:01:00,
2013-07-23 12:02:00,81.9,69.8,29.79,East,90,1.3,1.6,67,0.00,,---,0.00,VWS V14.01,2013-07-23 16:02:00,
2013-07-23 12:03:00,81.5,69.5,29.79,East,90,1.1,1.6,67,0.00,,---,0.00,VWS V14.01,2013-07-23 16:03:00,
2013-07-23 12:04:00,81.3,69.3,29.79,East,90,0.0,1.1,67,0.00,,---,0.00,VWS V14.01,2013-07-23 16:04:00,
2013-07-23 12:05:00,81.0,71.1,29.79,ESE,112,0.0,0.0,72,0.00,,---,0.00,VWS V14.01,2013-07-23 16:05:00,
2013-07-23 12:06:00,81.1,69.6,29.79,East,90,0.0,0.0,68,0.00,,---,0.00,VWS V14.01,2013-07-23 16:06:00,
2013-07-23 12:07:00,81.1,69.6,29.79,East,90,0.0,0.0,68,0.00,,---,0.00,VWS V14.01,2013-07-23 16:07:00,
2013-07-23 12:08:00,81.0,69.4,29.79,ESE,112,0.9,0.9,68,0.00,,---,0.00,VWS V14.01,2013-07-23 16:08:00,
2013-07-23 12:09:00,80.8,69.7,29.79,ESE,112,0.9,1.3,69,0.00,,---,0.00,VWS V14.01,2013-07-23 16:09:00,
2013-07-23 12:10:00,81.3,72.2,29.79,ESE,112,0.0,0.0,74,0.00,,---,0.00,VWS V14.01,2013-07-23 16:10:00,
2013-07-23 12:11:00,80.8,70.5,29.79,ESE,112,0.0,0.0,71,0.00,,---,0.00,VWS V14.01,2013-07-23 16:11:00,
2013-07-23 12:12:00,80.8,70.9,29.79,ESE,112,0.0,0.0,72,0.00,,---,0.00,VWS V14.01,2013-07-23 16:12:00,
2013-07-23 12:13:00,81.0,71.1,29.79,ESE,112,0.0,0.0,72,0.00,,---,0.00,VWS V14.01,2013-07-23 16:13:00,
2013-07-23 12:14:00,81.0,71.1,29.79,ESE,112,0.0,0.0,72,0.00,,---,0.00,VWS V14.01,2013-07-23 16:14:00,
2013-07-23 12:15:00,81.5,73.2,29.79,East,90,0.0,0.0,76,0.00,,---,0.00,VWS V14.01,2013-07-23 16:15:00,
2013-07-23 12:16:00,81.1,72.1,29.79,ESE,112,0.0,0.0,74,0.00,,---,0.00,VWS V14.01,2013-07-23 16:16:00,
2013-07-23 12:17:00,81.1,72.1,29.79,ESE,112,0.0,0.0,74,0.00,,---,0.00,VWS V14.01,2013-07-23 16:17:00,
2013-07-23 12:18:00,81.1,72.1,29.79,ESE,112,0.0,0.0,74,0.00,,---,0.00,VWS V14.01,2013-07-23 16:18:00,
2013-07-23 12:19:00,81.3,72.2,29.79,ESE,112,0.0,0.0,74,0.00,,---,0.00,VWS V14.01,2013-07-23 16:19:00,
2013-07-23 12:20:00,81.7,73.8,29.79,ESE,112,0.0,0.0,77,0.00,,---,0.00,VWS V14.01,2013-07-23 16:20:00,
2013-07-23 12:21:00,81.1,72.1,29.79,ESE,112,0.0,0.0,74,0.00,,---,0.00,VWS V14.01,2013-07-23 16:21:00,
2013-07-23 12:22:00,81.3,72.6,29.79,ESE,112,0.0,0.0,75,0.00,,---,0.00,VWS V14.01,2013-07-23 16:22:00,
2013-07-23 12:23:00,81.3,72.6,29.79,East,90,0.0,0.0,75,0.00,,---,0.00,VWS V14.01,2013-07-23 16:23:00,
2013-07-23 12:24:00,81.7,73.4,29.79,East,90,0.0,0.0,76,0.00,,---,0.00,VWS V14.01,2013-07-23 16:24:00,
2013-07-23 12:25:00,81.9,73.9,29.79,ESE,112,0.0,0.0,77,0.00,,---,0.00,VWS V14.01,2013-07-23 16:25:00,
2013-07-23 12:26:00,81.5,73.2,29.79,ESE,112,0.0,0.0,76,0.00,,---,0.00,VWS V14.01,2013-07-23 16:26:00,
2013-07-23 12:27:00,81.5,73.2,29.79,ESE,112,0.0,0.0,76,0.00,,---,0.00,VWS V14.01,2013-07-23 16:27:00,
2013-07-23 12:28:00,81.5,73.2,29.79,ESE,112,0.0,0.0,76,0.00,,---,0.00,VWS V14.01,2013-07-23 16:28:00,
2013-07-23 12:29:00,81.7,73.8,29.79,ESE,112,0.0,0.0,77,0.00,,---,0.00,VWS V14.01,2013-07-23 16:29:00,
2013-07-23 12:30:00,82.2,74.3,29.76,ESE,112,0.0,0.0,77,0.00,,---,0.00,VWS V14.01,2013-07-23 16:30:00,
2013-07-23 12:31:00,81.7,73.8,29.79,ESE,112,0.9,2.0,77,0.00,,---,0.00,VWS V14.01,2013-07-23 16:31:00,
2013-07-23 12:32:00,81.7,73.8,29.79,ESE,112,0.0,0.9,77,0.00,,---,0.00,VWS V14.01,2013-07-23 16:32:00,
2013-07-23 12:33:00,81.9,73.9,29.79,ESE,112,0.0,0.0,77,0.00,,---,0.00,VWS V14.01,2013-07-23 16:33:00,
2013-07-23 12:34:00,81.9,73.9,29.79,ESE,112,0.0,0.0,77,0.00,,---,0.00,VWS V14.01,2013-07-23 16:34:00,
2013-07-23 12:35:00,81.7,73.0,29.76,ESE,112,0.0,0.0,75,0.00,,---,0.00,VWS V14.01,2013-07-23 16:35:00,
2013-07-23 12:36:00,82.0,74.1,29.79,ESE,112,0.0,0.0,77,0.00,,---,0.00,VWS V14.01,2013-07-23 16:36:00,
2013-07-23 12:37:00,82.2,74.3,29.76,ESE,112,0.0,0.0,77,0.00,,---,0.00,VWS V14.01,2013-07-23 16:37:00,
2013-07-23 12:38:00,82.2,74.3,29.76,ESE,112,0.0,0.0,77,0.00,,---,0.00,VWS V14.01,2013-07-23 16:38:00,
2013-07-23 12:39:00,82.4,74.5,29.76,ESE,112,0.0,0.0,77,0.00,,---,0.00,VWS V14.01,2013-07-23 16:39:00,
2013-07-23 12:40:00,81.7,73.4,29.76,ESE,112,0.0,0.0,76,0.00,,---,0.00,VWS V14.01,2013-07-23 16:40:00,
2013-07-23 12:41:00,82.0,73.7,29.76,ESE,112,0.0,2.5,76,0.00,,---,0.00,VWS V14.01,2013-07-23 16:41:00,
2013-07-23 12:42:00,82.0,73.3,29.76,ESE,112,0.0,0.0,75,0.00,,---,0.00,VWS V14.01,2013-07-23 16:42:00,
2013-07-23 12:43:00,81.9,73.2,29.76,ESE,112,0.0,0.0,75,0.00,,---,0.00,VWS V14.01,2013-07-23 16:43:00,
2013-07-23 12:44:00,81.7,73.0,29.76,ESE,112,0.0,0.0,75,0.00,,---,0.00,VWS V14.01,2013-07-23 16:44:00,
2013-07-23 12:45:00,82.0,73.7,29.76,ESE,112,0.0,0.0,76,0.00,,---,0.00,VWS V14.01,2013-07-23 16:45:00,
2013-07-23 12:46:00,81.7,73.4,29.76,ESE,112,0.0,0.0,76,0.00,,---,0.00,VWS V14.01,2013-07-23 16:46:00,
2013-07-23 12:47:00,81.7,73.4,29.76,ESE,112,0.0,0.0,76,0.00,,---,0.00,VWS V14.01,2013-07-23 16:47:00,
2013-07-23 12:48:00,81.7,73.4,29.76,ESE,112,0.0,0.0,76,0.00,,---,0.00,VWS V14.01,2013-07-23 16:48:00,
2013-07-23 12:49:00,81.7,73.4,29.76,ESE,112,0.0,0.0,76,0.00,,---,0.00,VWS V14.01,2013-07-23 16:49:00,
2013-07-23 12:50:00,82.6,73.9,29.76,NNE,22,0.0,2.9,75,0.00,,---,0.00,VWS V14.01,2013-07-23 16:50:00,
2013-07-23 12:51:00,81.7,73.4,29.76,ESE,112,0.0,0.0,76,0.00,,---,0.00,VWS V14.01,2013-07-23 16:51:00,
2013-07-23 12:52:00,81.9,73.6,29.76,ESE,112,0.0,0.0,76,0.00,,---,0.00,VWS V14.01,2013-07-23 16:52:00,
2013-07-23 12:53:00,81.9,73.6,29.76,ESE,112,0.0,0.0,76,0.00,,---,0.00,VWS V14.01,2013-07-23 16:53:00,
2013-07-23 12:54:00,82.0,73.7,29.76,ESE,112,0.0,0.0,76,0.00,,---,0.00,VWS V14.01,2013-07-23 16:54:00,
2013-07-23 12:55:00,82.9,73.4,29.76,SE,135,0.0,0.0,73,0.00,,---,0.00,VWS V14.01,2013-07-23 16:55:00,
2013-07-23 12:56:00,82.4,74.1,29.76,SE,135,0.0,0.0,76,0.00,,---,0.00,VWS V14.01,2013-07-23 16:56:00,
2013-07-23 12:57:00,82.6,74.2,29.76,SE,135,0.0,0.0,76,0.00,,---,0.00,VWS V14.01,2013-07-23 16:57:00,
2013-07-23 12:58:00,82.6,73.9,29.76,NNE,22,2.9,2.9,75,0.00,,---,0.00,VWS V14.01,2013-07-23 16:58:00,
2013-07-23 12:59:00,82.6,73.9,29.76,NNE,22,0.9,2.9,75,0.00,,---,0.00,VWS V14.01,2013-07-23 16:59:00,
2013-07-23 13:00:00,82.8,73.2,29.76,SE,135,0.0,0.0,73,0.00,,---,0.00,VWS V14.01,2013-07-23 17:00:00,
2013-07-23 13:01:00,83.1,74.0,29.76,ESE,112,1.6,1.6,74,0.00,,---,0.00,VWS V14.01,2013-07-23 17:01:00,
2013-07-23 13:02:00,83.1,73.6,29.76,SE,135,0.0,1.6,73,0.00,,---,0.00,VWS V14.01,2013-07-23 17:02:00,
2013-07-23 13:03:00,83.1,73.6,29.76,SE,135,0.0,0.0,73,0.00,,---,0.00,VWS V14.01,2013-07-23 17:03:00,
2013-07-23 13:04:00,82.9,73.4,29.76,SE,135,0.0,0.0,73,0.00,,---,0.00,VWS V14.01,2013-07-23 17:04:00,
2013-07-23 13:05:00,82.2,72.3,29.76,SE,135,0.0,0.0,72,0.00,,---,0.00,VWS V14.01,2013-07-23 17:05:00,
2013-07-23 13:06:00,82.9,73.4,29.76,SE,135,0.0,0.0,73,0.00,,---,0.00,VWS V14.01,2013-07-23 17:06:00,
2013-07-23 13:07:00,82.9,73.4,29.76,SE,135,0.0,0.0,73,0.00,,---,0.00,VWS V14.01,2013-07-23 17:07:00,
2013-07-23 13:08:00,82.8,73.2,29.76,SE,135,0.0,0.0,73,0.00,,---,0.00,VWS V14.01,2013-07-23 17:08:00,
2013-07-23 13:09:00,82.8,73.2,29.76,SE,135,0.0,0.0,73,0.00,,---,0.00,VWS V14.01,2013-07-23 17:09:00,
2013-07-23 13:10:00,82.6,72.2,29.76,SE,135,0.0,0.0,71,0.00,,---,0.00,VWS V14.01,2013-07-23 17:10:00,
2013-07-23 13:11:00,82.4,72.5,29.76,SE,135,0.0,0.0,72,0.00,,---,0.00,VWS V14.01,2013-07-23 17:11:00,
2013-07-23 13:12:00,82.2,72.3,29.76,SE,135,0.0,0.0,72,0.00,,---,0.00,VWS V14.01,2013-07-23 17:12:00,
2013-07-23 13:13:00,82.2,72.3,29.76,SE,135,0.0,0.0,72,0.00,,---,0.00,VWS V14.01,2013-07-23 17:13:00,
2013-07-23 13:14:00,82.2,72.3,29.76,SE,135,0.0,0.0,72,0.00,,---,0.00,VWS V14.01,2013-07-23 17:14:00,
2013-07-23 13:15:00,83.1,72.8,29.76,SSE,158,0.9,1.1,71,0.00,,---,0.00,VWS V14.01,2013-07-23 17:15:00,
2013-07-23 13:16:00,82.2,71.9,29.76,SE,135,0.0,0.0,71,0.00,,---,0.00,VWS V14.01,2013-07-23 17:16:00,
2013-07-23 13:17:00,82.4,72.1,29.76,SE,135,0.0,0.0,71,0.00,,---,0.00,VWS V14.01,2013-07-23 17:17:00,
2013-07-23 13:18:00,82.4,72.1,29.76,SE,135,0.0,0.0,71,0.00,,---,0.00,VWS V14.01,2013-07-23 17:18:00,
2013-07-23 13:19:00,82.6,72.2,29.76,SE,135,0.0,0.0,71,0.00,,---,0.00,VWS V14.01,2013-07-23 17:19:00,
2013-07-23 13:20:00,83.8,72.2,29.76,ENE,68,0.0,1.1,68,0.00,,---,0.00,VWS V14.01,2013-07-23 17:20:00,
2013-07-23 13:21:00,82.6,71.4,29.76,SE,135,0.0,2.5,69,0.00,,---,0.00,VWS V14.01,2013-07-23 17:21:00,
2013-07-23 13:22:00,82.8,72.0,29.76,SE,135,0.0,0.0,70,0.00,,---,0.00,VWS V14.01,2013-07-23 17:22:00,
2013-07-23 13:23:00,82.9,72.6,29.76,SSE,158,0.0,2.5,71,0.00,,---,0.00,VWS V14.01,2013-07-23 17:23:00,
2013-07-23 13:24:00,83.1,72.8,29.76,SSE,158,1.1,1.1,71,0.00,,---,0.00,VWS V14.01,2013-07-23 17:24:00,
2013-07-23 13:25:00,84.6,72.8,29.76,SE,135,2.2,2.7,68,0.00,,---,0.00,VWS V14.01,2013-07-23 17:25:00,
2013-07-23 13:26:00,83.1,72.3,29.76,ENE,68,2.0,2.0,70,0.00,,---,0.00,VWS V14.01,2013-07-23 17:26:00,
2013-07-23 13:27:00,83.1,72.3,29.76,WSW,248,1.1,3.1,70,0.00,,---,0.00,VWS V14.01,2013-07-23 17:27:00,
2013-07-23 13:28:00,83.7,72.0,29.76,ENE,68,1.1,1.1,68,0.00,,---,0.00,VWS V14.01,2013-07-23 17:28:00,
2013-07-23 13:29:00,83.8,72.2,29.76,ENE,68,0.0,1.1,68,0.00,,---,0.00,VWS V14.01,2013-07-23 17:29:00,
2013-07-23 13:30:00,84.9,72.8,29.74,NNW,338,0.0,0.0,67,0.00,,---,0.00,VWS V14.01,2013-07-23 17:30:00,
2013-07-23 13:31:00,84.0,71.9,29.76,ENE,68,0.0,2.9,67,0.00,,---,0.00,VWS V14.01,2013-07-23 17:31:00,
2013-07-23 13:32:00,84.4,72.2,29.76,East,90,0.0,0.0,67,0.00,,---,0.00,VWS V14.01,2013-07-23 17:32:00,
2013-07-23 13:33:00,84.4,72.2,29.76,West,270,2.7,2.7,67,0.00,,---,0.00,VWS V14.01,2013-07-23 17:33:00,
2013-07-23 13:34:00,84.6,72.8,29.76,SE,135,2.2,2.7,68,0.00,,---,0.00,VWS V14.01,2013-07-23 17:34:00,
2013-07-23 13:35:00,84.7,71.2,29.74,ESE,112,0.0,2.2,64,0.00,,---,0.00,VWS V14.01,2013-07-23 17:35:00,
2013-07-23 13:36:00,84.6,72.4,29.76,NNW,338,0.0,2.5,67,0.00,,---,0.00,VWS V14.01,2013-07-23 17:36:00,
2013-07-23 13:37:00,84.7,72.6,29.74,NNW,338,0.0,2.0,67,0.00,,---,0.00,VWS V14.01,2013-07-23 17:37:00,
2013-07-23 13:38:00,84.9,72.3,29.74,NNW,338,0.0,0.0,66,0.00,,---,0.00,VWS V14.01,2013-07-23 17:38:00,
2013-07-23 13:39:00,84.9,72.3,29.74,NNW,338,0.0,0.0,66,0.00,,---,0.00,VWS V14.01,2013-07-23 17:39:00,
2013-07-23 13:40:00,84.7,71.2,29.74,ENE,68,0.0,0.0,64,0.00,,---,0.00,VWS V14.01,2013-07-23 17:40:00,
2013-07-23 13:41:00,84.9,72.8,29.74,NNW,338,0.0,0.0,67,0.00,,---,0.00,VWS V14.01,2013-07-23 17:41:00,
2013-07-23 13:42:00,84.9,72.3,29.74,NNW,338,0.0,1.3,66,0.00,,---,0.00,VWS V14.01,2013-07-23 17:42:00,
2013-07-23 13:43:00,84.9,71.8,29.74,ESE,112,2.2,2.5,65,0.00,,---,0.00,VWS V14.01,2013-07-23 17:43:00,
2013-07-23 13:44:00,84.7,71.2,29.74,ESE,112,0.0,2.2,64,0.00,,---,0.00,VWS V14.01,2013-07-23 17:44:00,
2013-07-23 13:45:00,84.9,71.4,29.74,NNW,338,2.7,2.7,64,0.00,,---,0.00,VWS V14.01,2013-07-23 17:45:00,
2013-07-23 13:46:00,84.7,71.7,29.74,ESE,112,0.9,2.0,65,0.00,,---,0.00,VWS V14.01,2013-07-23 17:46:00,
2013-07-23 13:47:00,84.6,71.1,29.74,ENE,68,1.1,2.9,64,0.00,,---,0.00,VWS V14.01,2013-07-23 17:47:00,
2013-07-23 13:48:00,84.6,71.1,29.74,ENE,68,0.0,1.1,64,0.00,,---,0.00,VWS V14.01,2013-07-23 17:48:00,
2013-07-23 13:49:00,84.7,71.2,29.74,ENE,68,0.0,0.0,64,0.00,,---,0.00,VWS V14.01,2013-07-23 17:49:00,
2013-07-23 13:50:00,84.7,69.8,29.74,SSE,158,1.3,2.7,61,0.00,,---,0.00,VWS V14.01,2013-07-23 17:50:00,
2013-07-23 13:51:00,84.9,71.4,29.74,ENE,68,0.0,0.0,64,0.00,,---,0.00,VWS V14.01,2013-07-23 17:51:00,
2013-07-23 13:52:00,84.7,71.7,29.74,ENE,68,0.0,0.0,65,0.00,,---,0.00,VWS V14.01,2013-07-23 17:52:00,
2013-07-23 13:53:00,84.9,71.8,29.74,WSW,248,1.1,2.5,65,0.00,,---,0.00,VWS V14.01,2013-07-23 17:53:00,
2013-07-23 13:54:00,84.9,71.4,29.74,NNW,338,2.7,2.7,64,0.00,,---,0.00,VWS V14.01,2013-07-23 17:54:00,
2013-07-23 13:55:00,84.6,70.6,29.74,East,90,0.0,0.0,63,0.00,,---,0.00,VWS V14.01,2013-07-23 17:55:00,
2013-07-23 13:56:00,85.1,69.7,29.74,SE,135,0.0,2.2,60,0.00,,---,0.00,VWS V14.01,2013-07-23 17:56:00,
2013-07-23 13:57:00,84.9,69.5,29.74,SE,135,1.6,1.6,60,0.00,,---,0.00,VWS V14.01,2013-07-23 17:57:00,
2013-07-23 13:58:00,84.9,70.0,29.74,ESE,112,0.0,1.6,61,0.00,,---,0.00,VWS V14.01,2013-07-23 17:58:00,
2013-07-23 13:59:00,84.7,69.8,29.74,SSE,158,1.3,2.7,61,0.00,,---,0.00,VWS V14.01,2013-07-23 17:59:00,
2013-07-23 14:00:00,84.9,70.9,29.74,SSE,158,0.0,0.0,63,0.00,,---,0.00,VWS V14.01,2013-07-23 18:00:00,
2013-07-23 14:01:00,84.4,69.5,29.74,East,90,0.0,1.6,61,0.00,,---,0.00,VWS V14.01,2013-07-23 18:01:00,
2013-07-23 14:02:00,84.4,69.9,29.74,East,90,0.0,0.0,62,0.00,,---,0.00,VWS V14.01,2013-07-23 18:02:00,
2013-07-23 14:03:00,84.4,70.4,29.74,East,90,0.0,1.3,63,0.00,,---,0.00,VWS V14.01,2013-07-23 18:03:00,
2013-07-23 14:04:00,84.6,70.6,29.74,East,90,0.0,0.0,63,0.00,,---,0.00,VWS V14.01,2013-07-23 18:04:00,
2013-07-23 14:05:00,85.5,71.4,29.74,East,90,1.3,1.3,63,0.00,,---,0.00,VWS V14.01,2013-07-23 18:05:00,
2013-07-23 14:06:00,84.6,70.6,29.74,ESE,112,0.0,0.9,63,0.00,,---,0.00,VWS V14.01,2013-07-23 18:06:00,
2013-07-23 14:07:00,84.6,70.6,29.74,ESE,112,0.0,0.0,63,0.00,,---,0.00,VWS V14.01,2013-07-23 18:07:00,
2013-07-23 14:08:00,84.7,70.8,29.74,SSE,158,0.0,0.0,63,0.00,,---,0.00,VWS V14.01,2013-07-23 18:08:00,
2013-07-23 14:09:00,84.9,70.9,29.74,SSE,158,0.0,0.0,63,0.00,,---,0.00,VWS V14.01,2013-07-23 18:09:00,
2013-07-23 14:10:00,85.1,71.1,29.74,SSE,158,0.0,0.0,63,0.00,,---,0.00,VWS V14.01,2013-07-23 18:10:00,
2013-07-23 14:11:00,85.3,71.3,29.74,NNE,22,2.2,2.2,63,0.00,,---,0.00,VWS V14.01,2013-07-23 18:11:00,
2013-07-23 14:12:00,85.3,71.3,29.74,North,0,0.0,0.9,63,0.00,,---,0.00,VWS V14.01,2013-07-23 18:12:00,
2013-07-23 14:13:00,85.5,71.4,29.74,NNW,338,0.0,0.0,63,0.00,,---,0.00,VWS V14.01,2013-07-23 18:13:00,
2013-07-23 14:14:00,85.5,71.4,29.74,East,90,1.3,1.3,63,0.00,,---,0.00,VWS V14.01,2013-07-23 18:14:00,
2013-07-23 14:15:00,85.3,71.3,29.74,WNW,292,1.6,1.6,63,0.00,,---,0.00,VWS V14.01,2013-07-23 18:15:00,
2013-07-23 14:16:00,85.6,70.7,29.74,WNW,292,0.0,0.0,61,0.00,,---,0.00,VWS V14.01,2013-07-23 18:16:00,
2013-07-23 14:17:00,85.5,71.4,29.74,NNE,22,0.0,0.0,63,0.00,,---,0.00,VWS V14.01,2013-07-23 18:17:00,
2013-07-23 14:18:00,85.5,71.4,29.74,ENE,68,0.9,0.9,63,0.00,,---,0.00,VWS V14.01,2013-07-23 18:18:00,
2013-07-23 14:19:00,85.3,71.3,29.74,NNE,22,0.9,0.9,63,0.00,,---,0.00,VWS V14.01,2013-07-23 18:19:00,
2013-07-23 14:20:00,85.3,70.8,29.74,NNE,22,0.0,2.2,62,0.00,,---,0.00,VWS V14.01,2013-07-23 18:20:00,
2013-07-23 14:21:00,85.5,70.0,29.74,SSW,202,0.9,1.1,60,0.00,,---,0.00,VWS V14.01,2013-07-23 18:21:00,
2013-07-23 14:22:00,85.5,71.0,29.74,WNW,292,0.9,0.9,62,0.00,,---,0.00,VWS V14.01,2013-07-23 18:22:00,
2013-07-23 14:23:00,85.5,71.0,29.74,NW,315,2.9,2.9,62,0.00,,---,0.00,VWS V14.01,2013-07-23 18:23:00,
2013-07-23 14:24:00,85.5,70.0,29.74,West,270,0.0,2.9,60,0.00,,---,0.00,VWS V14.01,2013-07-23 18:24:00,
2013-07-23 14:25:00,85.6,70.7,29.74,NNW,338,0.0,0.0,61,0.00,,---,0.00,VWS V14.01,2013-07-23 18:25:00,
2013-07-23 14:26:00,85.5,70.5,29.74,NNE,22,2.7,2.7,61,0.00,,---,0.00,VWS V14.01,2013-07-23 18:26:00,
2013-07-23 14:27:00,85.8,70.3,29.74,East,90,1.3,1.6,60,0.00,,---,0.00,VWS V14.01,2013-07-23 18:27:00,
2013-07-23 14:28:00,85.6,69.7,29.74,ESE,112,2.9,2.9,59,0.00,,---,0.00,VWS V14.01,2013-07-23 18:28:00,
2013-07-23 14:29:00,85.5,70.0,29.74,South,180,1.1,2.9,60,0.00,,---,0.00,VWS V14.01,2013-07-23 18:29:00,
2013-07-23 14:30:00,85.5,70.5,29.74,WNW,292,1.6,2.5,61,0.00,,---,0.00,VWS V14.01,2013-07-23 18:30:00,
2013-07-23 14:31:00,85.6,68.7,29.74,SSE,158,0.9,0.9,57,0.00,,---,0.00,VWS V14.01,2013-07-23 18:31:00,
2013-07-23 14:32:00,85.5,70.0,29.74,South,180,0.0,0.0,60,0.00,,---,0.00,VWS V14.01,2013-07-23 18:32:00,
2013-07-23 14:33:00,85.6,70.7,29.74,ESE,112,0.9,0.9,61,0.00,,---,0.00,VWS V14.01,2013-07-23 18:33:00,
2013-07-23 14:34:00,85.5,70.5,29.74,NNW,338,2.2,2.2,61,0.00,,---,0.00,VWS V14.01,2013-07-23 18:34:00,
2013-07-23 14:35:00,85.5,69.5,29.74,NNE,22,1.3,2.7,59,0.00,,---,0.00,VWS V14.01,2013-07-23 18:35:00,
2013-07-23 14:36:00,85.6,68.7,29.74,SSW,202,0.9,0.9,57,0.00,,---,0.00,VWS V14.01,2013-07-23 18:36:00,
2013-07-23 14:37:00,85.5,69.0,29.74,WNW,292,0.9,2.9,58,0.00,,---,0.00,VWS V14.01,2013-07-23 18:37:00,
2013-07-23 14:38:00,85.6,68.7,29.74,SSE,158,0.0,1.3,57,0.00,,---,0.00,VWS V14.01,2013-07-23 18:38:00,
2013-07-23 14:39:00,85.6,68.7,29.74,SSE,158,0.0,0.0,57,0.00,,---,0.00,VWS V14.01,2013-07-23 18:39:00,
2013-07-23 14:40:00,85.6,68.7,29.74,SSE,158,0.0,0.9,57,0.00,,---,0.00,VWS V14.01,2013-07-23 18:40:00,
2013-07-23 14:41:00,85.5,69.0,29.74,WSW,248,0.0,0.0,58,0.00,,---,0.00,VWS V14.01,2013-07-23 18:41:00,
2013-07-23 14:42:00,85.6,68.7,29.74,South,180,0.0,2.0,57,0.00,,---,0.00,VWS V14.01,2013-07-23 18:42:00,
2013-07-23 14:43:00,85.5,67.5,29.74,NW,315,0.0,2.7,55,0.00,,---,0.00,VWS V14.01,2013-07-23 18:43:00,
2013-07-23 14:44:00,85.6,68.7,29.74,SSW,202,0.9,0.9,57,0.00,,---,0.00,VWS V14.01,2013-07-23 18:44:00,
2013-07-23 14:45:00,85.6,68.2,29.74,SE,135,2.5,3.1,56,0.00,,---,0.00,VWS V14.01,2013-07-23 18:45:00,
2013-07-23 14:46:00,86.0,69.0,29.74,West,270,0.0,1.1,57,0.00,,---,0.00,VWS V14.01,2013-07-23 18:46:00,
2013-07-23 14:47:00,85.5,68.5,29.74,NE,45,0.0,0.0,57,0.00,,---,0.00,VWS V14.01,2013-07-23 18:47:00,
2013-07-23 14:48:00,85.5,68.5,29.74,WSW,248,0.0,0.9,57,0.00,,---,0.00,VWS V14.01,2013-07-23 18:48:00,
2013-07-23 14:49:00,85.5,69.0,29.74,WSW,248,0.0,0.0,58,0.00,,---,0.00,VWS V14.01,2013-07-23 18:49:00,
2013-07-23 14:50:00,85.6,69.2,29.74,WSW,248,0.0,0.0,58,0.00,,---,0.00,VWS V14.01,2013-07-23 18:50:00,
2013-07-23 14:51:00,86.2,69.2,29.74,SSE,158,0.0,0.0,57,0.00,,---,0.00,VWS V14.01,2013-07-23 18:51:00,
2013-07-23 14:52:00,85.6,69.2,29.74,WSW,248,0.0,0.0,58,0.00,,---,0.00,VWS V14.01,2013-07-23 18:52:00,
2013-07-23 14:53:00,85.8,69.3,29.74,NE,45,0.9,1.3,58,0.00,,---,0.00,VWS V14.01,2013-07-23 18:53:00,
2013-07-23 14:54:00,86.0,69.0,29.74,NNW,338,1.1,2.7,57,0.00,,---,0.00,VWS V14.01,2013-07-23 18:54:00,
2013-07-23 14:55:00,86.0,69.0,29.74,SW,225,0.0,1.1,57,0.00,,---,0.00,VWS V14.01,2013-07-23 18:55:00,
2013-07-23 14:56:00,86.0,67.4,29.74,WNW,292,0.0,1.1,54,0.00,,---,0.00,VWS V14.01,2013-07-23 18:56:00,
2013-07-23 14:57:00,86.0,67.4,29.74,East,90,2.0,2.9,54,0.00,,---,0.00,VWS V14.01,2013-07-23 18:57:00,
2013-07-23 14:58:00,86.0,68.0,29.74,ESE,112,0.0,2.0,55,0.00,,---,0.00,VWS V14.01,2013-07-23 18:58:00,
2013-07-23 14:59:00,86.0,68.5,29.74,SSE,158,0.0,0.0,56,0.00,,---,0.00,VWS V14.01,2013-07-23 18:59:00,
2013-07-23 15:00:00,86.0,69.0,29.74,East,90,2.0,2.0,57,0.00,,---,0.00,VWS V14.01,2013-07-23 19:00:00,
2013-07-23 15:01:00,85.6,68.2,29.71,SSE,158,0.9,1.6,56,0.00,,---,0.00,VWS V14.01,2013-07-23 19:01:00,
2013-07-23 15:02:00,86.0,69.0,29.74,East,90,2.5,2.5,57,0.00,,---,0.00,VWS V14.01,2013-07-23 19:02:00,
2013-07-23 15:03:00,86.0,69.0,29.74,East,90,0.0,2.5,57,0.00,,---,0.00,VWS V14.01,2013-07-23 19:03:00,
2013-07-23 15:04:00,86.0,67.4,29.74,WNW,292,1.1,3.1,54,0.00,,---,0.00,VWS V14.01,2013-07-23 19:04:00,
2013-07-23 15:05:00,86.0,68.0,29.74,ESE,112,0.0,1.1,55,0.00,,---,0.00,VWS V14.01,2013-07-23 19:05:00,
2013-07-23 15:06:00,85.6,68.7,29.71,NE,45,0.0,0.0,57,0.00,,---,0.00,VWS V14.01,2013-07-23 19:06:00,
2013-07-23 15:07:00,86.0,68.0,29.71,West,270,2.0,2.0,55,0.00,,---,0.00,VWS V14.01,2013-07-23 19:07:00,
2013-07-23 15:08:00,86.0,68.0,29.71,SSE,158,1.1,2.5,55,0.00,,---,0.00,VWS V14.01,2013-07-23 19:08:00,
2013-07-23 15:09:00,85.8,68.3,29.71,SSE,158,1.1,1.1,56,0.00,,---,0.00,VWS V14.01,2013-07-23 19:09:00,
2013-07-23 15:10:00,85.6,68.2,29.71,SSE,158,0.9,1.6,56,0.00,,---,0.00,VWS V14.01,2013-07-23 19:10:00,
2013-07-23 15:11:00,85.8,68.8,29.71,East,90,0.0,0.0,57,0.00,,---,0.00,VWS V14.01,2013-07-23 19:11:00,
2013-07-23 15:12:00,85.6,68.7,29.71,East,90,0.0,1.6,57,0.00,,---,0.00,VWS V14.01,2013-07-23 19:12:00,
2013-07-23 15:13:00,85.6,69.2,29.71,NE,45,2.0,2.0,58,0.00,,---,0.00,VWS V14.01,2013-07-23 19:13:00,
2013-07-23 15:14:00,85.6,68.7,29.71,NE,45,0.0,2.0,57,0.00,,---,0.00,VWS V14.01,2013-07-23 19:14:00,
2013-07-23 15:15:00,85.6,68.7,29.71,NE,45,0.0,0.0,57,0.00,,---,0.00,VWS V14.01,2013-07-23 19:15:00,
2013-07-23 15:16:00,86.5,68.5,29.74,NNE,22,0.0,2.5,55,0.00,,---,0.00,VWS V14.01,2013-07-23 19:16:00,
2013-07-23 15:17:00,85.6,68.7,29.71,ENE,68,0.0,0.9,57,0.00,,---,0.00,VWS V14.01,2013-07-23 19:17:00,
2013-07-23 15:18:00,85.8,68.3,29.71,NNE,22,1.3,1.3,56,0.00,,---,0.00,VWS V14.01,2013-07-23 19:18:00,
2013-07-23 15:19:00,85.8,68.8,29.71,East,90,0.0,1.3,57,0.00,,---,0.00,VWS V14.01,2013-07-23 19:19:00,
2013-07-23 15:20:00,86.0,69.0,29.71,East,90,0.0,0.0,57,0.00,,---,0.00,VWS V14.01,2013-07-23 19:20:00,
2013-07-23 15:21:00,86.7,67.6,29.74,WSW,248,0.9,1.1,53,0.00,,---,0.00,VWS V14.01,2013-07-23 19:21:00,
2013-07-23 15:22:00,86.4,68.8,29.74,WSW,248,0.9,2.5,56,0.00,,---,0.00,VWS V14.01,2013-07-23 19:22:00,
2013-07-23 15:23:00,86.5,69.0,29.74,SSE,158,1.3,1.6,56,0.00,,---,0.00,VWS V14.01,2013-07-23 19:23:00,
2013-07-23 15:24:00,86.7,69.2,29.74,SSE,158,0.0,1.3,56,0.00,,---,0.00,VWS V14.01,2013-07-23 19:24:00,
2013-07-23 15:25:00,86.5,68.5,29.74,NNE,22,0.0,2.5,55,0.00,,---,0.00,VWS V14.01,2013-07-23 19:25:00,
2013-07-23 15:26:00,86.5,67.9,29.74,ESE,112,2.7,2.9,54,0.00,,---,0.00,VWS V14.01,2013-07-23 19:26:00,
2013-07-23 15:27:00,86.9,68.3,29.74,NNW,338,0.0,2.0,54,0.00,,---,0.00,VWS V14.01,2013-07-23 19:27:00,
2013-07-23 15:28:00,86.9,68.3,29.74,North,0,2.0,2.0,54,0.00,,---,0.00,VWS V14.01,2013-07-23 19:28:00,
2013-07-23 15:29:00,86.9,67.7,29.74,NE,45,0.0,2.0,53,0.00,,---,0.00,VWS V14.01,2013-07-23 19:29:00,
2013-07-23 15:30:00,86.7,67.6,29.74,WSW,248,0.9,1.1,53,0.00,,---,0.00,VWS V14.01,2013-07-23 19:30:00,
2013-07-23 15:31:00,86.4,68.3,29.71,SSW,202,1.3,2.5,55,0.00,,---,0.00,VWS V14.01,2013-07-23 19:31:00,
2013-07-23 15:32:00,86.7,68.1,29.74,WSW,248,0.0,0.0,54,0.00,,---,0.00,VWS V14.01,2013-07-23 19:32:00,
2013-07-23 15:33:00,86.5,68.5,29.74,SW,225,0.0,0.0,55,0.00,,---,0.00,VWS V14.01,2013-07-23 19:33:00,
2013-07-23 15:34:00,86.5,69.0,29.74,North,0,2.0,2.0,56,0.00,,---,0.00,VWS V14.01,2013-07-23 19:34:00,
2013-07-23 15:35:00,86.5,67.9,29.74,ESE,112,2.7,2.9,54,0.00,,---,0.00,VWS V14.01,2013-07-23 19:35:00,
2013-07-23 15:36:00,86.4,68.8,29.71,NNW,338,2.5,2.5,56,0.00,,---,0.00,VWS V14.01,2013-07-23 19:36:00,
2013-07-23 15:37:00,86.4,67.8,29.71,NE,45,0.0,0.9,54,0.00,,---,0.00,VWS V14.01,2013-07-23 19:37:00,
2013-07-23 15:38:00,86.5,68.5,29.71,NE,45,0.0,0.0,55,0.00,,---,0.00,VWS V14.01,2013-07-23 19:38:00,
2013-07-23 15:39:00,86.5,68.5,29.71,East,90,2.0,2.0,55,0.00,,---,0.00,VWS V14.01,2013-07-23 19:39:00,
2013-07-23 15:40:00,86.4,68.3,29.71,SSW,202,1.3,2.5,55,0.00,,---,0.00,VWS V14.01,2013-07-23 19:40:00,
2013-07-23 15:41:00,86.5,68.5,29.71,NE,45,0.0,0.0,55,0.00,,---,0.00,VWS V14.01,2013-07-23 19:41:00,
2013-07-23 15:42:00,86.5,69.0,29.71,SSE,158,2.5,2.5,56,0.00,,---,0.00,VWS V14.01,2013-07-23 19:42:00,
2013-07-23 15:43:00,86.4,67.8,29.71,SE,135,2.7,3.1,54,0.00,,---,0.00,VWS V14.01,2013-07-23 19:43:00,
2013-07-23 15:44:00,86.4,68.3,29.71,SSE,158,0.0,2.7,55,0.00,,---,0.00,VWS V14.01,2013-07-23 19:44:00,
2013-07-23 15:45:00,86.4,68.8,29.71,NNW,338,2.5,2.5,56,0.00,,---,0.00,VWS V14.01,2013-07-23 19:45:00,
2013-07-23 15:46:00,86.7,68.1,29.76,WNW,292,0.0,0.9,54,0.00,,---,0.00,VWS V14.01,2013-07-23 19:46:00,
2013-07-23 15:47:00,86.5,67.4,29.71,WNW,292,1.1,1.6,53,0.00,,---,0.00,VWS V14.01,2013-07-23 19:47:00,
2013-07-23 15:48:00,86.7,68.1,29.71,West,270,0.0,1.1,54,0.00,,---,0.00,VWS V14.01,2013-07-23 19:48:00,
2013-07-23 15:49:00,86.7,68.1,29.71,West,270,0.0,0.0,54,0.00,,---,0.00,VWS V14.01,2013-07-23 19:49:00,
2013-07-23 15:50:00,86.5,68.5,29.71,NE,45,0.0,0.0,55,0.00,,---,0.00,VWS V14.01,2013-07-23 19:50:00,
2013-07-23 15:51:00,86.0,67.4,29.76,NW,315,0.9,2.9,54,0.00,,---,0.00,VWS V14.01,2013-07-23 19:51:00,
2013-07-23 15:52:00,86.7,68.1,29.76,West,270,0.0,0.0,54,0.00,,---,0.00,VWS V14.01,2013-07-23 19:52:00,
2013-07-23 15:53:00,86.7,68.6,29.76,WSW,248,0.0,0.0,55,0.00,,---,0.00,VWS V14.01,2013-07-23 19:53:00,
2013-07-23 15:54:00,86.7,68.1,29.76,WNW,292,0.9,1.6,54,0.00,,---,0.00,VWS V14.01,2013-07-23 19:54:00,
2013-07-23 15:55:00,86.7,68.1,29.76,WNW,292,0.0,0.9,54,0.00,,---,0.00,VWS V14.01,2013-07-23 19:55:00,
2013-07-23 15:56:00,86.4,67.8,29.76,ESE,112,1.3,2.0,54,0.00,,---,0.00,VWS V14.01,2013-07-23 19:56:00,
2013-07-23 15:57:00,86.5,67.9,29.76,SSW,202,0.0,0.0,54,0.00,,---,0.00,VWS V14.01,2013-07-23 19:57:00,
2013-07-23 15:58:00,86.2,68.1,29.76,East,90,0.0,0.0,55,0.00,,---,0.00,VWS V14.01,2013-07-23 19:58:00,
2013-07-23 15:59:00,86.2,68.1,29.76,East,90,1.1,1.3,55,0.00,,---,0.00,VWS V14.01,2013-07-23 19:59:00,
2013-07-23 16:00:00,86.0,67.4,29.76,NW,315,0.9,2.9,54,0.00,,---,0.00,VWS V14.01,2013-07-23 20:00:00,
2013-07-23 16:01:00,86.0,66.9,29.76,NW,315,0.0,2.0,53,0.00,,---,0.00,VWS V14.01,2013-07-23 20:01:00,
2013-07-23 16:02:00,86.5,67.9,29.74,ESE,112,1.3,1.3,54,0.00,,---,0.00,VWS V14.01,2013-07-23 20:02:00,
2013-07-23 16:03:00,86.4,67.8,29.76,WSW,248,0.0,0.0,54,0.00,,---,0.00,VWS V14.01,2013-07-23 20:03:00,
2013-07-23 16:04:00,86.5,67.9,29.76,SW,225,2.7,2.7,54,0.00,,---,0.00,VWS V14.01,2013-07-23 20:04:00,
2013-07-23 16:05:00,86.5,67.9,29.76,SSW,202,0.0,2.7,54,0.00,,---,0.00,VWS V14.01,2013-07-23 20:05:00,
2013-07-23 16:06:00,86.4,67.8,29.76,SSW,202,0.0,0.0,54,0.00,,---,0.00,VWS V14.01,2013-07-23 20:06:00,
2013-07-23 16:07:00,86.5,68.5,29.74,SSE,158,0.0,0.0,55,0.00,,---,0.00,VWS V14.01,2013-07-23 20:07:00,
2013-07-23 16:08:00,86.4,67.8,29.74,SE,135,0.0,1.6,54,0.00,,---,0.00,VWS V14.01,2013-07-23 20:08:00,
2013-07-23 16:09:00,86.4,67.8,29.74,SW,225,0.0,2.5,54,0.00,,---,0.00,VWS V14.01,2013-07-23 20:09:00,
2013-07-23 16:10:00,86.4,67.8,29.74,SW,225,0.0,0.9,54,0.00,,---,0.00,VWS V14.01,2013-07-23 20:10:00,
2013-07-23 16:11:00,86.4,67.8,29.74,South,180,0.9,2.7,54,0.00,,---,0.00,VWS V14.01,2013-07-23 20:11:00,
2013-07-23 16:12:00,86.5,68.5,29.74,ESE,112,0.0,0.0,55,0.00,,---,0.00,VWS V14.01,2013-07-23 20:12:00,
2013-07-23 16:13:00,86.5,67.9,29.74,West,270,0.0,1.1,54,0.00,,---,0.00,VWS V14.01,2013-07-23 20:13:00,
2013-07-23 16:14:00,86.5,67.9,29.74,WSW,248,0.0,1.1,54,0.00,,---,0.00,VWS V14.01,2013-07-23 20:14:00,
2013-07-23 16:15:00,86.5,68.5,29.74,SSE,158,0.0,0.0,55,0.00,,---,0.00,VWS V14.01,2013-07-23 20:15:00,
2013-07-23 16:16:00,86.5,68.5,29.74,South,180,0.9,1.3,55,0.00,,---,0.00,VWS V14.01,2013-07-23 20:16:00,
2013-07-23 16:17:00,87.1,69.0,29.74,SSW,202,0.0,1.3,55,99.99,,---,99.99,VWS V14.01,2013-07-23 20:17:00,
2013-07-23 16:18:00,86.5,69.0,29.74,South,180,0.0,0.0,56,0.00,,---,0.00,VWS V14.01,2013-07-23 20:18:00,
2013-07-23 16:19:00,86.4,67.2,29.74,ESE,112,0.9,2.0,53,0.00,,---,0.00,VWS V14.01,2013-07-23 20:19:00,
2013-07-23 16:20:00,86.5,68.5,29.74,ESE,112,0.0,0.9,55,0.00,,---,0.00,VWS V14.01,2013-07-23 20:20:00,
2013-07-23 16:21:00,86.5,68.5,29.74,ENE,68,0.0,0.0,55,0.00,,---,0.00,VWS V14.01,2013-07-23 20:21:00,
2013-07-23 16:22:00,86.5,67.4,29.74,East,90,1.6,3.6,53,99.99,,---,99.99,VWS V14.01,2013-07-23 20:22:00,
2013-07-23 16:23:00,86.7,68.6,29.74,ENE,68,0.0,0.0,55,0.00,,---,0.00,VWS V14.01,2013-07-23 20:23:00,
2013-07-23 16:24:00,86.9,68.8,29.74,ESE,112,0.0,0.0,55,0.00,,---,0.00,VWS V14.01,2013-07-23 20:24:00,
2013-07-23 16:25:00,86.9,68.8,29.74,SSE,158,1.3,3.1,55,0.00,,---,0.00,VWS V14.01,2013-07-23 20:25:00,
2013-07-23 16:26:00,87.1,69.0,29.74,South,180,0.0,1.3,55,99.99,,---,99.99,VWS V14.01,2013-07-23 20:26:00,
2013-07-23 16:27:00,86.4,67.2,29.74,SSE,158,2.9,2.9,53,99.99,,---,99.99,VWS V14.01,2013-07-23 20:27:00,
2013-07-23 16:28:00,86.9,68.8,29.74,SSE,158,1.3,2.7,55,99.99,,---,99.99,VWS V14.01,2013-07-23 20:28:00,
2013-07-23 16:29:00,86.9,68.8,29.74,SW,225,2.0,2.0,55,99.99,,---,99.99,VWS V14.01,2013-07-23 20:29:00,
2013-07-23 16:30:00,86.7,67.6,29.74,WSW,248,0.9,2.9,53,99.99,,---,99.99,VWS V14.01,2013-07-23 20:30:00,
2013-07-23 16:31:00,86.5,67.4,29.74,East,90,1.1,3.6,53,99.99,,---,99.99,VWS V14.01,2013-07-23 20:31:00,
2013-07-23 16:32:00,85.6,67.6,29.74,SSE,158,0.0,0.9,55,99.99,,---,99.99,VWS V14.01,2013-07-23 20:32:00,
2013-07-23 16:33:00,86.5,67.9,29.74,East,90,0.9,1.1,54,99.99,,---,99.99,VWS V14.01,2013-07-23 20:33:00,
2013-07-23 16:34:00,86.7,68.6,29.74,West,270,0.0,0.9,55,99.99,,---,99.99,VWS V14.01,2013-07-23 20:34:00,
2013-07-23 16:35:00,86.5,68.5,29.74,SSE,158,0.0,2.5,55,99.99,,---,99.99,VWS V14.01,2013-07-23 20:35:00,
2013-07-23 16:36:00,86.4,67.2,29.74,SSE,158,1.1,2.9,53,99.99,,---,99.99,VWS V14.01,2013-07-23 20:36:00,
2013-07-23 16:37:00,85.3,67.3,29.74,SW,225,0.0,0.0,55,99.99,,---,99.99,VWS V14.01,2013-07-23 20:37:00,
2013-07-23 16:38:00,86.0,67.4,29.74,SSE,158,0.0,0.0,54,99.99,,---,99.99,VWS V14.01,2013-07-23 20:38:00,
2013-07-23 16:39:00,85.8,67.8,29.74,SSE,158,0.0,0.0,55,99.99,,---,99.99,VWS V14.01,2013-07-23 20:39:00,
2013-07-23 16:40:00,85.8,67.8,29.74,SSE,158,0.0,0.0,55,99.99,,---,99.99,VWS V14.01,2013-07-23 20:40:00,
2013-07-23 16:41:00,85.3,67.3,29.74,SSE,158,0.0,0.9,55,99.99,,---,99.99,VWS V14.01,2013-07-23 20:41:00,
2013-07-23 16:42:00,85.1,67.1,29.74,SSE,158,0.0,0.0,55,99.99,,---,99.99,VWS V14.01,2013-07-23 20:42:00,
2013-07-23 16:43:00,85.8,68.3,29.74,WNW,292,1.6,1.6,56,99.99,,---,99.99,VWS V14.01,2013-07-23 20:43:00,
2013-07-23 16:44:00,85.1,67.1,29.74,SW,225,0.0,0.9,55,99.99,,---,99.99,VWS V14.01,2013-07-23 20:44:00,
2013-07-23 16:45:00,85.1,67.1,29.74,SW,225,0.0,0.0,55,99.99,,---,99.99,VWS V14.01,2013-07-23 20:45:00,
2013-07-23 16:46:00,85.3,67.3,29.74,SW,225,0.0,0.0,55,99.99,,---,99.99,VWS V14.01,2013-07-23 20:46:00,
2013-07-23 16:47:00,85.5,68.0,29.74,SW,225,0.0,0.0,56,99.99,,---,99.99,VWS V14.01,2013-07-23 20:47:00,
2013-07-23 16:48:00,86.4,65.0,29.71,SSW,202,3.8,5.8,49,99.99,,---,99.99,VWS V14.01,2013-07-23 20:48:00,
2013-07-23 16:49:00,85.5,67.5,29.74,WSW,248,0.9,2.9,55,99.99,,---,99.99,VWS V14.01,2013-07-23 20:49:00,
2013-07-23 16:50:00,85.6,68.2,29.74,WSW,248,1.6,1.6,56,99.99,,---,99.99,VWS V14.01,2013-07-23 20:50:00,
2013-07-23 16:51:00,85.8,68.3,29.74,WNW,292,0.0,1.6,56,99.99,,---,99.99,VWS V14.01,2013-07-23 20:51:00,
2013-07-23 16:52:00,86.2,68.1,29.71,South,180,1.1,1.6,55,99.99,,---,99.99,VWS V14.01,2013-07-23 20:52:00,
2013-07-23 16:53:00,85.6,67.1,29.71,NNE,22,2.7,2.7,54,99.99,,---,99.99,VWS V14.01,2013-07-23 20:53:00,
2013-07-23 16:54:00,86.5,68.5,29.71,SSW,202,0.0,0.0,55,99.99,,---,99.99,VWS V14.01,2013-07-23 20:54:00,
2013-07-23 16:55:00,86.5,68.5,29.71,West,270,4.5,4.5,55,99.99,,---,99.99,VWS V14.01,2013-07-23 20:55:00,
2013-07-23 16:56:00,86.4,65.0,29.71,West,270,3.8,4.5,49,99.99,,---,99.99,VWS V14.01,2013-07-23 20:56:00,
2013-07-23 16:57:00,86.5,66.3,29.71,SW,225,0.0,5.8,51,99.99,,---,99.99,VWS V14.01,2013-07-23 20:57:00,
2013-07-23 16:58:00,84.7,66.3,29.74,South,180,0.0,1.3,54,99.99,,---,99.99,VWS V14.01,2013-07-23 20:58:00,
2013-07-23 16:59:00,86.2,66.5,29.71,SSE,158,0.0,1.6,52,99.99,,---,99.99,VWS V14.01,2013-07-23 20:59:00,
2013-07-23 17:00:00,86.0,66.9,29.71,SSW,202,0.0,0.0,53,99.99,,---,99.99,VWS V14.01,2013-07-23 21:00:00,
2013-07-23 17:01:00,85.6,67.1,29.71,SSW,202,0.0,0.0,54,99.99,,---,99.99,VWS V14.01,2013-07-23 21:01:00,
2013-07-23 17:02:00,85.6,67.1,29.71,WSW,248,2.7,2.7,54,99.99,,---,99.99,VWS V14.01,2013-07-23 21:02:00,
2013-07-23 17:03:00,84.4,65.9,29.74,SSE,158,0.0,0.0,54,99.99,,---,99.99,VWS V14.01,2013-07-23 21:03:00,
2013-07-23 17:04:00,85.1,66.1,29.71,SSE,158,0.0,1.6,53,99.99,,---,99.99,VWS V14.01,2013-07-23 21:04:00,
2013-07-23 17:05:00,84.9,65.9,29.71,ESE,112,1.6,2.7,53,99.99,,---,99.99,VWS V14.01,2013-07-23 21:05:00,
2013-07-23 17:06:00,84.7,65.7,29.71,South,180,0.0,1.6,53,99.99,,---,99.99,VWS V14.01,2013-07-23 21:06:00,
2013-07-23 17:07:00,84.7,66.3,29.74,South,180,0.0,1.3,54,99.99,,---,99.99,VWS V14.01,2013-07-23 21:07:00,
2013-07-23 17:08:00,84.0,66.1,29.74,WSW,248,0.0,0.0,55,99.99,,---,99.99,VWS V14.01,2013-07-23 21:08:00,
2013-07-23 17:09:00,84.6,66.1,29.74,SSE,158,2.7,2.7,54,99.99,,---,99.99,VWS V14.01,2013-07-23 21:09:00,
2013-07-23 17:10:00,84.4,65.4,29.74,SSE,158,0.0,2.7,53,99.99,,---,99.99,VWS V14.01,2013-07-23 21:10:00,
2013-07-23 17:11:00,84.4,65.9,29.74,SSE,158,0.0,0.0,54,99.99,,---,99.99,VWS V14.01,2013-07-23 21:11:00,
2013-07-23 17:12:00,84.4,65.9,29.74,SSE,158,0.0,0.0,54,99.99,,---,99.99,VWS V14.01,2013-07-23 21:12:00,
2013-07-23 17:13:00,83.5,67.2,29.74,West,270,0.9,1.3,58,99.99,,---,99.99,VWS V14.01,2013-07-23 21:13:00,
2013-07-23 17:14:00,84.2,66.3,29.74,West,270,0.0,0.0,55,99.99,,---,99.99,VWS V14.01,2013-07-23 21:14:00,
2013-07-23 17:15:00,84.2,66.3,29.74,South,180,2.2,2.2,55,99.99,,---,99.99,VWS V14.01,2013-07-23 21:15:00,
2013-07-23 17:16:00,84.0,66.1,29.74,WSW,248,0.0,2.2,55,99.99,,---,99.99,VWS V14.01,2013-07-23 21:16:00,
2013-07-23 17:17:00,84.0,66.1,29.74,WSW,248,0.0,0.0,55,99.99,,---,99.99,VWS V14.01,2013-07-23 21:17:00,
2013-07-23 17:18:00,83.3,67.0,29.74,SSE,158,1.6,2.0,58,0.00,,---,99.99,VWS V14.01,2013-07-23 21:18:00,
2013-07-23 17:19:00,83.8,66.5,29.74,South,180,0.0,1.6,56,99.99,,---,99.99,VWS V14.01,2013-07-23 21:19:00,
2013-07-23 17:20:00,83.7,66.8,29.74,SSE,158,1.1,1.1,57,99.99,,---,99.99,VWS V14.01,2013-07-23 21:20:00,
2013-07-23 17:21:00,83.7,66.8,29.74,SSE,158,1.3,2.7,57,99.99,,---,99.99,VWS V14.01,2013-07-23 21:21:00,
2013-07-23 17:22:00,83.5,67.2,29.74,West,270,0.9,1.3,58,99.99,,---,99.99,VWS V14.01,2013-07-23 21:22:00,
2013-07-23 17:23:00,82.9,66.7,29.74,NNW,338,1.6,3.6,58,0.00,,---,99.99,VWS V14.01,2013-07-23 21:23:00,
2013-07-23 17:24:00,83.5,67.2,29.74,West,270,0.0,2.5,58,99.99,,---,99.99,VWS V14.01,2013-07-23 21:24:00,
2013-07-23 17:25:00,83.3,67.0,29.74,SSW,202,0.0,1.3,58,99.99,,---,99.99,VWS V14.01,2013-07-23 21:25:00,
2013-07-23 17:26:00,83.3,67.0,29.74,SSW,202,0.0,0.0,58,99.99,,---,99.99,VWS V14.01,2013-07-23 21:26:00,
2013-07-23 17:27:00,83.3,67.0,29.74,SSE,158,1.6,2.0,58,0.00,,---,99.99,VWS V14.01,2013-07-23 21:27:00,
2013-07-23 17:28:00,82.8,65.5,29.74,WSW,248,0.9,2.0,56,0.00,,---,99.99,VWS V14.01,2013-07-23 21:28:00,
2013-07-23 17:29:00,83.3,66.5,29.74,ESE,112,0.0,1.6,57,0.00,,---,99.99,VWS V14.01,2013-07-23 21:29:00,
2013-07-23 17:30:00,83.3,67.0,29.74,SSW,202,2.0,2.0,58,0.00,,---,99.99,VWS V14.01,2013-07-23 21:30:00,
2013-07-23 17:31:00,83.1,67.3,29.74,SSE,158,3.1,3.1,59,0.00,,---,99.99,VWS V14.01,2013-07-23 21:31:00,
2013-07-23 17:32:00,82.9,66.7,29.74,NNW,338,1.6,3.6,58,0.00,,---,99.99,VWS V14.01,2013-07-23 21:32:00,
2013-07-23 17:33:00,82.9,65.7,29.74,SSE,158,2.5,2.5,56,0.00,,---,99.99,VWS V14.01,2013-07-23 21:33:00,
2013-07-23 17:34:00,82.6,65.8,29.74,SSE,158,0.0,0.0,57,0.00,,---,99.99,VWS V14.01,2013-07-23 21:34:00,
2013-07-23 17:35:00,82.9,64.6,29.74,SE,135,2.0,2.9,54,0.00,,---,99.99,VWS V14.01,2013-07-23 21:35:00,
2013-07-23 17:36:00,82.9,65.1,29.74,SE,135,0.0,2.0,55,0.00,,---,99.99,VWS V14.01,2013-07-23 21:36:00,
2013-07-23 17:37:00,82.8,65.5,29.74,WSW,248,0.9,2.0,56,0.00,,---,99.99,VWS V14.01,2013-07-23 21:37:00,
2013-07-23 17:38:00,82.8,65.5,29.74,SSE,158,1.1,2.0,56,0.00,,---,99.99,VWS V14.01,2013-07-23 21:38:00,
2013-07-23 17:39:00,82.4,65.7,29.74,SSE,158,2.5,2.5,57,0.00,,---,99.99,VWS V14.01,2013-07-23 21:39:00,
2013-07-23 17:40:00,82.6,65.3,29.74,SSE,158,0.0,0.0,56,0.00,,---,99.99,VWS V14.01,2013-07-23 21:40:00,
2013-07-23 17:41:00,82.6,65.8,29.74,SSE,158,0.0,0.0,57,0.00,,---,99.99,VWS V14.01,2013-07-23 21:41:00,
2013-07-23 17:42:00,82.6,65.8,29.74,SSE,158,0.0,0.0,57,0.00,,---,99.99,VWS V14.01,2013-07-23 21:42:00,
2013-07-23 17:43:00,82.4,65.7,29.74,ESE,112,1.1,2.2,57,0.00,,---,99.99,VWS V14.01,2013-07-23 21:43:00,
2013-07-23 17:44:00,82.0,66.3,29.74,South,180,0.0,0.0,59,0.00,,---,99.99,VWS V14.01,2013-07-23 21:44:00,
2013-07-23 17:45:00,82.4,66.2,29.74,SW,225,0.0,0.0,58,0.00,,---,99.99,VWS V14.01,2013-07-23 21:45:00,
2013-07-23 17:46:00,82.4,65.7,29.74,SSW,202,0.0,0.9,57,0.00,,---,99.99,VWS V14.01,2013-07-23 21:46:00,
2013-07-23 17:47:00,82.4,65.7,29.74,SSE,158,2.5,2.5,57,0.00,,---,99.99,VWS V14.01,2013-07-23 21:47:00,
2013-07-23 17:48:00,82.4,65.7,29.74,SSE,158,2.5,3.1,57,0.00,,---,99.99,VWS V14.01,2013-07-23 21:48:00,
2013-07-23 17:49:00,82.2,65.0,29.74,SSE,158,1.6,1.6,56,0.00,,---,99.99,VWS V14.01,2013-07-23 21:49:00,
2013-07-23 17:50:00,82.2,66.0,29.74,SSE,158,0.0,0.0,58,0.00,,---,99.99,VWS V14.01,2013-07-23 21:50:00,
2013-07-23 17:51:00,82.0,65.8,29.74,SSE,158,0.0,2.7,58,0.00,,---,99.99,VWS V14.01,2013-07-23 21:51:00,
2013-07-23 17:52:00,82.0,66.3,29.74,South,180,0.0,0.0,59,0.00,,---,99.99,VWS V14.01,2013-07-23 21:52:00,
2013-07-23 17:53:00,82.0,65.8,29.74,SSW,202,0.0,0.0,58,0.00,,---,99.99,VWS V14.01,2013-07-23 21:53:00,
2013-07-23 17:54:00,81.9,65.7,29.74,South,180,0.0,0.0,58,0.00,,---,99.99,VWS V14.01,2013-07-23 21:54:00,
2013-07-23 17:55:00,82.0,65.3,29.74,North,0,2.7,3.1,57,0.00,,---,99.99,VWS V14.01,2013-07-23 21:55:00,
2013-07-23 17:56:00,82.0,64.8,29.74,SSE,158,2.2,2.7,56,0.00,,---,99.99,VWS V14.01,2013-07-23 21:56:00,
2013-07-23 17:57:00,82.2,65.0,29.74,SSE,158,0.0,2.2,56,0.00,,---,99.99,VWS V14.01,2013-07-23 21:57:00,
2013-07-23 17:58:00,82.0,64.8,29.74,SSE,158,0.0,1.6,56,0.00,,---,99.99,VWS V14.01,2013-07-23 21:58:00,
2013-07-23 17:59:00,81.7,66.0,29.74,SSE,158,0.0,0.0,59,0.00,,---,99.99,VWS V14.01,2013-07-23 21:59:00,
2013-07-23 18:00:00,82.0,65.3,29.74,SSE,158,0.0,0.0,57,0.00,,---,99.99,VWS V14.01,2013-07-23 22:00:00,
2013-07-23 18:01:00,82.0,65.3,29.74,SSE,158,0.0,0.0,57,0.00,,---,99.99,VWS V14.01,2013-07-23 22:01:00,
2013-07-23 18:02:00,81.9,65.2,29.74,South,180,0.0,0.0,57,0.00,,---,99.99,VWS V14.01,2013-07-23 22:02:00,
2013-07-23 18:03:00,81.9,65.7,29.74,South,180,0.0,0.0,58,0.00,,---,99.99,VWS V14.01,2013-07-23 22:03:00,
2013-07-23 18:04:00,81.5,65.8,29.74,ESE,112,0.0,0.0,59,0.00,,---,99.99,VWS V14.01,2013-07-23 22:04:00,
2013-07-23 18:05:00,81.7,65.5,29.74,South,180,0.0,0.0,58,0.00,,---,99.99,VWS V14.01,2013-07-23 22:05:00,
2013-07-23 18:06:00,81.7,66.0,29.74,South,180,0.0,0.0,59,0.00,,---,99.99,VWS V14.01,2013-07-23 22:06:00,
2013-07-23 18:07:00,81.7,66.0,29.74,SSE,158,0.0,0.0,59,0.00,,---,99.99,VWS V14.01,2013-07-23 22:07:00,
2013-07-23 18:08:00,81.7,66.0,29.74,East,90,0.0,0.0,59,0.00,,---,99.99,VWS V14.01,2013-07-23 22:08:00,
2013-07-23 18:09:00,81.3,65.6,29.74,ESE,112,2.2,2.2,59,0.00,,---,99.99,VWS V14.01,2013-07-23 22:09:00,
2013-07-23 18:10:00,81.7,66.0,29.74,ESE,112,0.0,0.0,59,0.00,,---,99.99,VWS V14.01,2013-07-23 22:10:00,
2013-07-23 18:11:00,81.5,65.3,29.74,ESE,112,1.6,2.2,58,0.00,,---,99.99,VWS V14.01,2013-07-23 22:11:00,
2013-07-23 18:12:00,81.5,65.8,29.74,ESE,112,0.0,1.6,59,0.00,,---,99.99,VWS V14.01,2013-07-23 22:12:00,
2013-07-23 18:13:00,81.5,65.8,29.74,ESE,112,0.9,0.9,59,0.00,,---,99.99,VWS V14.01,2013-07-23 22:13:00,
2013-07-23 18:14:00,81.1,65.9,29.74,South,180,0.0,0.0,60,0.00,,---,99.99,VWS V14.01,2013-07-23 22:14:00,
2013-07-23 18:15:00,81.5,65.8,29.74,ESE,112,0.0,0.0,59,0.00,,---,99.99,VWS V14.01,2013-07-23 22:15:00,
2013-07-23 18:16:00,81.5,65.8,29.74,ESE,112,0.0,0.0,59,0.00,,---,99.99,VWS V14.01,2013-07-23 22:16:00,
2013-07-23 18:17:00,81.5,65.8,29.74,ESE,112,0.0,2.0,59,0.00,,---,99.99,VWS V14.01,2013-07-23 22:17:00,
2013-07-23 18:18:00,81.3,65.6,29.74,ESE,112,2.2,2.2,59,0.00,,---,99.99,VWS V14.01,2013-07-23 22:18:00,
2013-07-23 18:19:00,81.0,66.3,29.74,South,180,0.0,0.0,61,0.00,,---,99.99,VWS V14.01,2013-07-23 22:19:00,
2013-07-23 18:20:00,81.3,65.6,29.74,SSE,158,0.0,0.0,59,0.00,,---,99.99,VWS V14.01,2013-07-23 22:20:00,
2013-07-23 18:21:00,81.3,66.1,29.74,South,180,0.0,0.0,60,0.00,,---,99.99,VWS V14.01,2013-07-23 22:21:00,
2013-07-23 18:22:00,81.1,65.9,29.74,SSE,158,0.0,0.0,60,0.00,,---,99.99,VWS V14.01,2013-07-23 22:22:00,
2013-07-23 18:23:00,81.1,65.9,29.74,South,180,0.0,0.0,60,0.00,,---,99.99,VWS V14.01,2013-07-23 22:23:00,
2013-07-23 18:24:00,81.0,66.3,29.74,South,180,1.1,1.6,61,0.00,,---,99.99,VWS V14.01,2013-07-23 22:24:00,
2013-07-23 18:25:00,81.1,65.9,29.74,South,180,0.0,0.9,60,0.00,,---,99.99,VWS V14.01,2013-07-23 22:25:00,
2013-07-23 18:26:00,81.1,66.4,29.74,South,180,0.0,0.0,61,0.00,,---,99.99,VWS V14.01,2013-07-23 22:26:00,
2013-07-23 18:27:00,81.0,66.3,29.74,South,180,0.0,0.0,61,0.00,,---,99.99,VWS V14.01,2013-07-23 22:27:00,
2013-07-23 18:28:00,81.0,66.3,29.74,South,180,0.0,0.0,61,0.00,,---,99.99,VWS V14.01,2013-07-23 22:28:00,
2013-07-23 18:29:00,80.6,66.4,29.71,South,180,0.0,1.1,62,0.00,,---,99.99,VWS V14.01,2013-07-23 22:29:00,
2013-07-23 18:30:00,81.0,66.3,29.74,South,180,0.0,0.0,61,0.00,,---,99.99,VWS V14.01,2013-07-23 22:30:00,
2013-07-23 18:31:00,81.0,66.3,29.74,South,180,0.0,0.0,61,0.00,,---,99.99,VWS V14.01,2013-07-23 22:31:00,
2013-07-23 18:32:00,81.0,66.3,29.74,South,180,0.0,0.0,61,0.00,,---,99.99,VWS V14.01,2013-07-23 22:32:00,
2013-07-23 18:33:00,81.0,66.3,29.74,South,180,1.1,1.6,61,0.00,,---,99.99,VWS V14.01,2013-07-23 22:33:00,
2013-07-23 18:34:00,80.4,66.7,29.71,South,180,0.0,0.0,63,0.00,,---,99.99,VWS V14.01,2013-07-23 22:34:00,
2013-07-23 18:35:00,80.8,66.6,29.74,South,180,0.0,0.0,62,0.00,,---,99.99,VWS V14.01,2013-07-23 22:35:00,
2013-07-23 18:36:00,80.8,66.6,29.74,South,180,0.0,0.0,62,0.00,,---,99.99,VWS V14.01,2013-07-23 22:36:00,
2013-07-23 18:37:00,80.8,66.6,29.71,South,180,0.0,0.0,62,0.00,,---,99.99,VWS V14.01,2013-07-23 22:37:00,
2013-07-23 18:38:00,80.6,66.4,29.71,South,180,0.0,1.1,62,0.00,,---,99.99,VWS V14.01,2013-07-23 22:38:00,
2013-07-23 18:39:00,80.4,67.1,29.71,South,180,0.0,0.0,64,0.00,,---,99.99,VWS V14.01,2013-07-23 22:39:00,
2013-07-23 18:40:00,80.6,66.4,29.71,South,180,0.0,0.0,62,0.00,,---,99.99,VWS V14.01,2013-07-23 22:40:00,
2013-07-23 18:41:00,80.6,66.8,29.71,South,180,0.0,0.0,63,0.00,,---,99.99,VWS V14.01,2013-07-23 22:41:00,
2013-07-23 18:42:00,80.4,66.7,29.71,South,180,0.0,0.0,63,0.00,,---,99.99,VWS V14.01,2013-07-23 22:42:00,
2013-07-23 18:43:00,80.4,66.7,29.71,South,180,0.0,0.0,63,0.00,,---,99.99,VWS V14.01,2013-07-23 22:43:00,
2013-07-23 18:44:00,80.4,67.6,29.74,South,180,0.0,0.0,65,0.00,,---,99.99,VWS V14.01,2013-07-23 22:44:00,
2013-07-23 18:45:00,80.4,67.1,29.71,South,180,0.0,0.0,64,0.00,,---,99.99,VWS V14.01,2013-07-23 22:45:00,
2013-07-23 18:46:00,80.4,67.1,29.71,South,180,0.0,0.0,64,0.00,,---,99.99,VWS V14.01,2013-07-23 22:46:00,
2013-07-23 18:47:00,80.4,67.1,29.71,South,180,0.0,0.0,64,0.00,,---,99.99,VWS V14.01,2013-07-23 22:47:00,
2013-07-23 18:48:00,80.4,67.1,29.71,South,180,0.0,0.0,64,0.00,,---,99.99,VWS V14.01,2013-07-23 22:48:00,
2013-07-23 18:49:00,80.1,67.7,29.74,South,180,0.0,0.0,66,0.00,,---,99.99,VWS V14.01,2013-07-23 22:49:00,
2013-07-23 18:50:00,80.4,67.1,29.71,South,180,1.1,1.1,64,0.00,,---,99.99,VWS V14.01,2013-07-23 22:50:00,
2013-07-23 18:51:00,80.4,67.1,29.71,South,180,0.0,1.1,64,0.00,,---,99.99,VWS V14.01,2013-07-23 22:51:00,
2013-07-23 18:52:00,80.4,67.1,29.74,South,180,0.0,0.0,64,0.00,,---,99.99,VWS V14.01,2013-07-23 22:52:00,
2013-07-23 18:53:00,80.4,67.6,29.74,South,180,0.0,0.0,65,0.00,,---,99.99,VWS V14.01,2013-07-23 22:53:00,
2013-07-23 18:54:00,80.4,67.6,29.74,South,180,0.0,0.0,65,0.00,,---,99.99,VWS V14.01,2013-07-23 22:54:00,
2013-07-23 18:55:00,80.1,67.7,29.74,South,180,0.0,0.0,66,0.00,,---,99.99,VWS V14.01,2013-07-23 22:55:00,
2013-07-23 18:56:00,80.2,67.4,29.74,South,180,0.0,1.1,65,0.00,,---,99.99,VWS V14.01,2013-07-23 22:56:00,
2013-07-23 18:57:00,80.2,67.4,29.74,South,180,0.0,0.0,65,0.00,,---,99.99,VWS V14.01,2013-07-23 22:57:00,
2013-07-23 18:58:00,80.1,67.7,29.74,South,180,0.0,0.0,66,0.00,,---,99.99,VWS V14.01,2013-07-23 22:58:00,
2013-07-23 18:59:00,80.1,67.7,29.74,South,180,0.0,0.0,66,0.00,,---,99.99,VWS V14.01,2013-07-23 22:59:00,
2013-07-23 19:00:00,79.9,67.5,29.74,South,180,0.0,0.0,66,0.00,,---,99.99,VWS V14.01,2013-07-23 23:00:00,
2013-07-23 19:01:00,80.1,67.7,29.74,South,180,0.0,0.0,66,0.00,,---,99.99,VWS V14.01,2013-07-23 23:01:00,
2013-07-23 19:02:00,80.1,67.7,29.74,South,180,0.0,0.0,66,0.00,,---,99.99,VWS V14.01,2013-07-23 23:02:00,
2013-07-23 19:03:00,80.1,67.7,29.74,South,180,0.0,0.0,66,0.00,,---,99.99,VWS V14.01,2013-07-23 23:03:00,
2013-07-23 19:04:00,80.1,67.7,29.74,South,180,0.0,0.0,66,0.00,,---,99.99,VWS V14.01,2013-07-23 23:04:00,
2013-07-23 19:05:00,79.7,67.8,29.74,South,180,0.0,0.0,67,0.00,,---,99.99,VWS V14.01,2013-07-23 23:05:00,
2013-07-23 19:06:00,79.9,67.5,29.74,SSE,158,1.1,1.1,66,0.00,,---,99.99,VWS V14.01,2013-07-23 23:06:00,
2013-07-23 19:07:00,79.9,67.5,29.74,South,180,0.0,1.1,66,0.00,,---,99.99,VWS V14.01,2013-07-23 23:07:00,
2013-07-23 19:08:00,79.9,67.5,29.74,South,180,0.0,0.0,66,0.00,,---,99.99,VWS V14.01,2013-07-23 23:08:00,
2013-07-23 19:09:00,79.9,67.5,29.74,South,180,0.0,0.0,66,0.00,,---,99.99,VWS V14.01,2013-07-23 23:09:00,
2013-07-23 19:10:00,79.5,67.6,29.74,SSW,202,0.0,0.0,67,0.00,,---,99.99,VWS V14.01,2013-07-23 23:10:00,
2013-07-23 19:11:00,79.9,67.9,29.74,South,180,0.0,0.0,67,0.00,,---,99.99,VWS V14.01,2013-07-23 23:11:00,
2013-07-23 19:12:00,79.9,67.9,29.74,South,180,0.0,0.0,67,0.00,,---,99.99,VWS V14.01,2013-07-23 23:12:00,
2013-07-23 19:13:00,79.7,67.8,29.74,SSW,202,0.0,0.0,67,0.00,,---,99.99,VWS V14.01,2013-07-23 23:13:00,
2013-07-23 19:14:00,79.7,67.8,29.74,South,180,0.0,0.0,67,0.00,,---,99.99,VWS V14.01,2013-07-23 23:14:00,
2013-07-23 19:15:00,79.3,67.9,29.74,SSW,202,0.0,0.0,68,0.00,,---,99.99,VWS V14.01,2013-07-23 23:15:00,
2013-07-23 19:16:00,79.5,67.6,29.74,South,180,0.0,0.0,67,0.00,,---,99.99,VWS V14.01,2013-07-23 23:16:00,
2013-07-23 19:17:00,79.5,67.6,29.74,South,180,0.0,0.0,67,0.00,,---,99.99,VWS V14.01,2013-07-23 23:17:00,
2013-07-23 19:18:00,79.5,67.6,29.74,South,180,0.0,0.0,67,0.00,,---,99.99,VWS V14.01,2013-07-23 23:18:00,
2013-07-23 19:19:00,79.5,67.6,29.74,SSW,202,0.0,0.0,67,0.00,,---,99.99,VWS V14.01,2013-07-23 23:19:00,
2013-07-23 19:20:00,79.2,67.7,29.74,SSW,202,0.0,0.0,68,0.00,,---,99.99,VWS V14.01,2013-07-23 23:20:00,
2013-07-23 19:21:00,79.3,67.9,29.74,SSW,202,0.0,0.0,68,0.00,,---,99.99,VWS V14.01,2013-07-23 23:21:00,
2013-07-23 19:22:00,79.3,67.9,29.74,SSW,202,0.0,0.0,68,0.00,,---,99.99,VWS V14.01,2013-07-23 23:22:00,
2013-07-23 19:23:00,79.3,67.9,29.74,SSW,202,0.0,0.0,68,0.00,,---,99.99,VWS V14.01,2013-07-23 23:23:00,
2013-07-23 19:24:00,79.3,67.9,29.74,SSW,202,0.0,0.0,68,0.00,,---,99.99,VWS V14.01,2013-07-23 23:24:00,
2013-07-23 19:25:00,79.0,67.5,29.74,South,180,0.0,0.0,68,0.00,,---,99.99,VWS V14.01,2013-07-23 23:25:00,
2013-07-23 19:26:00,79.3,67.9,29.74,South,180,0.0,0.0,68,0.00,,---,99.99,VWS V14.01,2013-07-23 23:26:00,
2013-07-23 19:27:00,79.2,67.7,29.74,SSW,202,0.0,0.0,68,0.00,,---,99.99,VWS V14.01,2013-07-23 23:27:00,
2013-07-23 19:28:00,79.2,67.7,29.74,SSW,202,0.0,0.0,68,0.00,,---,99.99,VWS V14.01,2013-07-23 23:28:00,
2013-07-23 19:29:00,79.2,67.7,29.74,SSW,202,0.0,0.0,68,0.00,,---,99.99,VWS V14.01,2013-07-23 23:29:00,
2013-07-23 19:30:00,78.8,67.8,29.74,SSW,202,0.0,0.0,69,0.00,,---,99.99,VWS V14.01,2013-07-23 23:30:00,
2013-07-23 19:31:00,79.0,67.5,29.74,SSW,202,0.0,0.0,68,0.00,,---,99.99,VWS V14.01,2013-07-23 23:31:00,
2013-07-23 19:32:00,79.0,67.5,29.74,SSW,202,0.0,0.0,68,0.00,,---,99.99,VWS V14.01,2013-07-23 23:32:00,
2013-07-23 19:33:00,79.0,67.5,29.74,South,180,0.0,0.0,68,0.00,,---,99.99,VWS V14.01,2013-07-23 23:33:00,
2013-07-23 19:34:00,79.0,67.5,29.74,SSW,202,0.0,0.0,68,0.00,,---,99.99,VWS V14.01,2013-07-23 23:34:00,
2013-07-23 19:35:00,78.8,67.8,29.74,South,180,0.0,0.0,69,0.00,,---,99.99,VWS V14.01,2013-07-23 23:35:00,
2013-07-23 19:36:00,79.0,67.9,29.74,SSW,202,0.0,0.0,69,0.00,,---,99.99,VWS V14.01,2013-07-23 23:36:00,
2013-07-23 19:37:00,79.0,67.9,29.74,SSW,202,0.0,0.0,69,0.00,,---,99.99,VWS V14.01,2013-07-23 23:37:00,
2013-07-23 19:38:00,78.8,67.8,29.74,SSW,202,0.0,0.0,69,0.00,,---,99.99,VWS V14.01,2013-07-23 23:38:00,
2013-07-23 19:39:00,78.8,67.8,29.74,SSW,202,0.0,0.0,69,0.00,,---,99.99,VWS V14.01,2013-07-23 23:39:00,
2013-07-23 19:40:00,78.4,67.4,29.74,South,180,0.0,0.0,69,0.00,,---,99.99,VWS V14.01,2013-07-23 23:40:00,
2013-07-23 19:41:00,78.8,67.8,29.74,South,180,0.0,0.0,69,0.00,,---,99.99,VWS V14.01,2013-07-23 23:41:00,
2013-07-23 19:42:00,78.8,67.8,29.74,South,180,0.0,0.0,69,0.00,,---,99.99,VWS V14.01,2013-07-23 23:42:00,
2013-07-23 19:43:00,78.8,67.8,29.74,South,180,0.0,0.0,69,0.00,,---,99.99,VWS V14.01,2013-07-23 23:43:00,
2013-07-23 19:44:00,78.6,67.6,29.74,South,180,0.0,0.0,69,0.00,,---,99.99,VWS V14.01,2013-07-23 23:44:00,
2013-07-23 19:45:00,78.3,67.3,29.74,SSW,202,0.0,0.0,69,0.00,,---,99.99,VWS V14.01,2013-07-23 23:45:00,
2013-07-23 19:46:00,78.6,67.6,29.74,South,180,0.0,0.0,69,0.00,,---,99.99,VWS V14.01,2013-07-23 23:46:00,
2013-07-23 19:47:00,78.6,67.6,29.74,South,180,0.0,0.0,69,0.00,,---,99.99,VWS V14.01,2013-07-23 23:47:00,
2013-07-23 19:48:00,78.6,67.6,29.74,South,180,0.0,0.0,69,0.00,,---,99.99,VWS V14.01,2013-07-23 23:48:00,
2013-07-23 19:49:00,78.4,67.4,29.74,South,180,0.0,0.0,69,0.00,,---,99.99,VWS V14.01,2013-07-23 23:49:00,
2013-07-23 19:50:00,78.1,67.5,29.74,SSW,202,0.0,0.0,70,0.00,,---,99.99,VWS V14.01,2013-07-23 23:50:00,
2013-07-23 19:51:00,78.3,67.3,29.74,South,180,0.0,0.0,69,0.00,,---,99.99,VWS V14.01,2013-07-23 23:51:00,
2013-07-23 19:52:00,78.3,67.3,29.74,South,180,0.0,0.0,69,0.00,,---,99.99,VWS V14.01,2013-07-23 23:52:00,
2013-07-23 19:53:00,78.3,67.3,29.74,SSW,202,0.0,0.0,69,0.00,,---,99.99,VWS V14.01,2013-07-23 23:53:00,
2013-07-23 19:54:00,78.3,67.3,29.74,SSW,202,0.0,0.0,69,0.00,,---,99.99,VWS V14.01,2013-07-23 23:54:00,
2013-07-23 19:55:00,77.9,67.3,29.74,SSW,202,0.0,0.0,70,0.00,,---,99.99,VWS V14.01,2013-07-23 23:55:00,
2013-07-23 19:56:00,78.3,67.3,29.74,SSW,202,0.0,0.0,69,0.00,,---,99.99,VWS V14.01,2013-07-23 23:56:00,
2013-07-23 19:57:00,78.1,67.5,29.74,SSW,202,0.0,0.0,70,0.00,,---,99.99,VWS V14.01,2013-07-23 23:57:00,
2013-07-23 19:58:00,78.1,67.5,29.74,SSW,202,0.0,0.0,70,0.00,,---,99.99,VWS V14.01,2013-07-23 23:58:00,
2013-07-23 19:59:00,78.1,67.5,29.74,SSW,202,0.0,0.0,70,0.00,,---,99.99,VWS V14.01,2013-07-23 23:59:00,
2013-07-23 20:00:00,77.5,67.4,29.74,SSW,202,0.0,0.0,71,0.00,,---,99.99,VWS V14.01,2013-07-24 00:00:00,
2013-07-23 20:01:00,77.9,67.3,29.74,SSW,202,0.0,0.0,70,0.00,,---,99.99,VWS V14.01,2013-07-24 00:01:00,
2013-07-23 20:02:00,77.9,67.3,29.74,SSW,202,0.0,0.0,70,0.00,,---,99.99,VWS V14.01,2013-07-24 00:02:00,
2013-07-23 20:03:00,77.9,67.3,29.74,SSW,202,0.0,0.0,70,0.00,,---,99.99,VWS V14.01,2013-07-24 00:03:00,
2013-07-23 20:04:00,77.9,67.3,29.74,SSW,202,0.0,0.0,70,0.00,,---,99.99,VWS V14.01,2013-07-24 00:04:00,
2013-07-23 20:05:00,77.4,67.6,29.74,SSW,202,0.0,0.0,72,0.00,,---,99.99,VWS V14.01,2013-07-24 00:05:00,
2013-07-23 20:06:00,77.7,67.2,29.74,SSW,202,0.0,0.0,70,0.00,,---,99.99,VWS V14.01,2013-07-24 00:06:00,
2013-07-23 20:07:00,77.7,67.2,29.74,SSW,202,0.0,0.0,70,0.00,,---,99.99,VWS V14.01,2013-07-24 00:07:00,
2013-07-23 20:08:00,77.7,67.6,29.74,SSW,202,0.0,0.0,71,0.00,,---,99.99,VWS V14.01,2013-07-24 00:08:00,
2013-07-23 20:09:00,77.5,67.4,29.74,SSW,202,0.0,0.0,71,0.00,,---,99.99,VWS V14.01,2013-07-24 00:09:00,
2013-07-23 20:10:00,77.2,67.9,29.74,SSW,202,0.0,0.0,73,0.00,,---,99.99,VWS V14.01,2013-07-24 00:10:00,
2013-07-23 20:11:00,77.5,67.4,29.74,SSW,202,0.0,0.0,71,0.00,,---,99.99,VWS V14.01,2013-07-24 00:11:00,
2013-07-23 20:12:00,77.5,67.4,29.74,SSW,202,0.0,0.0,71,0.00,,---,99.99,VWS V14.01,2013-07-24 00:12:00,
2013-07-23 20:13:00,77.5,67.4,29.74,SSW,202,0.0,0.0,71,0.00,,---,99.99,VWS V14.01,2013-07-24 00:13:00,
2013-07-23 20:14:00,77.4,67.6,29.74,SSW,202,0.0,0.0,72,0.00,,---,99.99,VWS V14.01,2013-07-24 00:14:00,
2013-07-23 20:15:00,76.8,67.9,29.74,SSW,202,0.0,0.0,74,0.00,,---,99.99,VWS V14.01,2013-07-24 00:15:00,
2013-07-23 20:16:00,77.4,67.6,29.74,SSW,202,0.0,0.0,72,0.00,,---,99.99,VWS V14.01,2013-07-24 00:16:00,
2013-07-23 20:17:00,77.2,67.5,29.74,SSW,202,0.0,0.0,72,0.00,,---,99.99,VWS V14.01,2013-07-24 00:17:00,
2013-07-23 20:18:00,77.2,67.9,29.74,SSW,202,0.0,0.0,73,0.00,,---,99.99,VWS V14.01,2013-07-24 00:18:00,
2013-07-23 20:19:00,77.2,67.9,29.74,SSW,202,0.0,0.0,73,0.00,,---,99.99,VWS V14.01,2013-07-24 00:19:00,
2013-07-23 20:20:00,76.5,67.9,29.74,SSW,202,0.0,0.0,75,0.00,,---,99.99,VWS V14.01,2013-07-24 00:20:00,
2013-07-23 20:21:00,77.0,67.7,29.74,SSW,202,0.0,0.0,73,0.00,,---,99.99,VWS V14.01,2013-07-24 00:21:00,
2013-07-23 20:22:00,77.0,67.7,29.74,SSW,202,0.0,0.0,73,0.00,,---,99.99,VWS V14.01,2013-07-24 00:22:00,
2013-07-23 20:23:00,76.8,67.9,29.74,SSW,202,0.0,0.0,74,0.00,,---,99.99,VWS V14.01,2013-07-24 00:23:00,
2013-07-23 20:24:00,76.8,67.9,29.74,SSW,202,0.0,0.0,74,0.00,,---,99.99,VWS V14.01,2013-07-24 00:24:00,
2013-07-23 20:25:00,76.3,67.8,29.74,SSW,202,0.0,0.0,75,0.00,,---,99.99,VWS V14.01,2013-07-24 00:25:00,
2013-07-23 20:26:00,76.6,67.7,29.74,SSW,202,0.0,0.0,74,0.00,,---,99.99,VWS V14.01,2013-07-24 00:26:00,
2013-07-23 20:27:00,76.6,67.7,29.74,SSW,202,0.0,0.0,74,0.00,,---,99.99,VWS V14.01,2013-07-24 00:27:00,
2013-07-23 20:28:00,76.6,68.1,29.74,SSW,202,0.0,0.0,75,0.00,,---,99.99,VWS V14.01,2013-07-24 00:28:00,
2013-07-23 20:29:00,76.6,68.1,29.74,SSW,202,0.0,0.0,75,0.00,,---,99.99,VWS V14.01,2013-07-24 00:29:00,
2013-07-23 20:30:00,76.1,68.0,29.76,SSW,202,0.0,0.0,76,0.00,,---,99.99,VWS V14.01,2013-07-24 00:30:00,
2013-07-23 20:31:00,76.5,67.9,29.74,SSW,202,0.0,0.0,75,0.00,,---,99.99,VWS V14.01,2013-07-24 00:31:00,
2013-07-23 20:32:00,76.5,67.9,29.74,SSW,202,0.0,0.0,75,0.00,,---,99.99,VWS V14.01,2013-07-24 00:32:00,
2013-07-23 20:33:00,76.3,67.8,29.74,SSW,202,0.0,0.0,75,0.00,,---,99.99,VWS V14.01,2013-07-24 00:33:00,
2013-07-23 20:34:00,76.3,67.8,29.74,SSW,202,0.0,0.0,75,0.00,,---,99.99,VWS V14.01,2013-07-24 00:34:00,
2013-07-23 20:35:00,75.9,68.2,29.76,SSW,202,0.0,0.0,77,0.00,,---,99.99,VWS V14.01,2013-07-24 00:35:00,
2013-07-23 20:36:00,76.3,68.2,29.74,SSW,202,0.0,0.0,76,0.00,,---,99.99,VWS V14.01,2013-07-24 00:36:00,
2013-07-23 20:37:00,76.1,68.0,29.76,SSW,202,0.0,0.0,76,0.00,,---,99.99,VWS V14.01,2013-07-24 00:37:00,
2013-07-23 20:38:00,76.1,68.0,29.76,SSW,202,0.0,0.0,76,0.00,,---,99.99,VWS V14.01,2013-07-24 00:38:00,
2013-07-23 20:39:00,76.1,68.0,29.76,SSW,202,0.0,0.0,76,0.00,,---,99.99,VWS V14.01,2013-07-24 00:39:00,
2013-07-23 20:40:00,75.6,67.8,29.76,SSW,202,0.0,0.0,77,0.00,,---,99.99,VWS V14.01,2013-07-24 00:40:00,
2013-07-23 20:41:00,75.9,67.8,29.76,SSW,202,0.0,0.0,76,0.00,,---,99.99,VWS V14.01,2013-07-24 00:41:00,
2013-07-23 20:42:00,75.9,68.2,29.76,SSW,202,0.0,0.0,77,0.00,,---,99.99,VWS V14.01,2013-07-24 00:42:00,
2013-07-23 20:43:00,75.9,68.2,29.76,SSW,202,0.0,0.0,77,0.00,,---,99.99,VWS V14.01,2013-07-24 00:43:00,
2013-07-23 20:44:00,75.9,68.2,29.76,SSW,202,0.0,0.0,77,0.00,,---,99.99,VWS V14.01,2013-07-24 00:44:00,
2013-07-23 20:45:00,75.4,68.1,29.76,SSW,202,0.0,0.0,78,0.00,,---,99.99,VWS V14.01,2013-07-24 00:45:00,
2013-07-23 20:46:00,75.7,68.0,29.76,SSW,202,0.0,0.0,77,0.00,,---,99.99,VWS V14.01,2013-07-24 00:46:00,
2013-07-23 20:47:00,75.7,68.0,29.76,SSW,202,0.0,0.0,77,0.00,,---,99.99,VWS V14.01,2013-07-24 00:47:00,
2013-07-23 20:48:00,75.7,68.0,29.76,SSW,202,0.0,0.0,77,0.00,,---,99.99,VWS V14.01,2013-07-24 00:48:00,
2013-07-23 20:49:00,75.6,67.8,29.76,SSW,202,0.0,0.0,77,0.00,,---,99.99,VWS V14.01,2013-07-24 00:49:00,
2013-07-23 20:50:00,75.2,68.2,29.76,SSW,202,0.0,0.0,79,0.00,,---,99.99,VWS V14.01,2013-07-24 00:50:00,
2013-07-23 20:51:00,75.6,68.2,29.76,SSW,202,0.0,0.0,78,0.00,,---,99.99,VWS V14.01,2013-07-24 00:51:00,
2013-07-23 20:52:00,75.6,68.2,29.76,SSW,202,0.0,0.0,78,0.00,,---,99.99,VWS V14.01,2013-07-24 00:52:00,
2013-07-23 20:53:00,75.4,68.1,29.76,SSW,202,0.0,0.0,78,0.00,,---,99.99,VWS V14.01,2013-07-24 00:53:00,
2013-07-23 20:54:00,75.4,68.1,29.76,SSW,202,0.0,0.0,78,0.00,,---,99.99,VWS V14.01,2013-07-24 00:54:00,
2013-07-23 20:55:00,75.4,68.1,29.76,SSW,202,0.0,0.0,78,0.00,,---,99.99,VWS V14.01,2013-07-24 00:55:00,
2013-07-23 20:56:00,74.8,67.9,29.76,SSW,202,0.0,0.0,79,0.00,,---,99.99,VWS V14.01,2013-07-24 00:56:00,
2013-07-23 20:57:00,75.2,67.9,29.76,SSW,202,0.0,0.0,78,0.00,,---,99.99,VWS V14.01,2013-07-24 00:57:00,
2013-07-23 20:58:00,75.2,67.9,29.76,SSW,202,0.0,0.0,78,0.00,,---,99.99,VWS V14.01,2013-07-24 00:58:00,
2013-07-23 20:59:00,75.2,68.2,29.76,SSW,202,0.0,0.0,79,0.00,,---,99.99,VWS V14.01,2013-07-24 00:59:00,
2013-07-23 21:00:00,75.0,68.1,29.76,SSW,202,0.0,0.0,79,0.00,,---,99.99,VWS V14.01,2013-07-24 01:00:00,
2013-07-23 21:01:00,74.8,68.3,29.76,SSW,202,0.0,0.0,80,0.00,,---,99.99,VWS V14.01,2013-07-24 01:01:00,
2013-07-23 21:02:00,75.0,68.1,29.76,SSW,202,0.0,0.0,79,0.00,,---,99.99,VWS V14.01,2013-07-24 01:02:00,
2013-07-23 21:03:00,75.0,68.1,29.76,SSW,202,0.0,0.0,79,0.00,,---,99.99,VWS V14.01,2013-07-24 01:03:00,
2013-07-23 21:04:00,75.0,68.1,29.76,SSW,202,0.0,0.0,79,0.00,,---,99.99,VWS V14.01,2013-07-24 01:04:00,
2013-07-23 21:05:00,74.8,67.9,29.76,SSW,202,0.0,0.0,79,0.00,,---,99.99,VWS V14.01,2013-07-24 01:05:00,
2013-07-23 21:06:00,74.7,68.4,29.76,SSW,202,0.0,0.0,81,0.00,,---,99.99,VWS V14.01,2013-07-24 01:06:00,
2013-07-23 21:07:00,74.8,68.3,29.76,SSW,202,0.0,0.0,80,0.00,,---,99.99,VWS V14.01,2013-07-24 01:07:00,
2013-07-23 21:08:00,74.8,67.9,29.76,SSW,202,0.0,0.0,79,0.00,,---,99.99,VWS V14.01,2013-07-24 01:08:00,
2013-07-23 21:09:00,74.8,68.3,29.76,SSW,202,0.0,0.0,80,0.00,,---,99.99,VWS V14.01,2013-07-24 01:09:00,
2013-07-23 21:10:00,74.8,68.3,29.76,SSW,202,0.0,0.0,80,0.00,,---,99.99,VWS V14.01,2013-07-24 01:10:00,
2013-07-23 21:11:00,74.5,68.3,29.76,SSW,202,0.0,0.0,81,0.00,,---,99.99,VWS V14.01,2013-07-24 01:11:00,
2013-07-23 21:12:00,74.7,68.1,29.76,SSW,202,0.0,0.0,80,0.00,,---,99.99,VWS V14.01,2013-07-24 01:12:00,
2013-07-23 21:13:00,74.7,68.1,29.76,SSW,202,0.0,0.0,80,0.00,,---,99.99,VWS V14.01,2013-07-24 01:13:00,
2013-07-23 21:14:00,74.7,68.1,29.76,SSW,202,0.0,0.0,80,0.00,,---,99.99,VWS V14.01,2013-07-24 01:14:00,
2013-07-23 21:15:00,74.7,68.4,29.76,SSW,202,0.0,0.0,81,0.00,,---,99.99,VWS V14.01,2013-07-24 01:15:00,
2013-07-23 21:16:00,74.5,68.6,29.79,SSW,202,0.0,0.0,82,0.00,,---,99.99,VWS V14.01,2013-07-24 01:16:00,
2013-07-23 21:17:00,74.7,68.4,29.76,SSW,202,0.0,0.0,81,0.00,,---,99.99,VWS V14.01,2013-07-24 01:17:00,
2013-07-23 21:18:00,74.7,68.4,29.76,SSW,202,0.0,0.0,81,0.00,,---,99.99,VWS V14.01,2013-07-24 01:18:00,
2013-07-23 21:19:00,74.5,68.3,29.76,SSW,202,0.0,0.0,81,0.00,,---,99.99,VWS V14.01,2013-07-24 01:19:00,
2013-07-23 21:20:00,74.5,68.3,29.76,SSW,202,0.0,0.0,81,0.00,,---,99.99,VWS V14.01,2013-07-24 01:20:00,
2013-07-23 21:21:00,74.3,68.4,29.79,SSW,202,0.0,0.0,82,0.00,,---,99.99,VWS V14.01,2013-07-24 01:21:00,
2013-07-23 21:22:00,74.5,68.6,29.76,SSW,202,0.0,0.0,82,0.00,,---,99.99,VWS V14.01,2013-07-24 01:22:00,
2013-07-23 21:23:00,74.5,68.6,29.79,SSW,202,0.0,0.0,82,0.00,,---,99.99,VWS V14.01,2013-07-24 01:23:00,
2013-07-23 21:24:00,74.5,68.6,29.79,SSW,202,0.0,0.0,82,0.00,,---,99.99,VWS V14.01,2013-07-24 01:24:00,
2013-07-23 21:25:00,74.5,68.6,29.79,SSW,202,0.0,0.0,82,0.00,,---,99.99,VWS V14.01,2013-07-24 01:25:00,
2013-07-23 21:26:00,74.1,68.6,29.79,SSW,202,0.0,0.0,83,0.00,,---,99.99,VWS V14.01,2013-07-24 01:26:00,
2013-07-23 21:27:00,74.3,68.4,29.79,SSW,202,0.0,0.0,82,0.00,,---,99.99,VWS V14.01,2013-07-24 01:27:00,
2013-07-23 21:28:00,74.3,68.4,29.79,SSW,202,0.0,0.0,82,0.00,,---,99.99,VWS V14.01,2013-07-24 01:28:00,
2013-07-23 21:29:00,74.3,68.4,29.79,SSW,202,0.0,0.0,82,0.00,,---,99.99,VWS V14.01,2013-07-24 01:29:00,
2013-07-23 21:30:00,74.3,68.4,29.79,SSW,202,0.0,0.0,82,0.00,,---,99.99,VWS V14.01,2013-07-24 01:30:00,
2013-07-23 21:31:00,74.1,69.0,29.79,SSW,202,0.0,0.0,84,0.00,,---,99.99,VWS V14.01,2013-07-24 01:31:00,
2013-07-23 21:32:00,74.3,68.4,29.79,SSW,202,0.0,0.0,82,0.00,,---,99.99,VWS V14.01,2013-07-24 01:32:00,
2013-07-23 21:33:00,74.1,68.3,29.79,SSW,202,0.0,0.0,82,0.00,,---,99.99,VWS V14.01,2013-07-24 01:33:00,
2013-07-23 21:34:00,74.1,68.6,29.79,SSW,202,0.0,0.0,83,0.00,,---,99.99,VWS V14.01,2013-07-24 01:34:00,
2013-07-23 21:35:00,74.1,68.6,29.79,SSW,202,0.0,0.0,83,0.00,,---,99.99,VWS V14.01,2013-07-24 01:35:00,
2013-07-23 21:36:00,73.9,68.8,29.79,SSW,202,0.0,0.0,84,0.00,,---,99.99,VWS V14.01,2013-07-24 01:36:00,
2013-07-23 21:37:00,74.1,68.6,29.79,SSW,202,0.0,0.0,83,0.00,,---,99.99,VWS V14.01,2013-07-24 01:37:00,
2013-07-23 21:38:00,74.1,68.6,29.79,SSW,202,0.0,0.0,83,0.00,,---,99.99,VWS V14.01,2013-07-24 01:38:00,
2013-07-23 21:39:00,74.1,68.6,29.79,SSW,202,0.0,0.0,83,0.00,,---,99.99,VWS V14.01,2013-07-24 01:39:00,
2013-07-23 21:40:00,74.1,69.0,29.79,SSW,202,0.0,0.0,84,0.00,,---,99.99,VWS V14.01,2013-07-24 01:40:00,
2013-07-23 21:41:00,73.9,68.8,29.79,SSW,202,0.0,0.0,84,0.00,,---,99.99,VWS V14.01,2013-07-24 01:41:00,
2013-07-23 21:42:00,73.9,68.8,29.79,SSW,202,0.0,0.0,84,0.00,,---,99.99,VWS V14.01,2013-07-24 01:42:00,
2013-07-23 21:43:00,74.1,69.0,29.79,SSW,202,0.0,0.0,84,0.00,,---,99.99,VWS V14.01,2013-07-24 01:43:00,
2013-07-23 21:44:00,73.9,68.8,29.79,SSW,202,0.0,0.0,84,0.00,,---,99.99,VWS V14.01,2013-07-24 01:44:00,
2013-07-23 21:45:00,73.9,68.8,29.79,SSW,202,0.0,0.0,84,0.00,,---,99.99,VWS V14.01,2013-07-24 01:45:00,
2013-07-23 21:46:00,73.8,69.0,29.79,SSW,202,0.0,0.0,85,0.00,,---,99.99,VWS V14.01,2013-07-24 01:46:00,
2013-07-23 21:47:00,73.9,68.8,29.79,SSW,202,0.0,0.0,84,0.00,,---,99.99,VWS V14.01,2013-07-24 01:47:00,
2013-07-23 21:48:00,73.9,68.8,29.79,SSW,202,0.0,0.0,84,0.00,,---,99.99,VWS V14.01,2013-07-24 01:48:00,
2013-07-23 21:49:00,73.9,68.8,29.79,SSW,202,0.0,0.0,84,0.00,,---,99.99,VWS V14.01,2013-07-24 01:49:00,
2013-07-23 21:50:00,73.9,68.8,29.79,SSW,202,0.0,0.0,84,0.00,,---,99.99,VWS V14.01,2013-07-24 01:50:00,
2013-07-23 21:51:00,73.8,69.0,29.79,SSW,202,0.0,0.0,85,0.00,,---,99.99,VWS V14.01,2013-07-24 01:51:00,
2013-07-23 21:52:00,73.9,69.2,29.79,SSW,202,0.0,0.0,85,0.00,,---,99.99,VWS V14.01,2013-07-24 01:52:00,
2013-07-23 21:53:00,73.8,69.0,29.79,SSW,202,0.0,0.0,85,0.00,,---,99.99,VWS V14.01,2013-07-24 01:53:00,
2013-07-23 21:54:00,73.8,69.0,29.79,SSW,202,0.0,0.0,85,0.00,,---,99.99,VWS V14.01,2013-07-24 01:54:00,
2013-07-23 21:55:00,73.8,69.0,29.79,SSW,202,0.0,0.0,85,0.00,,---,99.99,VWS V14.01,2013-07-24 01:55:00,
2013-07-23 21:56:00,73.6,68.8,29.79,SSW,202,0.0,0.0,85,0.00,,---,99.99,VWS V14.01,2013-07-24 01:56:00,
2013-07-23 21:57:00,73.8,69.0,29.79,SSW,202,0.0,0.0,85,0.00,,---,99.99,VWS V14.01,2013-07-24 01:57:00,
2013-07-23 21:58:00,73.8,69.0,29.79,SSW,202,0.0,0.0,85,0.00,,---,99.99,VWS V14.01,2013-07-24 01:58:00,
2013-07-23 21:59:00,73.8,69.0,29.79,SSW,202,0.0,0.0,85,0.00,,---,99.99,VWS V14.01,2013-07-24 01:59:00,
2013-07-23 22:00:00,73.8,69.0,29.79,SSW,202,0.0,0.0,85,0.00,,---,99.99,VWS V14.01,2013-07-24 02:00:00,
2013-07-23 22:01:00,73.4,69.0,29.79,SSW,202,0.0,0.0,86,0.00,,---,99.99,VWS V14.01,2013-07-24 02:01:00,
2013-07-23 22:02:00,73.6,68.8,29.79,SSW,202,0.0,0.0,85,0.00,,---,99.99,VWS V14.01,2013-07-24 02:02:00,
2013-07-23 22:03:00,73.6,68.8,29.79,SSW,202,0.0,0.0,85,0.00,,---,99.99,VWS V14.01,2013-07-24 02:03:00,
2013-07-23 22:04:00,73.6,68.8,29.79,SSW,202,0.0,0.0,85,0.00,,---,99.99,VWS V14.01,2013-07-24 02:04:00,
2013-07-23 22:05:00,73.6,68.8,29.79,SSW,202,0.0,0.0,85,0.00,,---,99.99,VWS V14.01,2013-07-24 02:05:00,
2013-07-23 22:06:00,73.4,69.0,29.79,SSW,202,0.0,0.0,86,0.00,,---,99.99,VWS V14.01,2013-07-24 02:06:00,
2013-07-23 22:07:00,73.6,69.1,29.79,SSW,202,0.0,0.0,86,0.00,,---,99.99,VWS V14.01,2013-07-24 02:07:00,
2013-07-23 22:08:00,73.6,69.1,29.79,SSW,202,0.0,0.0,86,0.00,,---,99.99,VWS V14.01,2013-07-24 02:08:00,
2013-07-23 22:09:00,73.4,69.0,29.79,SSW,202,0.0,0.0,86,0.00,,---,99.99,VWS V14.01,2013-07-24 02:09:00,
2013-07-23 22:10:00,73.4,69.0,29.79,SSW,202,0.0,0.0,86,0.00,,---,99.99,VWS V14.01,2013-07-24 02:10:00,
2013-07-23 22:11:00,73.2,68.8,29.79,SSW,202,0.0,0.0,86,0.00,,---,99.99,VWS V14.01,2013-07-24 02:11:00,
2013-07-23 22:12:00,73.4,69.0,29.79,SSW,202,0.0,0.0,86,0.00,,---,99.99,VWS V14.01,2013-07-24 02:12:00,
2013-07-23 22:13:00,73.4,69.0,29.79,SSW,202,0.0,0.0,86,0.00,,---,99.99,VWS V14.01,2013-07-24 02:13:00,
2013-07-23 22:14:00,73.4,69.0,29.79,SSW,202,0.0,0.0,86,0.00,,---,99.99,VWS V14.01,2013-07-24 02:14:00,
2013-07-23 22:15:00,73.4,69.0,29.79,SSW,202,0.0,0.0,86,0.00,,---,99.99,VWS V14.01,2013-07-24 02:15:00,
2013-07-23 22:16:00,73.0,68.9,29.79,SSW,202,0.0,0.0,87,0.00,,---,99.99,VWS V14.01,2013-07-24 02:16:00,
2013-07-23 22:17:00,73.4,69.0,29.79,SSW,202,0.0,0.0,86,0.00,,---,99.99,VWS V14.01,2013-07-24 02:17:00,
2013-07-23 22:18:00,73.2,68.8,29.79,SSW,202,0.0,0.0,86,0.00,,---,99.99,VWS V14.01,2013-07-24 02:18:00,
2013-07-23 22:19:00,73.2,68.8,29.79,SSW,202,0.0,0.0,86,0.00,,---,99.99,VWS V14.01,2013-07-24 02:19:00,
2013-07-23 22:20:00,73.2,68.8,29.79,SSW,202,0.0,0.0,86,0.00,,---,99.99,VWS V14.01,2013-07-24 02:20:00,
2013-07-23 22:21:00,73.0,68.9,29.79,SSW,202,0.0,0.0,87,0.00,,---,99.99,VWS V14.01,2013-07-24 02:21:00,
2013-07-23 22:22:00,73.2,68.8,29.79,SSW,202,0.0,0.0,86,0.00,,---,99.99,VWS V14.01,2013-07-24 02:22:00,
2013-07-23 22:23:00,73.2,69.1,29.79,SSW,202,0.0,0.0,87,0.00,,---,99.99,VWS V14.01,2013-07-24 02:23:00,
2013-07-23 22:24:00,73.0,68.9,29.79,SSW,202,0.0,0.0,87,0.00,,---,99.99,VWS V14.01,2013-07-24 02:24:00,
2013-07-23 22:25:00,73.0,68.9,29.79,SSW,202,0.0,0.0,87,0.00,,---,99.99,VWS V14.01,2013-07-24 02:25:00,
2013-07-23 22:26:00,72.9,68.8,29.79,SSW,202,0.0,0.0,87,0.00,,---,99.99,VWS V14.01,2013-07-24 02:26:00,
2013-07-23 22:27:00,73.0,68.9,29.79,SSW,202,0.0,0.0,87,0.00,,---,99.99,VWS V14.01,2013-07-24 02:27:00,
2013-07-23 22:28:00,73.0,68.9,29.79,SSW,202,0.0,0.0,87,0.00,,---,99.99,VWS V14.01,2013-07-24 02:28:00,
2013-07-23 22:29:00,73.0,68.9,29.79,SSW,202,0.0,0.0,87,0.00,,---,99.99,VWS V14.01,2013-07-24 02:29:00,
2013-07-23 22:30:00,73.0,68.9,29.79,SSW,202,0.0,0.0,87,0.00,,---,99.99,VWS V14.01,2013-07-24 02:30:00,
2013-07-23 22:31:00,72.9,69.1,29.79,SSW,202,0.0,0.0,88,0.00,,---,99.99,VWS V14.01,2013-07-24 02:31:00,
2013-07-23 22:32:00,72.9,68.8,29.79,SSW,202,0.0,0.0,87,0.00,,---,99.99,VWS V14.01,2013-07-24 02:32:00,
2013-07-23 22:33:00,72.9,68.8,29.79,SSW,202,0.0,0.0,87,0.00,,---,99.99,VWS V14.01,2013-07-24 02:33:00,
2013-07-23 22:34:00,72.9,68.8,29.79,SSW,202,0.0,0.0,87,0.00,,---,99.99,VWS V14.01,2013-07-24 02:34:00,
2013-07-23 22:35:00,72.9,68.8,29.79,SSW,202,0.0,0.0,87,0.00,,---,99.99,VWS V14.01,2013-07-24 02:35:00,
2013-07-23 22:36:00,72.9,68.8,29.79,SSW,202,0.0,0.0,87,0.00,,---,99.99,VWS V14.01,2013-07-24 02:36:00,
2013-07-23 22:37:00,72.9,69.1,29.79,SSW,202,0.0,0.0,88,0.00,,---,99.99,VWS V14.01,2013-07-24 02:37:00,
2013-07-23 22:38:00,72.9,68.8,29.79,SSW,202,0.0,0.0,87,0.00,,---,99.99,VWS V14.01,2013-07-24 02:38:00,
2013-07-23 22:39:00,72.9,68.8,29.79,SSW,202,0.0,0.0,87,0.00,,---,99.99,VWS V14.01,2013-07-24 02:39:00,
2013-07-23 22:40:00,72.9,69.1,29.79,SSW,202,0.0,0.0,88,0.00,,---,99.99,VWS V14.01,2013-07-24 02:40:00,
2013-07-23 22:41:00,72.9,69.1,29.79,SSW,202,0.0,0.0,88,0.00,,---,99.99,VWS V14.01,2013-07-24 02:41:00,
2013-07-23 22:42:00,72.7,68.9,29.79,SSW,202,0.0,0.0,88,0.00,,---,99.99,VWS V14.01,2013-07-24 02:42:00,
2013-07-23 22:43:00,72.9,69.1,29.79,SSW,202,0.0,0.0,88,0.00,,---,99.99,VWS V14.01,2013-07-24 02:43:00,
2013-07-23 22:44:00,72.9,69.1,29.79,SSW,202,0.0,0.0,88,0.00,,---,99.99,VWS V14.01,2013-07-24 02:44:00,
2013-07-23 22:45:00,72.9,69.1,29.79,SSW,202,0.0,0.0,88,0.00,,---,99.99,VWS V14.01,2013-07-24 02:45:00,
2013-07-23 22:46:00,72.7,68.9,29.79,SSW,202,0.0,0.0,88,0.00,,---,99.99,VWS V14.01,2013-07-24 02:46:00,
2013-07-23 22:47:00,72.7,68.9,29.79,SSW,202,0.0,0.0,88,0.00,,---,99.99,VWS V14.01,2013-07-24 02:47:00,
2013-07-23 22:48:00,72.7,68.9,29.79,SSW,202,0.0,0.0,88,0.00,,---,99.99,VWS V14.01,2013-07-24 02:48:00,
2013-07-23 22:49:00,72.7,68.9,29.79,SSW,202,0.0,0.0,88,0.00,,---,99.99,VWS V14.01,2013-07-24 02:49:00,
2013-07-23 22:50:00,72.7,68.9,29.79,SSW,202,0.0,0.0,88,0.00,,---,99.99,VWS V14.01,2013-07-24 02:50:00,
2013-07-23 22:51:00,72.7,68.9,29.79,SSW,202,0.0,0.0,88,0.00,,---,99.99,VWS V14.01,2013-07-24 02:51:00,
2013-07-23 22:52:00,72.5,68.8,29.79,SSW,202,0.0,0.0,88,0.00,,---,99.99,VWS V14.01,2013-07-24 02:52:00,
2013-07-23 22:53:00,72.7,68.9,29.79,SSW,202,0.0,0.0,88,0.00,,---,99.99,VWS V14.01,2013-07-24 02:53:00,
2013-07-23 22:54:00,72.7,68.9,29.79,SSW,202,0.0,0.0,88,0.00,,---,99.99,VWS V14.01,2013-07-24 02:54:00,
2013-07-23 22:55:00,72.7,68.9,29.79,SSW,202,0.0,0.0,88,0.00,,---,99.99,VWS V14.01,2013-07-24 02:55:00,
2013-07-23 22:56:00,72.7,68.9,29.79,SSW,202,0.0,0.0,88,0.00,,---,99.99,VWS V14.01,2013-07-24 02:56:00,
2013-07-23 22:57:00,72.5,69.1,29.79,SSW,202,0.0,0.0,89,0.00,,---,99.99,VWS V14.01,2013-07-24 02:57:00,
2013-07-23 22:59:00,72.5,68.8,29.79,SSW,202,0.0,0.0,88,0.00,,---,99.99,VWS V14.01,2013-07-24 02:59:00,
2013-07-23 23:00:00,72.5,68.8,29.79,SSW,202,0.0,0.0,88,0.00,,---,99.99,VWS V14.01,2013-07-24 03:00:00,
2013-07-23 23:02:00,72.5,69.1,29.79,SSW,202,0.0,0.0,89,0.00,,---,99.99,VWS V14.01,2013-07-24 03:02:00,
2013-07-23 23:03:00,72.5,68.8,29.79,SSW,202,0.0,0.0,88,0.00,,---,99.99,VWS V14.01,2013-07-24 03:03:00,
2013-07-23 23:04:00,72.5,69.1,29.79,SSW,202,0.0,0.0,89,0.00,,---,99.99,VWS V14.01,2013-07-24 03:04:00,
2013-07-23 23:06:00,72.5,69.1,29.79,SSW,202,0.0,0.0,89,0.00,,---,99.99,VWS V14.01,2013-07-24 03:06:00,
2013-07-23 23:07:00,72.5,69.1,29.79,SSW,202,0.0,0.0,89,0.00,,---,99.99,VWS V14.01,2013-07-24 03:07:00,
2013-07-23 23:08:00,72.5,69.1,29.79,SSW,202,0.0,0.0,89,0.00,,---,99.99,VWS V14.01,2013-07-24 03:08:00,
2013-07-23 23:09:00,72.5,69.1,29.79,SSW,202,0.0,0.0,89,0.00,,---,99.99,VWS V14.01,2013-07-24 03:09:00,
2013-07-23 23:10:00,72.5,69.1,29.79,SSW,202,0.0,0.0,89,0.00,,---,99.99,VWS V14.01,2013-07-24 03:10:00,
2013-07-23 23:11:00,72.5,69.1,29.79,SSW,202,0.0,0.0,89,0.00,,---,99.99,VWS V14.01,2013-07-24 03:11:00,
2013-07-23 23:12:00,72.3,68.9,29.79,SSW,202,0.0,0.0,89,0.00,,---,99.99,VWS V14.01,2013-07-24 03:12:00,
2013-07-23 23:14:00,72.5,69.1,29.79,SSW,202,0.0,0.0,89,0.00,,---,99.99,VWS V14.01,2013-07-24 03:14:00,
2013-07-23 23:15:00,72.5,69.1,29.79,SSW,202,0.0,0.0,89,0.00,,---,99.99,VWS V14.01,2013-07-24 03:15:00,
2013-07-23 23:16:00,72.5,69.1,29.79,SSW,202,0.0,0.0,89,0.00,,---,99.99,VWS V14.01,2013-07-24 03:16:00,
2013-07-23 23:17:00,72.5,69.4,29.79,SSW,202,0.0,0.0,90,0.00,,---,99.99,VWS V14.01,2013-07-24 03:17:00,
2013-07-23 23:18:00,72.5,69.1,29.79,SSW,202,0.0,0.0,89,0.00,,---,99.99,VWS V14.01,2013-07-24 03:18:00,
2013-07-23 23:19:00,72.5,69.1,29.79,SSW,202,0.0,0.0,89,0.00,,---,99.99,VWS V14.01,2013-07-24 03:19:00,
2013-07-23 23:20:00,72.3,68.9,29.79,SSW,202,0.0,0.0,89,0.00,,---,99.99,VWS V14.01,2013-07-24 03:20:00,
2013-07-23 23:21:00,72.3,68.9,29.79,SSW,202,0.0,0.0,89,0.00,,---,99.99,VWS V14.01,2013-07-24 03:21:00,
2013-07-23 23:22:00,72.3,69.2,29.79,SSW,202,0.0,0.0,90,0.00,,---,99.99,VWS V14.01,2013-07-24 03:22:00,
2013-07-23 23:23:00,72.3,68.9,29.79,SSW,202,0.0,0.0,89,0.00,,---,99.99,VWS V14.01,2013-07-24 03:23:00,
2013-07-23 23:24:00,72.5,69.4,29.79,SSW,202,0.0,0.0,90,0.00,,---,99.99,VWS V14.01,2013-07-24 03:24:00,
2013-07-23 23:25:00,72.5,69.4,29.79,SSW,202,0.0,0.0,90,0.00,,---,99.99,VWS V14.01,2013-07-24 03:25:00,
2013-07-23 23:26:00,72.5,69.4,29.79,SSW,202,0.0,0.0,90,0.00,,---,99.99,VWS V14.01,2013-07-24 03:26:00,
2013-07-23 23:27:00,72.3,69.2,29.79,SSW,202,0.0,0.0,90,0.00,,---,99.99,VWS V14.01,2013-07-24 03:27:00,
2013-07-23 23:28:00,72.5,69.4,29.79,SSW,202,0.0,0.0,90,0.00,,---,99.99,VWS V14.01,2013-07-24 03:28:00,
2013-07-23 23:29:00,72.3,69.2,29.79,SSW,202,0.0,0.0,90,0.00,,---,99.99,VWS V14.01,2013-07-24 03:29:00,
2013-07-23 23:30:00,72.5,69.4,29.79,SSW,202,0.0,0.0,90,0.00,,---,99.99,VWS V14.01,2013-07-24 03:30:00,
2013-07-23 23:31:00,72.5,69.4,29.79,SSW,202,0.0,0.0,90,0.00,,---,99.99,VWS V14.01,2013-07-24 03:31:00,
2013-07-23 23:32:00,72.3,69.2,29.76,SSW,202,0.0,0.0,90,0.00,,---,99.99,VWS V14.01,2013-07-24 03:32:00,
2013-07-23 23:33:00,72.3,69.2,29.79,SSW,202,0.0,0.0,90,0.00,,---,99.99,VWS V14.01,2013-07-24 03:33:00,
2013-07-23 23:34:00,72.3,69.2,29.79,SSW,202,0.0,0.0,90,0.00,,---,99.99,VWS V14.01,2013-07-24 03:34:00,
2013-07-23 23:35:00,72.3,69.2,29.79,SSW,202,0.0,0.0,90,0.00,,---,99.99,VWS V14.01,2013-07-24 03:35:00,
2013-07-23 23:36:00,72.3,69.2,29.79,SSW,202,0.0,0.0,90,0.00,,---,99.99,VWS V14.01,2013-07-24 03:36:00,
2013-07-23 23:37:00,72.1,69.1,29.76,SSW,202,0.0,0.0,90,0.00,,---,99.99,VWS V14.01,2013-07-24 03:37:00,
2013-07-23 23:38:00,72.3,69.2,29.76,SSW,202,0.0,0.0,90,0.00,,---,99.99,VWS V14.01,2013-07-24 03:38:00,
2013-07-23 23:39:00,72.3,69.2,29.76,SSW,202,0.0,0.0,90,0.00,,---,99.99,VWS V14.01,2013-07-24 03:39:00,
2013-07-23 23:40:00,72.3,69.2,29.76,SSW,202,0.0,0.0,90,0.00,,---,99.99,VWS V14.01,2013-07-24 03:40:00,
2013-07-23 23:41:00,72.3,69.2,29.76,SSW,202,0.0,0.0,90,0.00,,---,99.99,VWS V14.01,2013-07-24 03:41:00,
2013-07-23 23:42:00,72.1,69.1,29.76,SSW,202,0.0,0.0,90,0.00,,---,99.99,VWS V14.01,2013-07-24 03:42:00,
2013-07-23 23:43:00,72.3,69.2,29.76,SSW,202,0.0,0.0,90,0.00,,---,99.99,VWS V14.01,2013-07-24 03:43:00,
2013-07-23 23:44:00,72.3,69.2,29.76,SSW,202,0.0,0.0,90,0.00,,---,99.99,VWS V14.01,2013-07-24 03:44:00,
2013-07-23 23:45:00,72.1,69.1,29.76,SSW,202,0.0,0.0,90,0.00,,---,99.99,VWS V14.01,2013-07-24 03:45:00,
2013-07-23 23:46:00,72.1,69.1,29.76,SSW,202,0.0,0.0,90,0.00,,---,99.99,VWS V14.01,2013-07-24 03:46:00,
2013-07-23 23:47:00,72.1,69.4,29.79,SSW,202,0.0,0.0,91,0.00,,---,99.99,VWS V14.01,2013-07-24 03:47:00,
2013-07-23 23:48:00,72.1,69.1,29.76,SSW,202,0.0,0.0,90,0.00,,---,99.99,VWS V14.01,2013-07-24 03:48:00,
2013-07-23 23:49:00,72.1,69.1,29.76,SSW,202,0.0,0.0,90,0.00,,---,99.99,VWS V14.01,2013-07-24 03:49:00,
2013-07-23 23:50:00,72.1,69.4,29.76,SSW,202,0.0,0.0,91,0.00,,---,99.99,VWS V14.01,2013-07-24 03:50:00,
2013-07-23 23:51:00,72.1,69.1,29.76,SSW,202,0.0,0.0,90,0.00,,---,99.99,VWS V14.01,2013-07-24 03:51:00,
2013-07-23 23:52:00,72.1,69.4,29.79,SSW,202,0.0,0.0,91,0.00,,---,0.00,VWS V14.01,2013-07-24 03:52:00,
2013-07-23 23:53:00,72.1,69.4,29.79,SSW,202,0.0,0.0,91,0.00,,---,99.99,VWS V14.01,2013-07-24 03:53:00,
2013-07-23 23:54:00,72.1,69.1,29.79,SSW,202,0.0,0.0,90,0.00,,---,99.99,VWS V14.01,2013-07-24 03:54:00,
2013-07-23 23:56:00,72.1,69.4,29.79,SSW,202,0.0,0.0,91,0.00,,---,99.99,VWS V14.01,2013-07-24 03:56:00,
2013-07-23 23:57:00,72.1,69.4,29.79,SSW,202,0.0,0.0,91,0.00,,---,99.99,VWS V14.01,2013-07-24 03:57:00,
2013-07-23 23:58:00,72.1,69.4,29.79,SSW,202,0.0,0.0,91,0.00,,---,0.00,VWS V14.01,2013-07-24 03:58:00,
2013-07-23 23:59:00,72.1,69.4,29.79,SSW,202,0.0,0.0,91,0.00,,---,99.99,VWS V14.01,2013-07-24 03:59:00,